<?xml version="1.0" encoding="utf-8"?>
<gpx xmlns:xsi="http://www.w3.org/2001/XMLSchema-instance" xmlns:xsd="http://www.w3.org/2001/XMLSchema" version="1.1" creator="Shapelink.com" xmlns="http://www.topografix.com/GPX/1/1" xmlns:gpxtpx="http://www.garmin.com/xmlschemas/TrackPointExtension/v1">
  <metadata>
    <name>Nordic Skiing 12.90 km, 2015-02-11</name>
    <desc></desc>
    <author><name>Stefan Östlund</name></author> 
    <time>2015-02-11T20:15:30Z</time>
  </metadata>
  <trk>
    <name>Nordic Skiing 12.90 km, 2015-02-11</name>
    <trkseg>
      <trkpt lat="60.005115848972" lon="15.768943488005">
        <ele>109.2</ele>
        <time>2015-02-11T20:15:30Z</time>
      </trkpt>
      <trkpt lat="60.005187765674" lon="15.7689774347">
        <ele>108</ele>
        <time>2015-02-11T20:15:31Z</time>
      </trkpt>
      <trkpt lat="60.005248702087" lon="15.769077682224">
        <ele>107.2</ele>
        <time>2015-02-11T20:15:32Z</time>
      </trkpt>
      <trkpt lat="60.005311398699" lon="15.769153035505">
        <ele>106.2</ele>
        <time>2015-02-11T20:15:33Z</time>
      </trkpt>
      <trkpt lat="60.00542614691" lon="15.769278680186">
        <ele>105</ele>
        <time>2015-02-11T20:15:35Z</time>
      </trkpt>
      <trkpt lat="60.005497057784" lon="15.769323523351">
        <ele>104.2</ele>
        <time>2015-02-11T20:15:36Z</time>
      </trkpt>
      <trkpt lat="60.005561598414" lon="15.769354704019">
        <ele>103.8</ele>
        <time>2015-02-11T20:15:37Z</time>
      </trkpt>
      <trkpt lat="60.005638376618" lon="15.769323355713">
        <ele>103.4</ele>
        <time>2015-02-11T20:15:38Z</time>
      </trkpt>
      <trkpt lat="60.005708700759" lon="15.769291923588">
        <ele>102.8</ele>
        <time>2015-02-11T20:15:39Z</time>
      </trkpt>
      <trkpt lat="60.005741222531" lon="15.769151694401">
        <ele>102.4</ele>
        <time>2015-02-11T20:15:40Z</time>
      </trkpt>
      <trkpt lat="60.005773744303" lon="15.769042394425">
        <ele>101.8</ele>
        <time>2015-02-11T20:15:41Z</time>
      </trkpt>
      <trkpt lat="60.005749101517" lon="15.768940973435">
        <ele>101.2</ele>
        <time>2015-02-11T20:15:42Z</time>
      </trkpt>
      <trkpt lat="60.005731918622" lon="15.768845922689">
        <ele>100.6</ele>
        <time>2015-02-11T20:15:43Z</time>
      </trkpt>
      <trkpt lat="60.005632844564" lon="15.76873352141">
        <ele>99.8</ele>
        <time>2015-02-11T20:15:46Z</time>
      </trkpt>
      <trkpt lat="60.005441904882" lon="15.768721367655">
        <ele>101.6</ele>
        <time>2015-02-11T20:15:52Z</time>
      </trkpt>
      <trkpt lat="60.005387254894" lon="15.768716925248">
        <ele>101.4</ele>
        <time>2015-02-11T20:15:54Z</time>
      </trkpt>
      <trkpt lat="60.005223053473" lon="15.76864383508">
        <ele>101.2</ele>
        <time>2015-02-11T20:15:59Z</time>
      </trkpt>
      <trkpt lat="60.005115010782" lon="15.768575438776">
        <ele>101.8</ele>
        <time>2015-02-11T20:16:03Z</time>
      </trkpt>
      <trkpt lat="60.004933542647" lon="15.768388941501">
        <ele>102.6</ele>
        <time>2015-02-11T20:16:09Z</time>
      </trkpt>
      <trkpt lat="60.004905966196" lon="15.768353234607">
        <ele>102.8</ele>
        <time>2015-02-11T20:16:10Z</time>
      </trkpt>
      <trkpt lat="60.004825835232" lon="15.768250975427">
        <ele>102.6</ele>
        <time>2015-02-11T20:16:13Z</time>
      </trkpt>
      <trkpt lat="60.004679068163" lon="15.768088618024">
        <ele>103.4</ele>
        <time>2015-02-11T20:16:19Z</time>
      </trkpt>
      <trkpt lat="60.004612515877" lon="15.768039835366">
        <ele>104</ele>
        <time>2015-02-11T20:16:21Z</time>
      </trkpt>
      <trkpt lat="60.004575803155" lon="15.767961799877">
        <ele>104.2</ele>
        <time>2015-02-11T20:16:24Z</time>
      </trkpt>
      <trkpt lat="60.004483266979" lon="15.767870353348">
        <ele>104</ele>
        <time>2015-02-11T20:16:28Z</time>
      </trkpt>
      <trkpt lat="60.00437421846" lon="15.767823582346">
        <ele>104.8</ele>
        <time>2015-02-11T20:16:33Z</time>
      </trkpt>
      <trkpt lat="60.004353515167" lon="15.767814362256">
        <ele>105.2</ele>
        <time>2015-02-11T20:16:34Z</time>
      </trkpt>
      <trkpt lat="60.004290650917" lon="15.767763400304">
        <ele>106</ele>
        <time>2015-02-11T20:16:37Z</time>
      </trkpt>
      <trkpt lat="60.004269109434" lon="15.76774278083">
        <ele>106.4</ele>
        <time>2015-02-11T20:16:38Z</time>
      </trkpt>
      <trkpt lat="60.004162491666" lon="15.767635576329">
        <ele>107</ele>
        <time>2015-02-11T20:16:43Z</time>
      </trkpt>
      <trkpt lat="60.004090155869" lon="15.767522253041">
        <ele>107.6</ele>
        <time>2015-02-11T20:16:47Z</time>
      </trkpt>
      <trkpt lat="60.004031817845" lon="15.767445391018">
        <ele>108.4</ele>
        <time>2015-02-11T20:16:51Z</time>
      </trkpt>
      <trkpt lat="60.004025112325" lon="15.767405996088">
        <ele>108.6</ele>
        <time>2015-02-11T20:16:52Z</time>
      </trkpt>
      <trkpt lat="60.003990997992" lon="15.76729518737">
        <ele>108.4</ele>
        <time>2015-02-11T20:16:55Z</time>
      </trkpt>
      <trkpt lat="60.003941544782" lon="15.767181277349">
        <ele>108.2</ele>
        <time>2015-02-11T20:16:58Z</time>
      </trkpt>
      <trkpt lat="60.003899719101" lon="15.767104499145">
        <ele>108.2</ele>
        <time>2015-02-11T20:17:00Z</time>
      </trkpt>
      <trkpt lat="60.003864096026" lon="15.767048927148">
        <ele>108.4</ele>
        <time>2015-02-11T20:17:02Z</time>
      </trkpt>
      <trkpt lat="60.003830568426" lon="15.766999473938">
        <ele>108.4</ele>
        <time>2015-02-11T20:17:04Z</time>
      </trkpt>
      <trkpt lat="60.003663098064" lon="15.766759500141">
        <ele>108</ele>
        <time>2015-02-11T20:17:09Z</time>
      </trkpt>
      <trkpt lat="60.003630492473" lon="15.766718428831">
        <ele>107.6</ele>
        <time>2015-02-11T20:17:10Z</time>
      </trkpt>
      <trkpt lat="60.0034823843" lon="15.766531680099">
        <ele>106.4</ele>
        <time>2015-02-11T20:17:14Z</time>
      </trkpt>
      <trkpt lat="60.003405689915" lon="15.766447022909">
        <ele>105.8</ele>
        <time>2015-02-11T20:17:16Z</time>
      </trkpt>
      <trkpt lat="60.003327654426" lon="15.766356498389">
        <ele>105.2</ele>
        <time>2015-02-11T20:17:18Z</time>
      </trkpt>
      <trkpt lat="60.003194717492" lon="15.766240325255">
        <ele>104.6</ele>
        <time>2015-02-11T20:17:22Z</time>
      </trkpt>
      <trkpt lat="60.003099582927" lon="15.766129432718">
        <ele>106.2</ele>
        <time>2015-02-11T20:17:26Z</time>
      </trkpt>
      <trkpt lat="60.003055242676" lon="15.766078722223">
        <ele>107</ele>
        <time>2015-02-11T20:17:28Z</time>
      </trkpt>
      <trkpt lat="60.002986008182" lon="15.765967829686">
        <ele>107.4</ele>
        <time>2015-02-11T20:17:31Z</time>
      </trkpt>
      <trkpt lat="60.002942003207" lon="15.765892224948">
        <ele>107.2</ele>
        <time>2015-02-11T20:17:33Z</time>
      </trkpt>
      <trkpt lat="60.002841001312" lon="15.765567426323">
        <ele>107.2</ele>
        <time>2015-02-11T20:17:38Z</time>
      </trkpt>
      <trkpt lat="60.00279842126" lon="15.765345054516">
        <ele>106</ele>
        <time>2015-02-11T20:17:40Z</time>
      </trkpt>
      <trkpt lat="60.002776209225" lon="15.765226366812">
        <ele>104.8</ele>
        <time>2015-02-11T20:17:41Z</time>
      </trkpt>
      <trkpt lat="60.002734970277" lon="15.765063841771">
        <ele>103.4</ele>
        <time>2015-02-11T20:17:43Z</time>
      </trkpt>
      <trkpt lat="60.00270538217" lon="15.76493149157">
        <ele>103</ele>
        <time>2015-02-11T20:17:45Z</time>
      </trkpt>
      <trkpt lat="60.002659197901" lon="15.764751615996">
        <ele>104.8</ele>
        <time>2015-02-11T20:17:49Z</time>
      </trkpt>
      <trkpt lat="60.002596668927" lon="15.764491274182">
        <ele>105</ele>
        <time>2015-02-11T20:17:54Z</time>
      </trkpt>
      <trkpt lat="60.002497343412" lon="15.764352469918">
        <ele>105.2</ele>
        <time>2015-02-11T20:17:58Z</time>
      </trkpt>
      <trkpt lat="60.00238770816" lon="15.764363785483">
        <ele>105.2</ele>
        <time>2015-02-11T20:18:02Z</time>
      </trkpt>
      <trkpt lat="60.002376141138" lon="15.764412065227">
        <ele>105.2</ele>
        <time>2015-02-11T20:18:03Z</time>
      </trkpt>
      <trkpt lat="60.002344709013" lon="15.764598394864">
        <ele>105.6</ele>
        <time>2015-02-11T20:18:07Z</time>
      </trkpt>
      <trkpt lat="60.002309337395" lon="15.764693613248">
        <ele>105.8</ele>
        <time>2015-02-11T20:18:10Z</time>
      </trkpt>
      <trkpt lat="60.00230221278" lon="15.764741306259">
        <ele>105.6</ele>
        <time>2015-02-11T20:18:11Z</time>
      </trkpt>
      <trkpt lat="60.002254938864" lon="15.764870806614">
        <ele>105.8</ele>
        <time>2015-02-11T20:18:14Z</time>
      </trkpt>
      <trkpt lat="60.002225602214" lon="15.764927384439">
        <ele>106</ele>
        <time>2015-02-11T20:18:15Z</time>
      </trkpt>
      <trkpt lat="60.00221085007" lon="15.764958900383">
        <ele>106.2</ele>
        <time>2015-02-11T20:18:16Z</time>
      </trkpt>
      <trkpt lat="60.002111692193" lon="15.765053532034">
        <ele>107.2</ele>
        <time>2015-02-11T20:18:21Z</time>
      </trkpt>
      <trkpt lat="60.002078583688" lon="15.765062500667">
        <ele>107.8</ele>
        <time>2015-02-11T20:18:24Z</time>
      </trkpt>
      <trkpt lat="60.002065927019" lon="15.765066607798">
        <ele>108</ele>
        <time>2015-02-11T20:18:25Z</time>
      </trkpt>
      <trkpt lat="60.002058048033" lon="15.765071050205">
        <ele>108.2</ele>
        <time>2015-02-11T20:18:26Z</time>
      </trkpt>
      <trkpt lat="60.002018653103" lon="15.765117485931">
        <ele>109</ele>
        <time>2015-02-11T20:18:30Z</time>
      </trkpt>
      <trkpt lat="60.002004571511" lon="15.76513684812">
        <ele>109.2</ele>
        <time>2015-02-11T20:18:31Z</time>
      </trkpt>
      <trkpt lat="60.001962075278" lon="15.76518211038">
        <ele>110.2</ele>
        <time>2015-02-11T20:18:36Z</time>
      </trkpt>
      <trkpt lat="60.001919076131" lon="15.765235083988">
        <ele>111.2</ele>
        <time>2015-02-11T20:18:42Z</time>
      </trkpt>
      <trkpt lat="60.001896445001" lon="15.765239526395">
        <ele>111.4</ele>
        <time>2015-02-11T20:18:43Z</time>
      </trkpt>
      <trkpt lat="60.001876328441" lon="15.76527514947">
        <ele>112</ele>
        <time>2015-02-11T20:18:47Z</time>
      </trkpt>
      <trkpt lat="60.001850093094" lon="15.765276742031">
        <ele>112.2</ele>
        <time>2015-02-11T20:18:50Z</time>
      </trkpt>
      <trkpt lat="60.00183115" lon="15.765254110901">
        <ele>112.4</ele>
        <time>2015-02-11T20:18:53Z</time>
      </trkpt>
      <trkpt lat="60.001804579377" lon="15.765240029309">
        <ele>113.2</ele>
        <time>2015-02-11T20:18:58Z</time>
      </trkpt>
      <trkpt lat="60.001777589659" lon="15.765238352929">
        <ele>113.6</ele>
        <time>2015-02-11T20:19:00Z</time>
      </trkpt>
      <trkpt lat="60.001747582457" lon="15.765218068731">
        <ele>114.4</ele>
        <time>2015-02-11T20:19:04Z</time>
      </trkpt>
      <trkpt lat="60.001749929389" lon="15.765219074559">
        <ele>114.6</ele>
        <time>2015-02-11T20:19:05Z</time>
      </trkpt>
      <trkpt lat="60.001735344883" lon="15.765198706542">
        <ele>115.2</ele>
        <time>2015-02-11T20:19:08Z</time>
      </trkpt>
      <trkpt lat="60.001693183926" lon="15.765174315213">
        <ele>115.6</ele>
        <time>2015-02-11T20:19:11Z</time>
      </trkpt>
      <trkpt lat="60.001685724035" lon="15.76514523002">
        <ele>115.6</ele>
        <time>2015-02-11T20:19:12Z</time>
      </trkpt>
      <trkpt lat="60.001676001031" lon="15.765127292754">
        <ele>115.8</ele>
        <time>2015-02-11T20:19:13Z</time>
      </trkpt>
      <trkpt lat="60.001641970517" lon="15.765128298582">
        <ele>116</ele>
        <time>2015-02-11T20:19:15Z</time>
      </trkpt>
      <trkpt lat="60.001631576961" lon="15.765120838691">
        <ele>116</ele>
        <time>2015-02-11T20:19:16Z</time>
      </trkpt>
      <trkpt lat="60.001614561704" lon="15.765136429025">
        <ele>116.2</ele>
        <time>2015-02-11T20:19:17Z</time>
      </trkpt>
      <trkpt lat="60.00156376739" lon="15.765123269442">
        <ele>116.6</ele>
        <time>2015-02-11T20:19:20Z</time>
      </trkpt>
      <trkpt lat="60.001538286414" lon="15.76513600993">
        <ele>116.8</ele>
        <time>2015-02-11T20:19:21Z</time>
      </trkpt>
      <trkpt lat="60.001522360804" lon="15.765140703794">
        <ele>117</ele>
        <time>2015-02-11T20:19:22Z</time>
      </trkpt>
      <trkpt lat="60.001453293948" lon="15.765178506163">
        <ele>117.4</ele>
        <time>2015-02-11T20:19:25Z</time>
      </trkpt>
      <trkpt lat="60.001399901245" lon="15.765236005997">
        <ele>117.6</ele>
        <time>2015-02-11T20:19:28Z</time>
      </trkpt>
      <trkpt lat="60.001377270115" lon="15.765268527769">
        <ele>117.8</ele>
        <time>2015-02-11T20:19:29Z</time>
      </trkpt>
      <trkpt lat="60.001371067509" lon="15.765295182211">
        <ele>118</ele>
        <time>2015-02-11T20:19:30Z</time>
      </trkpt>
      <trkpt lat="60.001336114986" lon="15.765418899055">
        <ele>118.4</ele>
        <time>2015-02-11T20:19:33Z</time>
      </trkpt>
      <trkpt lat="60.001331756398" lon="15.765490229024">
        <ele>118.4</ele>
        <time>2015-02-11T20:19:35Z</time>
      </trkpt>
      <trkpt lat="60.001341563221" lon="15.765566336676">
        <ele>118.6</ele>
        <time>2015-02-11T20:19:37Z</time>
      </trkpt>
      <trkpt lat="60.001332175493" lon="15.765627608365">
        <ele>118.8</ele>
        <time>2015-02-11T20:19:39Z</time>
      </trkpt>
      <trkpt lat="60.001338042823" lon="15.765640432672">
        <ele>118.8</ele>
        <time>2015-02-11T20:19:40Z</time>
      </trkpt>
      <trkpt lat="60.001347262913" lon="15.765677983584">
        <ele>119.2</ele>
        <time>2015-02-11T20:19:41Z</time>
      </trkpt>
      <trkpt lat="60.001368888215" lon="15.765813770364">
        <ele>119.6</ele>
        <time>2015-02-11T20:19:45Z</time>
      </trkpt>
      <trkpt lat="60.001366289826" lon="15.765842185005">
        <ele>119.6</ele>
        <time>2015-02-11T20:19:46Z</time>
      </trkpt>
      <trkpt lat="60.001369558767" lon="15.76593396681">
        <ele>120</ele>
        <time>2015-02-11T20:19:48Z</time>
      </trkpt>
      <trkpt lat="60.001366541283" lon="15.765975457215">
        <ele>120.4</ele>
        <time>2015-02-11T20:19:50Z</time>
      </trkpt>
      <trkpt lat="60.001357991745" lon="15.766061539328">
        <ele>121.6</ele>
        <time>2015-02-11T20:19:54Z</time>
      </trkpt>
      <trkpt lat="60.001354806623" lon="15.766101185715">
        <ele>121.8</ele>
        <time>2015-02-11T20:19:56Z</time>
      </trkpt>
      <trkpt lat="60.001345502714" lon="15.766195649728">
        <ele>122.4</ele>
        <time>2015-02-11T20:20:00Z</time>
      </trkpt>
      <trkpt lat="60.001336785538" lon="15.766231105165">
        <ele>122.6</ele>
        <time>2015-02-11T20:20:01Z</time>
      </trkpt>
      <trkpt lat="60.001328487457" lon="15.766292460673">
        <ele>123</ele>
        <time>2015-02-11T20:20:03Z</time>
      </trkpt>
      <trkpt lat="60.001317171892" lon="15.766333364345">
        <ele>123.2</ele>
        <time>2015-02-11T20:20:05Z</time>
      </trkpt>
      <trkpt lat="60.001311639838" lon="15.766414501137">
        <ele>123.6</ele>
        <time>2015-02-11T20:20:07Z</time>
      </trkpt>
      <trkpt lat="60.001302838843" lon="15.766433863326">
        <ele>123.8</ele>
        <time>2015-02-11T20:20:08Z</time>
      </trkpt>
      <trkpt lat="60.001311304562" lon="15.766588928476">
        <ele>124.4</ele>
        <time>2015-02-11T20:20:14Z</time>
      </trkpt>
      <trkpt lat="60.001313567675" lon="15.766671154915">
        <ele>124.6</ele>
        <time>2015-02-11T20:20:16Z</time>
      </trkpt>
      <trkpt lat="60.001343742515" lon="15.766751285879">
        <ele>124.8</ele>
        <time>2015-02-11T20:20:18Z</time>
      </trkpt>
      <trkpt lat="60.00141540776" lon="15.766943315208">
        <ele>125.6</ele>
        <time>2015-02-11T20:20:23Z</time>
      </trkpt>
      <trkpt lat="60.001421442728" lon="15.767046161121">
        <ele>125.8</ele>
        <time>2015-02-11T20:20:25Z</time>
      </trkpt>
      <trkpt lat="60.001429321714" lon="15.767124950981">
        <ele>125.8</ele>
        <time>2015-02-11T20:20:27Z</time>
      </trkpt>
      <trkpt lat="60.001420604538" lon="15.76733206773">
        <ele>125.8</ele>
        <time>2015-02-11T20:20:32Z</time>
      </trkpt>
      <trkpt lat="60.001414066656" lon="15.767606323498">
        <ele>126</ele>
        <time>2015-02-11T20:20:36Z</time>
      </trkpt>
      <trkpt lat="60.001419514891" lon="15.767642868582">
        <ele>126.2</ele>
        <time>2015-02-11T20:20:37Z</time>
      </trkpt>
      <trkpt lat="60.00139948215" lon="15.767774129136">
        <ele>126.2</ele>
        <time>2015-02-11T20:20:39Z</time>
      </trkpt>
      <trkpt lat="60.001370564595" lon="15.768033548941">
        <ele>126.6</ele>
        <time>2015-02-11T20:20:44Z</time>
      </trkpt>
      <trkpt lat="60.001367714749" lon="15.768076799545">
        <ele>127</ele>
        <time>2015-02-11T20:20:45Z</time>
      </trkpt>
      <trkpt lat="60.001351956777" lon="15.768118373769">
        <ele>127</ele>
        <time>2015-02-11T20:20:46Z</time>
      </trkpt>
      <trkpt lat="60.001323039222" lon="15.768238402577">
        <ele>127.2</ele>
        <time>2015-02-11T20:20:48Z</time>
      </trkpt>
      <trkpt lat="60.001243494991" lon="15.768527829584">
        <ele>127</ele>
        <time>2015-02-11T20:20:53Z</time>
      </trkpt>
      <trkpt lat="60.001204602975" lon="15.768690186987">
        <ele>127</ele>
        <time>2015-02-11T20:20:57Z</time>
      </trkpt>
      <trkpt lat="60.001152383738" lon="15.768826057586">
        <ele>127.4</ele>
        <time>2015-02-11T20:21:00Z</time>
      </trkpt>
      <trkpt lat="60.001121705984" lon="15.769029737756">
        <ele>127.6</ele>
        <time>2015-02-11T20:21:04Z</time>
      </trkpt>
      <trkpt lat="60.001071414584" lon="15.769327043749">
        <ele>127.4</ele>
        <time>2015-02-11T20:21:08Z</time>
      </trkpt>
      <trkpt lat="60.001062865046" lon="15.769393847492">
        <ele>127.4</ele>
        <time>2015-02-11T20:21:09Z</time>
      </trkpt>
      <trkpt lat="60.000987008851" lon="15.76966391231">
        <ele>126.6</ele>
        <time>2015-02-11T20:21:13Z</time>
      </trkpt>
      <trkpt lat="60.000929173741" lon="15.769890055972">
        <ele>125.8</ele>
        <time>2015-02-11T20:21:17Z</time>
      </trkpt>
      <trkpt lat="60.000866812405" lon="15.770073954858">
        <ele>126.4</ele>
        <time>2015-02-11T20:21:20Z</time>
      </trkpt>
      <trkpt lat="60.000836972841" lon="15.770145955379">
        <ele>126.4</ele>
        <time>2015-02-11T20:21:21Z</time>
      </trkpt>
      <trkpt lat="60.000727924322" lon="15.770306384945">
        <ele>126</ele>
        <time>2015-02-11T20:21:25Z</time>
      </trkpt>
      <trkpt lat="60.000671849411" lon="15.770349467911">
        <ele>125.8</ele>
        <time>2015-02-11T20:21:28Z</time>
      </trkpt>
      <trkpt lat="60.000638573268" lon="15.7703520663">
        <ele>125.8</ele>
        <time>2015-02-11T20:21:29Z</time>
      </trkpt>
      <trkpt lat="60.00056883586" lon="15.770267912024">
        <ele>126</ele>
        <time>2015-02-11T20:21:33Z</time>
      </trkpt>
      <trkpt lat="60.000527177817" lon="15.770137070565">
        <ele>126.6</ele>
        <time>2015-02-11T20:21:36Z</time>
      </trkpt>
      <trkpt lat="60.000520304659" lon="15.770144698094">
        <ele>127</ele>
        <time>2015-02-11T20:21:37Z</time>
      </trkpt>
      <trkpt lat="60.000503876135" lon="15.770112092503">
        <ele>127.4</ele>
        <time>2015-02-11T20:21:38Z</time>
      </trkpt>
      <trkpt lat="60.000492057656" lon="15.770106141354">
        <ele>127.8</ele>
        <time>2015-02-11T20:21:39Z</time>
      </trkpt>
      <trkpt lat="60.000463391558" lon="15.770065572958">
        <ele>128.2</ele>
        <time>2015-02-11T20:21:41Z</time>
      </trkpt>
      <trkpt lat="60.000428271397" lon="15.77001511392">
        <ele>128.6</ele>
        <time>2015-02-11T20:21:43Z</time>
      </trkpt>
      <trkpt lat="60.000346547872" lon="15.769819228917">
        <ele>128.6</ele>
        <time>2015-02-11T20:21:48Z</time>
      </trkpt>
      <trkpt lat="60.000300866517" lon="15.769730380777">
        <ele>129</ele>
        <time>2015-02-11T20:21:50Z</time>
      </trkpt>
      <trkpt lat="60.000205983409" lon="15.769618901507">
        <ele>129</ele>
        <time>2015-02-11T20:21:54Z</time>
      </trkpt>
      <trkpt lat="60.000153009801" lon="15.769564251519">
        <ele>129.4</ele>
        <time>2015-02-11T20:21:57Z</time>
      </trkpt>
      <trkpt lat="60.000120571848" lon="15.769540614561">
        <ele>129.6</ele>
        <time>2015-02-11T20:21:59Z</time>
      </trkpt>
      <trkpt lat="60.000053097553" lon="15.769508260427">
        <ele>130.8</ele>
        <time>2015-02-11T20:22:02Z</time>
      </trkpt>
      <trkpt lat="60.000017390659" lon="15.769458974855">
        <ele>131.4</ele>
        <time>2015-02-11T20:22:04Z</time>
      </trkpt>
      <trkpt lat="59.999998699022" lon="15.769439696485">
        <ele>131.6</ele>
        <time>2015-02-11T20:22:05Z</time>
      </trkpt>
      <trkpt lat="59.999979839747" lon="15.769415556613">
        <ele>132.2</ele>
        <time>2015-02-11T20:22:06Z</time>
      </trkpt>
      <trkpt lat="59.999906079027" lon="15.769303239153">
        <ele>132.4</ele>
        <time>2015-02-11T20:22:10Z</time>
      </trkpt>
      <trkpt lat="59.999827624443" lon="15.76915094003">
        <ele>133</ele>
        <time>2015-02-11T20:22:14Z</time>
      </trkpt>
      <trkpt lat="59.999800718544" lon="15.769103917571">
        <ele>133.4</ele>
        <time>2015-02-11T20:22:15Z</time>
      </trkpt>
      <trkpt lat="59.999769454057" lon="15.769033761068">
        <ele>133.6</ele>
        <time>2015-02-11T20:22:17Z</time>
      </trkpt>
      <trkpt lat="59.999735172086" lon="15.76895647995">
        <ele>133.8</ele>
        <time>2015-02-11T20:22:20Z</time>
      </trkpt>
      <trkpt lat="59.999720419942" lon="15.768926556567">
        <ele>134</ele>
        <time>2015-02-11T20:22:21Z</time>
      </trkpt>
      <trkpt lat="59.999664093574" lon="15.768845755051">
        <ele>134.4</ele>
        <time>2015-02-11T20:22:24Z</time>
      </trkpt>
      <trkpt lat="59.999654286751" lon="15.768830332355">
        <ele>134.8</ele>
        <time>2015-02-11T20:22:25Z</time>
      </trkpt>
      <trkpt lat="59.999599552944" lon="15.768744836975">
        <ele>135.4</ele>
        <time>2015-02-11T20:22:29Z</time>
      </trkpt>
      <trkpt lat="59.999579268746" lon="15.768735281609">
        <ele>135.6</ele>
        <time>2015-02-11T20:22:30Z</time>
      </trkpt>
      <trkpt lat="59.99952026017" lon="15.768614079335">
        <ele>135.6</ele>
        <time>2015-02-11T20:22:33Z</time>
      </trkpt>
      <trkpt lat="59.99944566126" lon="15.768445100231">
        <ele>135.2</ele>
        <time>2015-02-11T20:22:37Z</time>
      </trkpt>
      <trkpt lat="59.999418168628" lon="15.768329765287">
        <ele>135.6</ele>
        <time>2015-02-11T20:22:40Z</time>
      </trkpt>
      <trkpt lat="59.999416659886" lon="15.768158858346">
        <ele>136.2</ele>
        <time>2015-02-11T20:22:44Z</time>
      </trkpt>
      <trkpt lat="59.999483044534" lon="15.767874795755">
        <ele>136.2</ele>
        <time>2015-02-11T20:22:49Z</time>
      </trkpt>
      <trkpt lat="59.999549848277" lon="15.767620237452">
        <ele>135.4</ele>
        <time>2015-02-11T20:22:53Z</time>
      </trkpt>
      <trkpt lat="59.999613215441" lon="15.767456790402">
        <ele>134.4</ele>
        <time>2015-02-11T20:22:56Z</time>
      </trkpt>
      <trkpt lat="59.999688820179" lon="15.767278172113">
        <ele>134.4</ele>
        <time>2015-02-11T20:22:59Z</time>
      </trkpt>
      <trkpt lat="59.999773142093" lon="15.767036521936">
        <ele>135.2</ele>
        <time>2015-02-11T20:23:03Z</time>
      </trkpt>
      <trkpt lat="59.999798287793" lon="15.766987487821">
        <ele>135.4</ele>
        <time>2015-02-11T20:23:04Z</time>
      </trkpt>
      <trkpt lat="59.999850674668" lon="15.766800906727">
        <ele>135.6</ele>
        <time>2015-02-11T20:23:07Z</time>
      </trkpt>
      <trkpt lat="59.999882777345" lon="15.766625976474">
        <ele>135.8</ele>
        <time>2015-02-11T20:23:10Z</time>
      </trkpt>
      <trkpt lat="59.999893589996" lon="15.766580043662">
        <ele>136</ele>
        <time>2015-02-11T20:23:11Z</time>
      </trkpt>
      <trkpt lat="59.999919490067" lon="15.766417434802">
        <ele>135.8</ele>
        <time>2015-02-11T20:23:14Z</time>
      </trkpt>
      <trkpt lat="59.99992175318" lon="15.76628349204">
        <ele>135.6</ele>
        <time>2015-02-11T20:23:16Z</time>
      </trkpt>
      <trkpt lat="59.999968943277" lon="15.766031029212">
        <ele>134.2</ele>
        <time>2015-02-11T20:23:20Z</time>
      </trkpt>
      <trkpt lat="59.999981767584" lon="15.765945282375">
        <ele>133.6</ele>
        <time>2015-02-11T20:23:21Z</time>
      </trkpt>
      <trkpt lat="60.000012529157" lon="15.76576549062">
        <ele>132.6</ele>
        <time>2015-02-11T20:23:23Z</time>
      </trkpt>
      <trkpt lat="60.000042536359" lon="15.765549069962">
        <ele>132.6</ele>
        <time>2015-02-11T20:23:26Z</time>
      </trkpt>
      <trkpt lat="60.00006676005" lon="15.765390484414">
        <ele>133.6</ele>
        <time>2015-02-11T20:23:28Z</time>
      </trkpt>
      <trkpt lat="60.000056869408" lon="15.765305575767">
        <ele>134</ele>
        <time>2015-02-11T20:23:29Z</time>
      </trkpt>
      <trkpt lat="60.000070783362" lon="15.765185798416">
        <ele>133.8</ele>
        <time>2015-02-11T20:23:30Z</time>
      </trkpt>
      <trkpt lat="60.000048571327" lon="15.764936101615">
        <ele>132.8</ele>
        <time>2015-02-11T20:23:33Z</time>
      </trkpt>
      <trkpt lat="59.999924519207" lon="15.764676178896">
        <ele>131.8</ele>
        <time>2015-02-11T20:23:36Z</time>
      </trkpt>
      <trkpt lat="59.999886800657" lon="15.764634437034">
        <ele>131</ele>
        <time>2015-02-11T20:23:37Z</time>
      </trkpt>
      <trkpt lat="59.999852853962" lon="15.76460292109">
        <ele>130.6</ele>
        <time>2015-02-11T20:23:38Z</time>
      </trkpt>
      <trkpt lat="59.99981781762" lon="15.764552042957">
        <ele>131</ele>
        <time>2015-02-11T20:23:40Z</time>
      </trkpt>
      <trkpt lat="59.999800634725" lon="15.764527316352">
        <ele>131.8</ele>
        <time>2015-02-11T20:23:41Z</time>
      </trkpt>
      <trkpt lat="59.999744559814" lon="15.764357666696">
        <ele>132.6</ele>
        <time>2015-02-11T20:23:44Z</time>
      </trkpt>
      <trkpt lat="59.999667111058" lon="15.764095648502">
        <ele>131.6</ele>
        <time>2015-02-11T20:23:48Z</time>
      </trkpt>
      <trkpt lat="59.999686724704" lon="15.763925412113">
        <ele>131.2</ele>
        <time>2015-02-11T20:23:50Z</time>
      </trkpt>
      <trkpt lat="59.999721341951" lon="15.763877635283">
        <ele>131.2</ele>
        <time>2015-02-11T20:23:51Z</time>
      </trkpt>
      <trkpt lat="59.999816057421" lon="15.763781578709">
        <ele>130.8</ele>
        <time>2015-02-11T20:23:53Z</time>
      </trkpt>
      <trkpt lat="59.9999284587" lon="15.763758277027">
        <ele>130</ele>
        <time>2015-02-11T20:23:55Z</time>
      </trkpt>
      <trkpt lat="59.999986545267" lon="15.763776968664">
        <ele>129</ele>
        <time>2015-02-11T20:23:56Z</time>
      </trkpt>
      <trkpt lat="60.000085367868" lon="15.763897668024">
        <ele>128.2</ele>
        <time>2015-02-11T20:23:58Z</time>
      </trkpt>
      <trkpt lat="60.000130965404" lon="15.763968075984">
        <ele>128</ele>
        <time>2015-02-11T20:23:59Z</time>
      </trkpt>
      <trkpt lat="60.000245797434" lon="15.764072933553">
        <ele>127.2</ele>
        <time>2015-02-11T20:24:01Z</time>
      </trkpt>
      <trkpt lat="60.000308913141" lon="15.76411760908">
        <ele>126.8</ele>
        <time>2015-02-11T20:24:02Z</time>
      </trkpt>
      <trkpt lat="60.000427097931" lon="15.764183658452">
        <ele>125.8</ele>
        <time>2015-02-11T20:24:04Z</time>
      </trkpt>
      <trkpt lat="60.000491890018" lon="15.764229255988">
        <ele>125.4</ele>
        <time>2015-02-11T20:24:05Z</time>
      </trkpt>
      <trkpt lat="60.000549641309" lon="15.764265884891">
        <ele>125.2</ele>
        <time>2015-02-11T20:24:06Z</time>
      </trkpt>
      <trkpt lat="60.000582079262" lon="15.764326821304">
        <ele>124.2</ele>
        <time>2015-02-11T20:24:08Z</time>
      </trkpt>
      <trkpt lat="60.000588784782" lon="15.764375855419">
        <ele>122.8</ele>
        <time>2015-02-11T20:24:11Z</time>
      </trkpt>
      <trkpt lat="60.000602028184" lon="15.764396223436">
        <ele>122.4</ele>
        <time>2015-02-11T20:24:12Z</time>
      </trkpt>
      <trkpt lat="60.000688194116" lon="15.764461350799">
        <ele>122</ele>
        <time>2015-02-11T20:24:15Z</time>
      </trkpt>
      <trkpt lat="60.00074737033" lon="15.764471492898">
        <ele>122</ele>
        <time>2015-02-11T20:24:16Z</time>
      </trkpt>
      <trkpt lat="60.000893299209" lon="15.764560089581">
        <ele>121.4</ele>
        <time>2015-02-11T20:24:18Z</time>
      </trkpt>
      <trkpt lat="60.001051884757" lon="15.764638376527">
        <ele>119.6</ele>
        <time>2015-02-11T20:24:20Z</time>
      </trkpt>
      <trkpt lat="60.001118520862" lon="15.764663103132">
        <ele>118.6</ele>
        <time>2015-02-11T20:24:21Z</time>
      </trkpt>
      <trkpt lat="60.00119831655" lon="15.764671736489">
        <ele>117.4</ele>
        <time>2015-02-11T20:24:22Z</time>
      </trkpt>
      <trkpt lat="60.001265036474" lon="15.764670311566">
        <ele>116.2</ele>
        <time>2015-02-11T20:24:23Z</time>
      </trkpt>
      <trkpt lat="60.001378359762" lon="15.764592527534">
        <ele>114.8</ele>
        <time>2015-02-11T20:24:25Z</time>
      </trkpt>
      <trkpt lat="60.00141624595" lon="15.764533938053">
        <ele>114.4</ele>
        <time>2015-02-11T20:24:26Z</time>
      </trkpt>
      <trkpt lat="60.00151096142" lon="15.764242583209">
        <ele>114.8</ele>
        <time>2015-02-11T20:24:30Z</time>
      </trkpt>
      <trkpt lat="60.001559911716" lon="15.764119788374">
        <ele>115.4</ele>
        <time>2015-02-11T20:24:32Z</time>
      </trkpt>
      <trkpt lat="60.001566952512" lon="15.764046279111">
        <ele>115.8</ele>
        <time>2015-02-11T20:24:33Z</time>
      </trkpt>
      <trkpt lat="60.001576088783" lon="15.76392063443">
        <ele>115.6</ele>
        <time>2015-02-11T20:24:34Z</time>
      </trkpt>
      <trkpt lat="60.001664434009" lon="15.763590555208">
        <ele>114.6</ele>
        <time>2015-02-11T20:24:37Z</time>
      </trkpt>
      <trkpt lat="60.001717910531" lon="15.763482596336">
        <ele>113.6</ele>
        <time>2015-02-11T20:24:38Z</time>
      </trkpt>
      <trkpt lat="60.001757892194" lon="15.763432137298">
        <ele>112.6</ele>
        <time>2015-02-11T20:24:39Z</time>
      </trkpt>
      <trkpt lat="60.001836514416" lon="15.763340523131">
        <ele>111.6</ele>
        <time>2015-02-11T20:24:40Z</time>
      </trkpt>
      <trkpt lat="60.001902479969" lon="15.763318394915">
        <ele>110.6</ele>
        <time>2015-02-11T20:24:41Z</time>
      </trkpt>
      <trkpt lat="60.001985544598" lon="15.763316047983">
        <ele>109.8</ele>
        <time>2015-02-11T20:24:42Z</time>
      </trkpt>
      <trkpt lat="60.002112362745" lon="15.76338503102">
        <ele>108.4</ele>
        <time>2015-02-11T20:24:44Z</time>
      </trkpt>
      <trkpt lat="60.002227027137" lon="15.763502712896">
        <ele>107.2</ele>
        <time>2015-02-11T20:24:46Z</time>
      </trkpt>
      <trkpt lat="60.002332806715" lon="15.763637745305">
        <ele>106.8</ele>
        <time>2015-02-11T20:24:48Z</time>
      </trkpt>
      <trkpt lat="60.002485944028" lon="15.763857183447">
        <ele>106.6</ele>
        <time>2015-02-11T20:24:52Z</time>
      </trkpt>
      <trkpt lat="60.002654839313" lon="15.764042339618">
        <ele>106.6</ele>
        <time>2015-02-11T20:24:56Z</time>
      </trkpt>
      <trkpt lat="60.002733210078" lon="15.764195057836">
        <ele>106.2</ele>
        <time>2015-02-11T20:24:58Z</time>
      </trkpt>
      <trkpt lat="60.00279003936" lon="15.764332772453">
        <ele>105.6</ele>
        <time>2015-02-11T20:25:00Z</time>
      </trkpt>
      <trkpt lat="60.002828679919" lon="15.764482137911">
        <ele>105.2</ele>
        <time>2015-02-11T20:25:02Z</time>
      </trkpt>
      <trkpt lat="60.002881318251" lon="15.764665450064">
        <ele>105</ele>
        <time>2015-02-11T20:25:04Z</time>
      </trkpt>
      <trkpt lat="60.00289229854" lon="15.764745245752">
        <ele>105</ele>
        <time>2015-02-11T20:25:05Z</time>
      </trkpt>
      <trkpt lat="60.002963628509" lon="15.764992930897">
        <ele>105.2</ele>
        <time>2015-02-11T20:25:08Z</time>
      </trkpt>
      <trkpt lat="60.002976536635" lon="15.765148079866">
        <ele>105.2</ele>
        <time>2015-02-11T20:25:10Z</time>
      </trkpt>
      <trkpt lat="60.002963377052" lon="15.765218571645">
        <ele>104.8</ele>
        <time>2015-02-11T20:25:11Z</time>
      </trkpt>
      <trkpt lat="60.002976452816" lon="15.765480086925">
        <ele>104</ele>
        <time>2015-02-11T20:25:14Z</time>
      </trkpt>
      <trkpt lat="60.002999838317" lon="15.76556264864">
        <ele>104</ele>
        <time>2015-02-11T20:25:15Z</time>
      </trkpt>
      <trkpt lat="60.003015177194" lon="15.765645713269">
        <ele>104</ele>
        <time>2015-02-11T20:25:16Z</time>
      </trkpt>
      <trkpt lat="60.003032946822" lon="15.765835814761">
        <ele>105</ele>
        <time>2015-02-11T20:25:19Z</time>
      </trkpt>
      <trkpt lat="60.003055913228" lon="15.765903372875">
        <ele>105.4</ele>
        <time>2015-02-11T20:25:20Z</time>
      </trkpt>
      <trkpt lat="60.003108467741" lon="15.766088864322">
        <ele>106.6</ele>
        <time>2015-02-11T20:25:23Z</time>
      </trkpt>
      <trkpt lat="60.003141324789" lon="15.76613261784">
        <ele>106.8</ele>
        <time>2015-02-11T20:25:24Z</time>
      </trkpt>
      <trkpt lat="60.003306029124" lon="15.766358593864">
        <ele>105.8</ele>
        <time>2015-02-11T20:25:28Z</time>
      </trkpt>
      <trkpt lat="60.003339892" lon="15.766389690713">
        <ele>105.2</ele>
        <time>2015-02-11T20:25:29Z</time>
      </trkpt>
      <trkpt lat="60.003455226944" lon="15.766484741459">
        <ele>104.4</ele>
        <time>2015-02-11T20:25:32Z</time>
      </trkpt>
      <trkpt lat="60.003596126683" lon="15.766592951788">
        <ele>105.6</ele>
        <time>2015-02-11T20:25:36Z</time>
      </trkpt>
      <trkpt lat="60.003710455799" lon="15.766705520705">
        <ele>105.8</ele>
        <time>2015-02-11T20:25:40Z</time>
      </trkpt>
      <trkpt lat="60.003797879016" lon="15.766789674981">
        <ele>106.4</ele>
        <time>2015-02-11T20:25:43Z</time>
      </trkpt>
      <trkpt lat="60.003831322797" lon="15.766818760174">
        <ele>106.6</ele>
        <time>2015-02-11T20:25:44Z</time>
      </trkpt>
      <trkpt lat="60.003929893941" lon="15.766998049015">
        <ele>107.2</ele>
        <time>2015-02-11T20:25:48Z</time>
      </trkpt>
      <trkpt lat="60.003989070155" lon="15.767078599074">
        <ele>107.4</ele>
        <time>2015-02-11T20:25:50Z</time>
      </trkpt>
      <trkpt lat="60.004114295741" lon="15.767326619495">
        <ele>107.4</ele>
        <time>2015-02-11T20:25:55Z</time>
      </trkpt>
      <trkpt lat="60.004213788894" lon="15.767478499523">
        <ele>107</ele>
        <time>2015-02-11T20:25:58Z</time>
      </trkpt>
      <trkpt lat="60.00428201756" lon="15.767574220821">
        <ele>107</ele>
        <time>2015-02-11T20:26:00Z</time>
      </trkpt>
      <trkpt lat="60.004379666695" lon="15.7677033859">
        <ele>106.2</ele>
        <time>2015-02-11T20:26:03Z</time>
      </trkpt>
      <trkpt lat="60.004426437697" lon="15.767740517717">
        <ele>106.2</ele>
        <time>2015-02-11T20:26:04Z</time>
      </trkpt>
      <trkpt lat="60.004477734925" lon="15.767791563488">
        <ele>105.8</ele>
        <time>2015-02-11T20:26:05Z</time>
      </trkpt>
      <trkpt lat="60.004575970793" lon="15.767876723592">
        <ele>104.8</ele>
        <time>2015-02-11T20:26:07Z</time>
      </trkpt>
      <trkpt lat="60.004748218838" lon="15.768008989974">
        <ele>103.4</ele>
        <time>2015-02-11T20:26:10Z</time>
      </trkpt>
      <trkpt lat="60.004795911849" lon="15.768051821483">
        <ele>103</ele>
        <time>2015-02-11T20:26:11Z</time>
      </trkpt>
      <trkpt lat="60.004926166575" lon="15.768168748988">
        <ele>102</ele>
        <time>2015-02-11T20:26:13Z</time>
      </trkpt>
      <trkpt lat="60.005037394388" lon="15.768268745055">
        <ele>100.8</ele>
        <time>2015-02-11T20:26:15Z</time>
      </trkpt>
      <trkpt lat="60.005137306636" lon="15.768374943728">
        <ele>100</ele>
        <time>2015-02-11T20:26:17Z</time>
      </trkpt>
      <trkpt lat="60.005379962641" lon="15.768623467063">
        <ele>100.6</ele>
        <time>2015-02-11T20:26:23Z</time>
      </trkpt>
      <trkpt lat="60.005540895121" lon="15.768688007693">
        <ele>101</ele>
        <time>2015-02-11T20:26:27Z</time>
      </trkpt>
      <trkpt lat="60.005579870956" lon="15.768680212526">
        <ele>101.2</ele>
        <time>2015-02-11T20:26:28Z</time>
      </trkpt>
      <trkpt lat="60.005702414334" lon="15.768670238065">
        <ele>101.8</ele>
        <time>2015-02-11T20:26:31Z</time>
      </trkpt>
      <trkpt lat="60.005829232481" lon="15.768677614137">
        <ele>101.6</ele>
        <time>2015-02-11T20:26:34Z</time>
      </trkpt>
      <trkpt lat="60.005865693746" lon="15.768706615511">
        <ele>101.6</ele>
        <time>2015-02-11T20:26:35Z</time>
      </trkpt>
      <trkpt lat="60.00594331014" lon="15.768829494165">
        <ele>101</ele>
        <time>2015-02-11T20:26:38Z</time>
      </trkpt>
      <trkpt lat="60.005979771405" lon="15.768931585707">
        <ele>101</ele>
        <time>2015-02-11T20:26:40Z</time>
      </trkpt>
      <trkpt lat="60.006012712272" lon="15.76913585261">
        <ele>101.6</ele>
        <time>2015-02-11T20:26:43Z</time>
      </trkpt>
      <trkpt lat="60.006018998697" lon="15.769223778741">
        <ele>101.6</ele>
        <time>2015-02-11T20:26:44Z</time>
      </trkpt>
      <trkpt lat="60.006022519095" lon="15.769447826928">
        <ele>101.6</ele>
        <time>2015-02-11T20:26:47Z</time>
      </trkpt>
      <trkpt lat="60.006024363113" lon="15.769602808259">
        <ele>101.2</ele>
        <time>2015-02-11T20:26:49Z</time>
      </trkpt>
      <trkpt lat="60.005989997323" lon="15.769802381298">
        <ele>101</ele>
        <time>2015-02-11T20:26:52Z</time>
      </trkpt>
      <trkpt lat="60.005933922412" lon="15.769949483643">
        <ele>101.8</ele>
        <time>2015-02-11T20:26:56Z</time>
      </trkpt>
      <trkpt lat="60.005844571358" lon="15.770065572958">
        <ele>102.8</ele>
        <time>2015-02-11T20:27:00Z</time>
      </trkpt>
      <trkpt lat="60.005700821773" lon="15.770124162439">
        <ele>103.6</ele>
        <time>2015-02-11T20:27:05Z</time>
      </trkpt>
      <trkpt lat="60.005678945014" lon="15.770111673408">
        <ele>103.8</ele>
        <time>2015-02-11T20:27:06Z</time>
      </trkpt>
      <trkpt lat="60.005568806848" lon="15.770059621809">
        <ele>104</ele>
        <time>2015-02-11T20:27:09Z</time>
      </trkpt>
      <trkpt lat="60.005439977045" lon="15.770027770589">
        <ele>104.2</ele>
        <time>2015-02-11T20:27:13Z</time>
      </trkpt>
      <trkpt lat="60.005293880528" lon="15.770027435313">
        <ele>104.8</ele>
        <time>2015-02-11T20:27:18Z</time>
      </trkpt>
      <trkpt lat="60.005268399552" lon="15.77003271591">
        <ele>105</ele>
        <time>2015-02-11T20:27:19Z</time>
      </trkpt>
      <trkpt lat="60.005131020211" lon="15.770079319274">
        <ele>106.2</ele>
        <time>2015-02-11T20:27:24Z</time>
      </trkpt>
      <trkpt lat="60.004980816563" lon="15.770076469428">
        <ele>106.4</ele>
        <time>2015-02-11T20:27:28Z</time>
      </trkpt>
      <trkpt lat="60.004873695881" lon="15.770161378075">
        <ele>106.6</ele>
        <time>2015-02-11T20:27:32Z</time>
      </trkpt>
      <trkpt lat="60.004801360084" lon="15.770232791863">
        <ele>107.2</ele>
        <time>2015-02-11T20:27:35Z</time>
      </trkpt>
      <trkpt lat="60.004757019833" lon="15.770302780728">
        <ele>107.6</ele>
        <time>2015-02-11T20:27:37Z</time>
      </trkpt>
      <trkpt lat="60.004653251911" lon="15.770435633843">
        <ele>107.8</ele>
        <time>2015-02-11T20:27:41Z</time>
      </trkpt>
      <trkpt lat="60.004523583918" lon="15.770476705153">
        <ele>108.2</ele>
        <time>2015-02-11T20:27:46Z</time>
      </trkpt>
      <trkpt lat="60.004483015522" lon="15.770470167271">
        <ele>108.4</ele>
        <time>2015-02-11T20:27:48Z</time>
      </trkpt>
      <trkpt lat="60.004420235091" lon="15.770418534767">
        <ele>108.4</ele>
        <time>2015-02-11T20:27:50Z</time>
      </trkpt>
      <trkpt lat="60.004356029737" lon="15.770411913066">
        <ele>108.4</ele>
        <time>2015-02-11T20:27:52Z</time>
      </trkpt>
      <trkpt lat="60.004267349235" lon="15.770398418207">
        <ele>108.8</ele>
        <time>2015-02-11T20:27:55Z</time>
      </trkpt>
      <trkpt lat="60.004220913509" lon="15.770397831474">
        <ele>109.4</ele>
        <time>2015-02-11T20:27:57Z</time>
      </trkpt>
      <trkpt lat="60.004178752552" lon="15.770451307996">
        <ele>109.8</ele>
        <time>2015-02-11T20:27:59Z</time>
      </trkpt>
      <trkpt lat="60.004125527487" lon="15.770628249905">
        <ele>110</ele>
        <time>2015-02-11T20:28:02Z</time>
      </trkpt>
      <trkpt lat="60.004136675414" lon="15.770755403328">
        <ele>109.6</ele>
        <time>2015-02-11T20:28:04Z</time>
      </trkpt>
      <trkpt lat="60.004158216897" lon="15.770932009961">
        <ele>109.2</ele>
        <time>2015-02-11T20:28:06Z</time>
      </trkpt>
      <trkpt lat="60.004157378707" lon="15.771035526426">
        <ele>108.8</ele>
        <time>2015-02-11T20:28:07Z</time>
      </trkpt>
      <trkpt lat="60.004190487212" lon="15.771226047013">
        <ele>108.4</ele>
        <time>2015-02-11T20:28:09Z</time>
      </trkpt>
      <trkpt lat="60.004291572926" lon="15.771509774328">
        <ele>106.8</ele>
        <time>2015-02-11T20:28:12Z</time>
      </trkpt>
      <trkpt lat="60.004317640635" lon="15.771555623321">
        <ele>106.2</ele>
        <time>2015-02-11T20:28:13Z</time>
      </trkpt>
      <trkpt lat="60.004364076361" lon="15.771655284112">
        <ele>105.6</ele>
        <time>2015-02-11T20:28:15Z</time>
      </trkpt>
      <trkpt lat="60.004415625046" lon="15.771815210764">
        <ele>106</ele>
        <time>2015-02-11T20:28:18Z</time>
      </trkpt>
      <trkpt lat="60.004452421587" lon="15.771961726376">
        <ele>106.2</ele>
        <time>2015-02-11T20:28:20Z</time>
      </trkpt>
      <trkpt lat="60.004467844283" lon="15.772132298041">
        <ele>105.8</ele>
        <time>2015-02-11T20:28:22Z</time>
      </trkpt>
      <trkpt lat="60.004444542601" lon="15.77266127975">
        <ele>103</ele>
        <time>2015-02-11T20:28:25Z</time>
      </trkpt>
      <trkpt lat="60.004411434096" lon="15.772819865298">
        <ele>101.8</ele>
        <time>2015-02-11T20:28:26Z</time>
      </trkpt>
      <trkpt lat="60.004368015854" lon="15.772949114196">
        <ele>100.6</ele>
        <time>2015-02-11T20:28:27Z</time>
      </trkpt>
      <trkpt lat="60.004311521848" lon="15.773084733338">
        <ele>99.6</ele>
        <time>2015-02-11T20:28:28Z</time>
      </trkpt>
      <trkpt lat="60.004192163592" lon="15.77326477655">
        <ele>97.8</ele>
        <time>2015-02-11T20:28:30Z</time>
      </trkpt>
      <trkpt lat="60.00412946698" lon="15.773356474536">
        <ele>97.8</ele>
        <time>2015-02-11T20:28:31Z</time>
      </trkpt>
      <trkpt lat="60.004083198892" lon="15.773338453451">
        <ele>96.8</ele>
        <time>2015-02-11T20:28:32Z</time>
      </trkpt>
      <trkpt lat="60.00404816255" lon="15.773338034356">
        <ele>96</ele>
        <time>2015-02-11T20:28:33Z</time>
      </trkpt>
      <trkpt lat="60.003995440399" lon="15.77332261166">
        <ele>95.6</ele>
        <time>2015-02-11T20:28:34Z</time>
      </trkpt>
      <trkpt lat="60.00391908129" lon="15.773227141819">
        <ele>97.4</ele>
        <time>2015-02-11T20:28:37Z</time>
      </trkpt>
      <trkpt lat="60.0039014793" lon="15.773188417441">
        <ele>98.4</ele>
        <time>2015-02-11T20:28:38Z</time>
      </trkpt>
      <trkpt lat="60.003895360513" lon="15.773159583705">
        <ele>99</ele>
        <time>2015-02-11T20:28:39Z</time>
      </trkpt>
      <trkpt lat="60.003882452387" lon="15.773061683113">
        <ele>99.8</ele>
        <time>2015-02-11T20:28:41Z</time>
      </trkpt>
      <trkpt lat="60.003874489582" lon="15.773004770012">
        <ele>100</ele>
        <time>2015-02-11T20:28:42Z</time>
      </trkpt>
      <trkpt lat="60.003861665275" lon="15.772917262976">
        <ele>100.2</ele>
        <time>2015-02-11T20:28:44Z</time>
      </trkpt>
      <trkpt lat="60.003849427701" lon="15.77276018617">
        <ele>100.4</ele>
        <time>2015-02-11T20:28:47Z</time>
      </trkpt>
      <trkpt lat="60.003848254235" lon="15.772698914481">
        <ele>100.6</ele>
        <time>2015-02-11T20:28:48Z</time>
      </trkpt>
      <trkpt lat="60.003854792117" lon="15.772658848999">
        <ele>100.8</ele>
        <time>2015-02-11T20:28:49Z</time>
      </trkpt>
      <trkpt lat="60.003841045801" lon="15.772556589819">
        <ele>101.4</ele>
        <time>2015-02-11T20:28:51Z</time>
      </trkpt>
      <trkpt lat="60.003815564825" lon="15.772404206877">
        <ele>101.8</ele>
        <time>2015-02-11T20:28:54Z</time>
      </trkpt>
      <trkpt lat="60.003802991975" lon="15.772280490033">
        <ele>102.4</ele>
        <time>2015-02-11T20:28:57Z</time>
      </trkpt>
      <trkpt lat="60.003800477405" lon="15.772224750398">
        <ele>102.6</ele>
        <time>2015-02-11T20:28:58Z</time>
      </trkpt>
      <trkpt lat="60.003796034998" lon="15.772208321874">
        <ele>102.8</ele>
        <time>2015-02-11T20:28:59Z</time>
      </trkpt>
      <trkpt lat="60.003792933695" lon="15.772139506475">
        <ele>102.8</ele>
        <time>2015-02-11T20:29:01Z</time>
      </trkpt>
      <trkpt lat="60.003792682238" lon="15.77201252069">
        <ele>103.2</ele>
        <time>2015-02-11T20:29:04Z</time>
      </trkpt>
      <trkpt lat="60.003802991975" lon="15.771960972005">
        <ele>103.6</ele>
        <time>2015-02-11T20:29:05Z</time>
      </trkpt>
      <trkpt lat="60.003880021636" lon="15.771673472835">
        <ele>104</ele>
        <time>2015-02-11T20:29:11Z</time>
      </trkpt>
      <trkpt lat="60.003992339096" lon="15.771490412139">
        <ele>104.6</ele>
        <time>2015-02-11T20:29:16Z</time>
      </trkpt>
      <trkpt lat="60.004005498679" lon="15.771477671651">
        <ele>104.4</ele>
        <time>2015-02-11T20:29:17Z</time>
      </trkpt>
      <trkpt lat="60.004059142839" lon="15.771419333627">
        <ele>104.8</ele>
        <time>2015-02-11T20:29:20Z</time>
      </trkpt>
      <trkpt lat="60.004097951036" lon="15.771373316996">
        <ele>105.2</ele>
        <time>2015-02-11T20:29:22Z</time>
      </trkpt>
      <trkpt lat="60.004179004009" lon="15.771214312353">
        <ele>105.6</ele>
        <time>2015-02-11T20:29:27Z</time>
      </trkpt>
      <trkpt lat="60.004188559375" lon="15.771140216357">
        <ele>105.8</ele>
        <time>2015-02-11T20:29:29Z</time>
      </trkpt>
      <trkpt lat="60.004185290434" lon="15.771072322967">
        <ele>106.2</ele>
        <time>2015-02-11T20:29:31Z</time>
      </trkpt>
      <trkpt lat="60.004175399792" lon="15.771009374898">
        <ele>106.6</ele>
        <time>2015-02-11T20:29:33Z</time>
      </trkpt>
      <trkpt lat="60.004163078399" lon="15.770870319177">
        <ele>107.6</ele>
        <time>2015-02-11T20:29:36Z</time>
      </trkpt>
      <trkpt lat="60.00415628906" lon="15.77084492202">
        <ele>107.8</ele>
        <time>2015-02-11T20:29:37Z</time>
      </trkpt>
      <trkpt lat="60.004149415902" lon="15.770782225408">
        <ele>108</ele>
        <time>2015-02-11T20:29:39Z</time>
      </trkpt>
      <trkpt lat="60.004139860536" lon="15.770735705863">
        <ele>108.2</ele>
        <time>2015-02-11T20:29:40Z</time>
      </trkpt>
      <trkpt lat="60.004125695125" lon="15.770668315387">
        <ele>108.4</ele>
        <time>2015-02-11T20:29:42Z</time>
      </trkpt>
      <trkpt lat="60.004118654329" lon="15.770600338178">
        <ele>108.8</ele>
        <time>2015-02-11T20:29:44Z</time>
      </trkpt>
      <trkpt lat="60.00410935042" lon="15.770473352393">
        <ele>109.4</ele>
        <time>2015-02-11T20:29:48Z</time>
      </trkpt>
      <trkpt lat="60.004102561081" lon="15.770451224177">
        <ele>109.6</ele>
        <time>2015-02-11T20:29:49Z</time>
      </trkpt>
      <trkpt lat="60.004040367383" lon="15.770322059098">
        <ele>109.8</ele>
        <time>2015-02-11T20:29:54Z</time>
      </trkpt>
      <trkpt lat="60.003988986336" lon="15.770256261183">
        <ele>110.6</ele>
        <time>2015-02-11T20:29:57Z</time>
      </trkpt>
      <trkpt lat="60.003964678826" lon="15.77022298504">
        <ele>111</ele>
        <time>2015-02-11T20:29:59Z</time>
      </trkpt>
      <trkpt lat="60.00395009432" lon="15.770208232896">
        <ele>111.2</ele>
        <time>2015-02-11T20:30:00Z</time>
      </trkpt>
      <trkpt lat="60.003895444332" lon="15.770194821856">
        <ele>111.6</ele>
        <time>2015-02-11T20:30:04Z</time>
      </trkpt>
      <trkpt lat="60.003779606474" lon="15.770261374142">
        <ele>111.4</ele>
        <time>2015-02-11T20:30:08Z</time>
      </trkpt>
      <trkpt lat="60.003663684797" lon="15.770387354099">
        <ele>111.8</ele>
        <time>2015-02-11T20:30:13Z</time>
      </trkpt>
      <trkpt lat="60.003588918249" lon="15.770435633843">
        <ele>112.2</ele>
        <time>2015-02-11T20:30:16Z</time>
      </trkpt>
      <trkpt lat="60.003552205527" lon="15.770450637444">
        <ele>112.2</ele>
        <time>2015-02-11T20:30:18Z</time>
      </trkpt>
      <trkpt lat="60.00340862358" lon="15.770512076771">
        <ele>113</ele>
        <time>2015-02-11T20:30:23Z</time>
      </trkpt>
      <trkpt lat="60.003339808181" lon="15.770541664878">
        <ele>113</ele>
        <time>2015-02-11T20:30:24Z</time>
      </trkpt>
      <trkpt lat="60.00326361671" lon="15.77056580475">
        <ele>113.2</ele>
        <time>2015-02-11T20:30:27Z</time>
      </trkpt>
      <trkpt lat="60.003228831825" lon="15.770584077292">
        <ele>113.2</ele>
        <time>2015-02-11T20:30:28Z</time>
      </trkpt>
      <trkpt lat="60.003162782453" lon="15.77062950719">
        <ele>113.4</ele>
        <time>2015-02-11T20:30:31Z</time>
      </trkpt>
      <trkpt lat="60.003084495507" lon="15.770724306479">
        <ele>114.2</ele>
        <time>2015-02-11T20:30:36Z</time>
      </trkpt>
      <trkpt lat="60.003068234621" lon="15.770755906242">
        <ele>114.8</ele>
        <time>2015-02-11T20:30:38Z</time>
      </trkpt>
      <trkpt lat="60.003049459165" lon="15.770791110222">
        <ele>115</ele>
        <time>2015-02-11T20:30:40Z</time>
      </trkpt>
      <trkpt lat="60.002995563548" lon="15.770812064972">
        <ele>115.2</ele>
        <time>2015-02-11T20:30:43Z</time>
      </trkpt>
      <trkpt lat="60.002973770608" lon="15.770825895107">
        <ele>115.4</ele>
        <time>2015-02-11T20:30:44Z</time>
      </trkpt>
      <trkpt lat="60.00291995881" lon="15.770840060518">
        <ele>116</ele>
        <time>2015-02-11T20:30:47Z</time>
      </trkpt>
      <trkpt lat="60.002871595247" lon="15.770847268952">
        <ele>116.2</ele>
        <time>2015-02-11T20:30:49Z</time>
      </trkpt>
      <trkpt lat="60.002839744027" lon="15.770849532065">
        <ele>116.6</ele>
        <time>2015-02-11T20:30:50Z</time>
      </trkpt>
      <trkpt lat="60.002792218654" lon="15.770846682219">
        <ele>116.8</ele>
        <time>2015-02-11T20:30:52Z</time>
      </trkpt>
      <trkpt lat="60.002692390225" lon="15.770790523489">
        <ele>117.6</ele>
        <time>2015-02-11T20:30:57Z</time>
      </trkpt>
      <trkpt lat="60.002574205435" lon="15.770705698661">
        <ele>118.2</ele>
        <time>2015-02-11T20:31:02Z</time>
      </trkpt>
      <trkpt lat="60.002561632585" lon="15.770671584328">
        <ele>118.6</ele>
        <time>2015-02-11T20:31:04Z</time>
      </trkpt>
      <trkpt lat="60.002528691718" lon="15.770617018159">
        <ele>119.2</ele>
        <time>2015-02-11T20:31:06Z</time>
      </trkpt>
      <trkpt lat="60.002527434433" lon="15.770588352061">
        <ele>119.4</ele>
        <time>2015-02-11T20:31:07Z</time>
      </trkpt>
      <trkpt lat="60.002501366724" lon="15.770535546091">
        <ele>119.6</ele>
        <time>2015-02-11T20:31:09Z</time>
      </trkpt>
      <trkpt lat="60.002394581318" lon="15.77044929634">
        <ele>119.8</ele>
        <time>2015-02-11T20:31:14Z</time>
      </trkpt>
      <trkpt lat="60.002288634102" lon="15.770459941353">
        <ele>120.4</ele>
        <time>2015-02-11T20:31:19Z</time>
      </trkpt>
      <trkpt lat="60.002239432349" lon="15.770484751777">
        <ele>120.6</ele>
        <time>2015-02-11T20:31:21Z</time>
      </trkpt>
      <trkpt lat="60.002198947772" lon="15.770501012663">
        <ele>120.4</ele>
        <time>2015-02-11T20:31:23Z</time>
      </trkpt>
      <trkpt lat="60.002065759381" lon="15.770541245783">
        <ele>120.6</ele>
        <time>2015-02-11T20:31:28Z</time>
      </trkpt>
      <trkpt lat="60.002051258694" lon="15.770547448389">
        <ele>120.8</ele>
        <time>2015-02-11T20:31:29Z</time>
      </trkpt>
      <trkpt lat="60.002013540144" lon="15.770575443935">
        <ele>120.8</ele>
        <time>2015-02-11T20:31:31Z</time>
      </trkpt>
      <trkpt lat="60.001964589848" lon="15.77058424493">
        <ele>121.2</ele>
        <time>2015-02-11T20:31:33Z</time>
      </trkpt>
      <trkpt lat="60.001865767247" lon="15.770582903826">
        <ele>121.2</ele>
        <time>2015-02-11T20:31:37Z</time>
      </trkpt>
      <trkpt lat="60.001801897169" lon="15.770561949076">
        <ele>120.8</ele>
        <time>2015-02-11T20:31:40Z</time>
      </trkpt>
      <trkpt lat="60.001764681533" lon="15.770563960732">
        <ele>120.8</ele>
        <time>2015-02-11T20:31:41Z</time>
      </trkpt>
      <trkpt lat="60.001643982173" lon="15.770653563243">
        <ele>120.4</ele>
        <time>2015-02-11T20:31:45Z</time>
      </trkpt>
      <trkpt lat="60.001537951138" lon="15.770702932634">
        <ele>120.2</ele>
        <time>2015-02-11T20:31:50Z</time>
      </trkpt>
      <trkpt lat="60.001517750759" lon="15.770729670895">
        <ele>120.2</ele>
        <time>2015-02-11T20:31:51Z</time>
      </trkpt>
      <trkpt lat="60.00144725898" lon="15.770736208777">
        <ele>120.6</ele>
        <time>2015-02-11T20:31:54Z</time>
      </trkpt>
      <trkpt lat="60.001344832162" lon="15.770761773572">
        <ele>120.8</ele>
        <time>2015-02-11T20:31:57Z</time>
      </trkpt>
      <trkpt lat="60.001276184401" lon="15.770767640902">
        <ele>120.8</ele>
        <time>2015-02-11T20:31:59Z</time>
      </trkpt>
      <trkpt lat="60.001181049836" lon="15.770765964522">
        <ele>121.8</ele>
        <time>2015-02-11T20:32:02Z</time>
      </trkpt>
      <trkpt lat="60.001139056517" lon="15.770771664214">
        <ele>122.6</ele>
        <time>2015-02-11T20:32:04Z</time>
      </trkpt>
      <trkpt lat="60.001110893333" lon="15.770764204323">
        <ele>122.6</ele>
        <time>2015-02-11T20:32:05Z</time>
      </trkpt>
      <trkpt lat="60.001094129533" lon="15.770772586223">
        <ele>122.8</ele>
        <time>2015-02-11T20:32:06Z</time>
      </trkpt>
      <trkpt lat="60.001047023255" lon="15.77077870501">
        <ele>123</ele>
        <time>2015-02-11T20:32:08Z</time>
      </trkpt>
      <trkpt lat="60.001026068505" lon="15.770775855164">
        <ele>123.2</ele>
        <time>2015-02-11T20:32:09Z</time>
      </trkpt>
      <trkpt lat="60.001009137067" lon="15.770761605934">
        <ele>123.2</ele>
        <time>2015-02-11T20:32:10Z</time>
      </trkpt>
      <trkpt lat="60.000974855096" lon="15.770678708943">
        <ele>123.4</ele>
        <time>2015-02-11T20:32:12Z</time>
      </trkpt>
      <trkpt lat="60.000953313613" lon="15.770535462272">
        <ele>123.6</ele>
        <time>2015-02-11T20:32:16Z</time>
      </trkpt>
      <trkpt lat="60.00095188869" lon="15.770492379306">
        <ele>123.6</ele>
        <time>2015-02-11T20:32:17Z</time>
      </trkpt>
      <trkpt lat="60.000950631405" lon="15.770466730692">
        <ele>123.8</ele>
        <time>2015-02-11T20:32:18Z</time>
      </trkpt>
      <trkpt lat="60.000972089069" lon="15.770314850664">
        <ele>124</ele>
        <time>2015-02-11T20:32:22Z</time>
      </trkpt>
      <trkpt lat="60.00101140018" lon="15.770188451612">
        <ele>124.2</ele>
        <time>2015-02-11T20:32:25Z</time>
      </trkpt>
      <trkpt lat="60.00105247149" lon="15.770070937374">
        <ele>124.6</ele>
        <time>2015-02-11T20:32:28Z</time>
      </trkpt>
      <trkpt lat="60.001085747633" lon="15.769964403425">
        <ele>124.6</ele>
        <time>2015-02-11T20:32:31Z</time>
      </trkpt>
      <trkpt lat="60.001090944411" lon="15.769935904965">
        <ele>124.8</ele>
        <time>2015-02-11T20:32:32Z</time>
      </trkpt>
      <trkpt lat="60.001102092338" lon="15.769892570542">
        <ele>124.8</ele>
        <time>2015-02-11T20:32:33Z</time>
      </trkpt>
      <trkpt lat="60.001133440644" lon="15.769720993049">
        <ele>125.4</ele>
        <time>2015-02-11T20:32:38Z</time>
      </trkpt>
      <trkpt lat="60.001176858886" lon="15.769497280138">
        <ele>125.8</ele>
        <time>2015-02-11T20:32:43Z</time>
      </trkpt>
      <trkpt lat="60.001204770613" lon="15.769386052325">
        <ele>125.8</ele>
        <time>2015-02-11T20:32:45Z</time>
      </trkpt>
      <trkpt lat="60.001217008187" lon="15.76928505043">
        <ele>126</ele>
        <time>2015-02-11T20:32:47Z</time>
      </trkpt>
      <trkpt lat="60.001246177199" lon="15.769174493169">
        <ele>126</ele>
        <time>2015-02-11T20:32:49Z</time>
      </trkpt>
      <trkpt lat="60.001285991224" lon="15.769073072179">
        <ele>126.2</ele>
        <time>2015-02-11T20:32:51Z</time>
      </trkpt>
      <trkpt lat="60.001355728632" lon="15.768805689569">
        <ele>126.2</ele>
        <time>2015-02-11T20:32:56Z</time>
      </trkpt>
      <trkpt lat="60.001452539577" lon="15.768580384097">
        <ele>126</ele>
        <time>2015-02-11T20:33:00Z</time>
      </trkpt>
      <trkpt lat="60.001506016099" lon="15.768334626789">
        <ele>125</ele>
        <time>2015-02-11T20:33:04Z</time>
      </trkpt>
      <trkpt lat="60.001527557582" lon="15.768250304875">
        <ele>124.8</ele>
        <time>2015-02-11T20:33:05Z</time>
      </trkpt>
      <trkpt lat="60.0015964568" lon="15.768017790969">
        <ele>125.2</ele>
        <time>2015-02-11T20:33:09Z</time>
      </trkpt>
      <trkpt lat="60.001627386011" lon="15.767952076873">
        <ele>125.8</ele>
        <time>2015-02-11T20:33:13Z</time>
      </trkpt>
      <trkpt lat="60.001627386011" lon="15.767955764909">
        <ele>126.2</ele>
        <time>2015-02-11T20:33:14Z</time>
      </trkpt>
      <trkpt lat="60.001666529484" lon="15.767945371353">
        <ele>127</ele>
        <time>2015-02-11T20:33:17Z</time>
      </trkpt>
      <trkpt lat="60.00167357028" lon="15.767954507624">
        <ele>127.4</ele>
        <time>2015-02-11T20:33:18Z</time>
      </trkpt>
      <trkpt lat="60.001689160614" lon="15.767968840673">
        <ele>127.8</ele>
        <time>2015-02-11T20:33:19Z</time>
      </trkpt>
      <trkpt lat="60.001699386532" lon="15.768005721033">
        <ele>128</ele>
        <time>2015-02-11T20:33:20Z</time>
      </trkpt>
      <trkpt lat="60.001714893047" lon="15.768067830912">
        <ele>128.2</ele>
        <time>2015-02-11T20:33:22Z</time>
      </trkpt>
      <trkpt lat="60.001722939671" lon="15.768097419019">
        <ele>128.4</ele>
        <time>2015-02-11T20:33:23Z</time>
      </trkpt>
      <trkpt lat="60.001737356539" lon="15.768239073129">
        <ele>129</ele>
        <time>2015-02-11T20:33:27Z</time>
      </trkpt>
      <trkpt lat="60.001788737586" lon="15.768345355621">
        <ele>129.6</ele>
        <time>2015-02-11T20:33:30Z</time>
      </trkpt>
      <trkpt lat="60.001804830834" lon="15.768408638966">
        <ele>129.8</ele>
        <time>2015-02-11T20:33:31Z</time>
      </trkpt>
      <trkpt lat="60.00188479416" lon="15.768664286916">
        <ele>129.2</ele>
        <time>2015-02-11T20:33:35Z</time>
      </trkpt>
      <trkpt lat="60.001903401978" lon="15.768719775094">
        <ele>128.8</ele>
        <time>2015-02-11T20:33:36Z</time>
      </trkpt>
      <trkpt lat="60.001928966773" lon="15.768787836122">
        <ele>128.4</ele>
        <time>2015-02-11T20:33:37Z</time>
      </trkpt>
      <trkpt lat="60.001949502428" lon="15.76889696846">
        <ele>127.8</ele>
        <time>2015-02-11T20:33:39Z</time>
      </trkpt>
      <trkpt lat="60.002010019746" lon="15.769092602006">
        <ele>128.6</ele>
        <time>2015-02-11T20:33:43Z</time>
      </trkpt>
      <trkpt lat="60.002025107166" lon="15.769151862039">
        <ele>128.8</ele>
        <time>2015-02-11T20:33:44Z</time>
      </trkpt>
      <trkpt lat="60.002079170421" lon="15.769358056779">
        <ele>128.8</ele>
        <time>2015-02-11T20:33:46Z</time>
      </trkpt>
      <trkpt lat="60.002109931994" lon="15.769485126383">
        <ele>128.2</ele>
        <time>2015-02-11T20:33:47Z</time>
      </trkpt>
      <trkpt lat="60.002162821783" lon="15.769683274499">
        <ele>127.4</ele>
        <time>2015-02-11T20:33:49Z</time>
      </trkpt>
      <trkpt lat="60.002228703517" lon="15.769918973527">
        <ele>126.6</ele>
        <time>2015-02-11T20:33:51Z</time>
      </trkpt>
      <trkpt lat="60.002253513941" lon="15.769983681795">
        <ele>126</ele>
        <time>2015-02-11T20:33:52Z</time>
      </trkpt>
      <trkpt lat="60.002317384019" lon="15.770147464121">
        <ele>125</ele>
        <time>2015-02-11T20:33:53Z</time>
      </trkpt>
      <trkpt lat="60.002359628795" lon="15.770239665021">
        <ele>124</ele>
        <time>2015-02-11T20:33:54Z</time>
      </trkpt>
      <trkpt lat="60.00243045585" lon="15.77038391752">
        <ele>122.6</ele>
        <time>2015-02-11T20:33:55Z</time>
      </trkpt>
      <trkpt lat="60.002482088354" lon="15.770458767887">
        <ele>121.2</ele>
        <time>2015-02-11T20:33:56Z</time>
      </trkpt>
      <trkpt lat="60.002564314793" lon="15.770544263267">
        <ele>120</ele>
        <time>2015-02-11T20:33:57Z</time>
      </trkpt>
      <trkpt lat="60.002621814627" lon="15.770580640713">
        <ele>119.2</ele>
        <time>2015-02-11T20:33:58Z</time>
      </trkpt>
      <trkpt lat="60.002702951419" lon="15.770612994847">
        <ele>118.6</ele>
        <time>2015-02-11T20:33:59Z</time>
      </trkpt>
      <trkpt lat="60.002841588045" lon="15.770633446683">
        <ele>118.4</ele>
        <time>2015-02-11T20:34:01Z</time>
      </trkpt>
      <trkpt lat="60.002891544169" lon="15.77064291823">
        <ele>118.4</ele>
        <time>2015-02-11T20:34:02Z</time>
      </trkpt>
      <trkpt lat="60.003016434479" lon="15.770627746991">
        <ele>118.6</ele>
        <time>2015-02-11T20:34:04Z</time>
      </trkpt>
      <trkpt lat="60.00310855156" lon="15.770545436733">
        <ele>118.2</ele>
        <time>2015-02-11T20:34:05Z</time>
      </trkpt>
      <trkpt lat="60.003152556535" lon="15.770465724864">
        <ele>117.4</ele>
        <time>2015-02-11T20:34:06Z</time>
      </trkpt>
      <trkpt lat="60.00325439662" lon="15.770235976985">
        <ele>115.6</ele>
        <time>2015-02-11T20:34:08Z</time>
      </trkpt>
      <trkpt lat="60.003299742699" lon="15.770021987078">
        <ele>114.2</ele>
        <time>2015-02-11T20:34:10Z</time>
      </trkpt>
      <trkpt lat="60.003288594772" lon="15.769870442326">
        <ele>113.6</ele>
        <time>2015-02-11T20:34:11Z</time>
      </trkpt>
      <trkpt lat="60.0032728368" lon="15.769795005226">
        <ele>112.8</ele>
        <time>2015-02-11T20:34:12Z</time>
      </trkpt>
      <trkpt lat="60.003223970323" lon="15.76965133946">
        <ele>114.2</ele>
        <time>2015-02-11T20:34:14Z</time>
      </trkpt>
      <trkpt lat="60.003190945637" lon="15.769575315627">
        <ele>115.2</ele>
        <time>2015-02-11T20:34:15Z</time>
      </trkpt>
      <trkpt lat="60.003177450778" lon="15.769553438868">
        <ele>116</ele>
        <time>2015-02-11T20:34:16Z</time>
      </trkpt>
      <trkpt lat="60.003140989513" lon="15.769494765568">
        <ele>117</ele>
        <time>2015-02-11T20:34:17Z</time>
      </trkpt>
      <trkpt lat="60.003109976483" lon="15.769413125862">
        <ele>118.4</ele>
        <time>2015-02-11T20:34:19Z</time>
      </trkpt>
      <trkpt lat="60.003069408087" lon="15.769282200584">
        <ele>119.2</ele>
        <time>2015-02-11T20:34:22Z</time>
      </trkpt>
      <trkpt lat="60.003054572124" lon="15.769143899234">
        <ele>119.2</ele>
        <time>2015-02-11T20:34:24Z</time>
      </trkpt>
      <trkpt lat="60.003048118061" lon="15.768726396795">
        <ele>118</ele>
        <time>2015-02-11T20:34:29Z</time>
      </trkpt>
      <trkpt lat="60.003055075038" lon="15.768597147897">
        <ele>118</ele>
        <time>2015-02-11T20:34:32Z</time>
      </trkpt>
      <trkpt lat="60.003080556014" lon="15.768496397459">
        <ele>118.6</ele>
        <time>2015-02-11T20:34:34Z</time>
      </trkpt>
      <trkpt lat="60.003110395578" lon="15.768411572631">
        <ele>119</ele>
        <time>2015-02-11T20:34:35Z</time>
      </trkpt>
      <trkpt lat="60.003123219885" lon="15.768279390068">
        <ele>119.6</ele>
        <time>2015-02-11T20:34:38Z</time>
      </trkpt>
      <trkpt lat="60.003120537677" lon="15.768214095067">
        <ele>120</ele>
        <time>2015-02-11T20:34:40Z</time>
      </trkpt>
      <trkpt lat="60.003138391124" lon="15.768171263558">
        <ele>120</ele>
        <time>2015-02-11T20:34:41Z</time>
      </trkpt>
      <trkpt lat="60.003132942889" lon="15.768111919706">
        <ele>120.6</ele>
        <time>2015-02-11T20:34:43Z</time>
      </trkpt>
      <trkpt lat="60.003151969802" lon="15.768077051002">
        <ele>120.6</ele>
        <time>2015-02-11T20:34:44Z</time>
      </trkpt>
      <trkpt lat="60.003176361131" lon="15.767956770737">
        <ele>120.8</ele>
        <time>2015-02-11T20:34:46Z</time>
      </trkpt>
      <trkpt lat="60.003255067172" lon="15.767745463038">
        <ele>120.4</ele>
        <time>2015-02-11T20:34:50Z</time>
      </trkpt>
      <trkpt lat="60.003401582784" lon="15.767456371307">
        <ele>119.8</ele>
        <time>2015-02-11T20:34:55Z</time>
      </trkpt>
      <trkpt lat="60.003449778709" lon="15.767434997462">
        <ele>119.6</ele>
        <time>2015-02-11T20:34:56Z</time>
      </trkpt>
      <trkpt lat="60.003574752838" lon="15.767422256974">
        <ele>118.6</ele>
        <time>2015-02-11T20:34:58Z</time>
      </trkpt>
      <trkpt lat="60.003649770843" lon="15.767430052141">
        <ele>117.6</ele>
        <time>2015-02-11T20:34:59Z</time>
      </trkpt>
      <trkpt lat="60.00371037198" lon="15.767439775145">
        <ele>116.6</ele>
        <time>2015-02-11T20:35:00Z</time>
      </trkpt>
      <trkpt lat="60.00379754374" lon="15.767474392392">
        <ele>115.6</ele>
        <time>2015-02-11T20:35:01Z</time>
      </trkpt>
      <trkpt lat="60.003846577855" lon="15.767507417078">
        <ele>114.6</ele>
        <time>2015-02-11T20:35:02Z</time>
      </trkpt>
      <trkpt lat="60.004007426516" lon="15.767817044464">
        <ele>113.4</ele>
        <time>2015-02-11T20:35:05Z</time>
      </trkpt>
      <trkpt lat="60.00403978065" lon="15.768086187273">
        <ele>112.2</ele>
        <time>2015-02-11T20:35:07Z</time>
      </trkpt>
      <trkpt lat="60.004045983256" lon="15.768170928282">
        <ele>111.8</ele>
        <time>2015-02-11T20:35:08Z</time>
      </trkpt>
      <trkpt lat="60.004050258025" lon="15.76831107365">
        <ele>111</ele>
        <time>2015-02-11T20:35:09Z</time>
      </trkpt>
      <trkpt lat="60.004059142839" lon="15.768598991915">
        <ele>110</ele>
        <time>2015-02-11T20:35:12Z</time>
      </trkpt>
      <trkpt lat="60.004077247743" lon="15.768882048678">
        <ele>111.8</ele>
        <time>2015-02-11T20:35:16Z</time>
      </trkpt>
      <trkpt lat="60.004072553879" lon="15.76891959959">
        <ele>112.2</ele>
        <time>2015-02-11T20:35:17Z</time>
      </trkpt>
      <trkpt lat="60.004076074277" lon="15.768942649815">
        <ele>112.8</ele>
        <time>2015-02-11T20:35:18Z</time>
      </trkpt>
      <trkpt lat="60.004075236087" lon="15.768965616221">
        <ele>113.4</ele>
        <time>2015-02-11T20:35:19Z</time>
      </trkpt>
      <trkpt lat="60.004077583019" lon="15.769026217358">
        <ele>114.2</ele>
        <time>2015-02-11T20:35:21Z</time>
      </trkpt>
      <trkpt lat="60.004086216376" lon="15.76904113714">
        <ele>114.6</ele>
        <time>2015-02-11T20:35:22Z</time>
      </trkpt>
      <trkpt lat="60.004115469207" lon="15.769074078007">
        <ele>115</ele>
        <time>2015-02-11T20:35:24Z</time>
      </trkpt>
      <trkpt lat="60.004162324028" lon="15.769107857064">
        <ele>115.4</ele>
        <time>2015-02-11T20:35:26Z</time>
      </trkpt>
      <trkpt lat="60.004183781692" lon="15.76913920537">
        <ele>115.6</ele>
        <time>2015-02-11T20:35:27Z</time>
      </trkpt>
      <trkpt lat="60.004209178849" lon="15.769145994709">
        <ele>115.6</ele>
        <time>2015-02-11T20:35:28Z</time>
      </trkpt>
      <trkpt lat="60.004243125544" lon="15.769156891179">
        <ele>115.8</ele>
        <time>2015-02-11T20:35:29Z</time>
      </trkpt>
      <trkpt lat="60.004439094366" lon="15.769258563626">
        <ele>115.2</ele>
        <time>2015-02-11T20:35:35Z</time>
      </trkpt>
      <trkpt lat="60.00452676904" lon="15.769276919987">
        <ele>114.6</ele>
        <time>2015-02-11T20:35:37Z</time>
      </trkpt>
      <trkpt lat="60.004619724311" lon="15.769240039627">
        <ele>113.6</ele>
        <time>2015-02-11T20:35:40Z</time>
      </trkpt>
      <trkpt lat="60.00467848143" lon="15.769197962489">
        <ele>113.2</ele>
        <time>2015-02-11T20:35:41Z</time>
      </trkpt>
      <trkpt lat="60.004799264609" lon="15.769116406602">
        <ele>112.4</ele>
        <time>2015-02-11T20:35:43Z</time>
      </trkpt>
      <trkpt lat="60.004847376715" lon="15.769093607834">
        <ele>111.6</ele>
        <time>2015-02-11T20:35:44Z</time>
      </trkpt>
      <trkpt lat="60.004982325305" lon="15.768965197126">
        <ele>109.8</ele>
        <time>2015-02-11T20:35:46Z</time>
      </trkpt>
      <trkpt lat="60.005063965011" lon="15.768932256259">
        <ele>109</ele>
        <time>2015-02-11T20:35:47Z</time>
      </trkpt>
      <trkpt lat="60.005122051578" lon="15.768921862703">
        <ele>108</ele>
        <time>2015-02-11T20:35:48Z</time>
      </trkpt>
      <trkpt lat="60.005205619121" lon="15.768943488005">
        <ele>107.6</ele>
        <time>2015-02-11T20:35:49Z</time>
      </trkpt>
      <trkpt lat="60.005270662665" lon="15.768986487152">
        <ele>106.8</ele>
        <time>2015-02-11T20:35:50Z</time>
      </trkpt>
      <trkpt lat="60.005401085029" lon="15.769129230909">
        <ele>105.6</ele>
        <time>2015-02-11T20:35:52Z</time>
      </trkpt>
      <trkpt lat="60.005481048355" lon="15.769219839248">
        <ele>104.8</ele>
        <time>2015-02-11T20:35:53Z</time>
      </trkpt>
      <trkpt lat="60.005521281475" lon="15.769259234178">
        <ele>104.2</ele>
        <time>2015-02-11T20:35:54Z</time>
      </trkpt>
      <trkpt lat="60.005609542882" lon="15.769324110084">
        <ele>103.6</ele>
        <time>2015-02-11T20:35:55Z</time>
      </trkpt>
      <trkpt lat="60.005668467639" lon="15.769333916907">
        <ele>102.8</ele>
        <time>2015-02-11T20:35:56Z</time>
      </trkpt>
      <trkpt lat="60.005755890856" lon="15.76931522527">
        <ele>102.2</ele>
        <time>2015-02-11T20:35:57Z</time>
      </trkpt>
      <trkpt lat="60.005838033476" lon="15.769110036358">
        <ele>101.4</ele>
        <time>2015-02-11T20:35:59Z</time>
      </trkpt>
      <trkpt lat="60.005853456172" lon="15.768869894923">
        <ele>100</ele>
        <time>2015-02-11T20:36:01Z</time>
      </trkpt>
      <trkpt lat="60.005821940228" lon="15.768810215795">
        <ele>99.6</ele>
        <time>2015-02-11T20:36:02Z</time>
      </trkpt>
      <trkpt lat="60.00574801187" lon="15.768729665736">
        <ele>98.8</ele>
        <time>2015-02-11T20:36:04Z</time>
      </trkpt>
      <trkpt lat="60.005688416561" lon="15.768713656307">
        <ele>98.8</ele>
        <time>2015-02-11T20:36:05Z</time>
      </trkpt>
      <trkpt lat="60.005607866502" lon="15.768705944959">
        <ele>99.6</ele>
        <time>2015-02-11T20:36:07Z</time>
      </trkpt>
      <trkpt lat="60.005581295879" lon="15.768702843656">
        <ele>100.2</ele>
        <time>2015-02-11T20:36:08Z</time>
      </trkpt>
      <trkpt lat="60.005465458021" lon="15.76870418476">
        <ele>101</ele>
        <time>2015-02-11T20:36:11Z</time>
      </trkpt>
      <trkpt lat="60.005283738429" lon="15.768651965523">
        <ele>100.6</ele>
        <time>2015-02-11T20:36:17Z</time>
      </trkpt>
      <trkpt lat="60.005166643286" lon="15.768585077961">
        <ele>100.8</ele>
        <time>2015-02-11T20:36:22Z</time>
      </trkpt>
      <trkpt lat="60.00500453734" lon="15.768407884595">
        <ele>100.6</ele>
        <time>2015-02-11T20:36:28Z</time>
      </trkpt>
      <trkpt lat="60.004909402775" lon="15.768307972347">
        <ele>101.4</ele>
        <time>2015-02-11T20:36:31Z</time>
      </trkpt>
      <trkpt lat="60.004838743358" lon="15.768212921601">
        <ele>102</ele>
        <time>2015-02-11T20:36:34Z</time>
      </trkpt>
      <trkpt lat="60.004690719004" lon="15.76800681068">
        <ele>101.8</ele>
        <time>2015-02-11T20:36:39Z</time>
      </trkpt>
      <trkpt lat="60.004573875318" lon="15.767927434087">
        <ele>102.4</ele>
        <time>2015-02-11T20:36:43Z</time>
      </trkpt>
      <trkpt lat="60.004473292518" lon="15.767863899285">
        <ele>103.6</ele>
        <time>2015-02-11T20:36:47Z</time>
      </trkpt>
      <trkpt lat="60.004410344449" lon="15.76781989431">
        <ele>104</ele>
        <time>2015-02-11T20:36:50Z</time>
      </trkpt>
      <trkpt lat="60.004335577901" lon="15.767780834656">
        <ele>104.4</ele>
        <time>2015-02-11T20:36:53Z</time>
      </trkpt>
      <trkpt lat="60.004287130519" lon="15.767729788885">
        <ele>104.8</ele>
        <time>2015-02-11T20:36:55Z</time>
      </trkpt>
      <trkpt lat="60.004235749472" lon="15.767694752543">
        <ele>105.4</ele>
        <time>2015-02-11T20:36:57Z</time>
      </trkpt>
      <trkpt lat="60.004187469728" lon="15.767622668203">
        <ele>105.8</ele>
        <time>2015-02-11T20:36:59Z</time>
      </trkpt>
      <trkpt lat="60.004172382308" lon="15.767606826412">
        <ele>106</ele>
        <time>2015-02-11T20:37:00Z</time>
      </trkpt>
      <trkpt lat="60.004150002635" lon="15.767571622432">
        <ele>105.8</ele>
        <time>2015-02-11T20:37:02Z</time>
      </trkpt>
      <trkpt lat="60.004095855561" lon="15.767515044607">
        <ele>106</ele>
        <time>2015-02-11T20:37:05Z</time>
      </trkpt>
      <trkpt lat="60.00405151531" lon="15.767472548374">
        <ele>106.4</ele>
        <time>2015-02-11T20:37:07Z</time>
      </trkpt>
      <trkpt lat="60.004017400977" lon="15.767441451525">
        <ele>106.8</ele>
        <time>2015-02-11T20:37:09Z</time>
      </trkpt>
      <trkpt lat="60.004006672145" lon="15.767431393245">
        <ele>107</ele>
        <time>2015-02-11T20:37:10Z</time>
      </trkpt>
      <trkpt lat="60.003993428743" lon="15.767380934207">
        <ele>107</ele>
        <time>2015-02-11T20:37:11Z</time>
      </trkpt>
      <trkpt lat="60.003957218935" lon="15.767314298102">
        <ele>107.4</ele>
        <time>2015-02-11T20:37:13Z</time>
      </trkpt>
      <trkpt lat="60.003862671103" lon="15.767149929043">
        <ele>107.4</ele>
        <time>2015-02-11T20:37:18Z</time>
      </trkpt>
      <trkpt lat="60.003823946725" lon="15.766988326011">
        <ele>107.6</ele>
        <time>2015-02-11T20:37:22Z</time>
      </trkpt>
      <trkpt lat="60.003736942603" lon="15.766782801823">
        <ele>107.4</ele>
        <time>2015-02-11T20:37:25Z</time>
      </trkpt>
      <trkpt lat="60.003708779419" lon="15.766741227599">
        <ele>107</ele>
        <time>2015-02-11T20:37:26Z</time>
      </trkpt>
      <trkpt lat="60.00355027769" lon="15.766542828026">
        <ele>105.4</ele>
        <time>2015-02-11T20:37:30Z</time>
      </trkpt>
      <trkpt lat="60.003478863902" lon="15.766452471144">
        <ele>104.6</ele>
        <time>2015-02-11T20:37:32Z</time>
      </trkpt>
      <trkpt lat="60.003395883092" lon="15.766349457593">
        <ele>104.4</ele>
        <time>2015-02-11T20:37:34Z</time>
      </trkpt>
      <trkpt lat="60.003331677738" lon="15.766282234755">
        <ele>104.4</ele>
        <time>2015-02-11T20:37:35Z</time>
      </trkpt>
      <trkpt lat="60.003203183211" lon="15.766152902038">
        <ele>104.4</ele>
        <time>2015-02-11T20:37:39Z</time>
      </trkpt>
      <trkpt lat="60.00309262595" lon="15.766031029212">
        <ele>105.4</ele>
        <time>2015-02-11T20:37:44Z</time>
      </trkpt>
      <trkpt lat="60.003039400885" lon="15.765902618504">
        <ele>105.6</ele>
        <time>2015-02-11T20:37:47Z</time>
      </trkpt>
      <trkpt lat="60.002999000127" lon="15.76586272066">
        <ele>105.8</ele>
        <time>2015-02-11T20:37:49Z</time>
      </trkpt>
      <trkpt lat="60.00295013365" lon="15.765768927199">
        <ele>106.2</ele>
        <time>2015-02-11T20:37:51Z</time>
      </trkpt>
      <trkpt lat="60.002945523605" lon="15.765718384342">
        <ele>106.2</ele>
        <time>2015-02-11T20:37:52Z</time>
      </trkpt>
      <trkpt lat="60.00291157691" lon="15.765558792966">
        <ele>106.2</ele>
        <time>2015-02-11T20:37:54Z</time>
      </trkpt>
      <trkpt lat="60.002849047936" lon="15.765209100098">
        <ele>104.2</ele>
        <time>2015-02-11T20:37:57Z</time>
      </trkpt>
      <trkpt lat="60.002839995484" lon="15.765151516445">
        <ele>103.6</ele>
        <time>2015-02-11T20:37:58Z</time>
      </trkpt>
      <trkpt lat="60.002815939431" lon="15.765037857881">
        <ele>102.6</ele>
        <time>2015-02-11T20:37:59Z</time>
      </trkpt>
      <trkpt lat="60.002796158147" lon="15.764887570414">
        <ele>101.4</ele>
        <time>2015-02-11T20:38:01Z</time>
      </trkpt>
      <trkpt lat="60.002787357152" lon="15.764864939284">
        <ele>101.6</ele>
        <time>2015-02-11T20:38:02Z</time>
      </trkpt>
      <trkpt lat="60.002762211452" lon="15.764814312608">
        <ele>102</ele>
        <time>2015-02-11T20:38:03Z</time>
      </trkpt>
      <trkpt lat="60.002757517588" lon="15.76478816108">
        <ele>102.4</ele>
        <time>2015-02-11T20:38:04Z</time>
      </trkpt>
      <trkpt lat="60.002749554783" lon="15.764677855276">
        <ele>103.4</ele>
        <time>2015-02-11T20:38:06Z</time>
      </trkpt>
      <trkpt lat="60.002727929481" lon="15.764588588041">
        <ele>104.2</ele>
        <time>2015-02-11T20:38:08Z</time>
      </trkpt>
      <trkpt lat="60.002670010552" lon="15.76441516653">
        <ele>104.2</ele>
        <time>2015-02-11T20:38:11Z</time>
      </trkpt>
      <trkpt lat="60.002532379754" lon="15.764325396381">
        <ele>104</ele>
        <time>2015-02-11T20:38:16Z</time>
      </trkpt>
      <trkpt lat="60.002432299868" lon="15.764435702185">
        <ele>104.4</ele>
        <time>2015-02-11T20:38:20Z</time>
      </trkpt>
      <trkpt lat="60.002425929624" lon="15.764492950562">
        <ele>104.6</ele>
        <time>2015-02-11T20:38:21Z</time>
      </trkpt>
      <trkpt lat="60.002393659309" lon="15.764581882521">
        <ele>104.8</ele>
        <time>2015-02-11T20:38:23Z</time>
      </trkpt>
      <trkpt lat="60.002289304654" lon="15.764826885458">
        <ele>104.8</ele>
        <time>2015-02-11T20:38:28Z</time>
      </trkpt>
      <trkpt lat="60.002213448459" lon="15.764950267026">
        <ele>105.2</ele>
        <time>2015-02-11T20:38:32Z</time>
      </trkpt>
      <trkpt lat="60.002175059357" lon="15.765007096308">
        <ele>105.8</ele>
        <time>2015-02-11T20:38:34Z</time>
      </trkpt>
      <trkpt lat="60.002102472103" lon="15.765099381027">
        <ele>106.2</ele>
        <time>2015-02-11T20:38:37Z</time>
      </trkpt>
      <trkpt lat="60.002060143508" lon="15.765143050726">
        <ele>107.2</ele>
        <time>2015-02-11T20:38:40Z</time>
      </trkpt>
      <trkpt lat="60.00202225732" lon="15.765181439828">
        <ele>107.8</ele>
        <time>2015-02-11T20:38:42Z</time>
      </trkpt>
      <trkpt lat="60.001978419983" lon="15.765194515592">
        <ele>108.4</ele>
        <time>2015-02-11T20:38:46Z</time>
      </trkpt>
      <trkpt lat="60.001954531568" lon="15.765202310759">
        <ele>108.8</ele>
        <time>2015-02-11T20:38:48Z</time>
      </trkpt>
      <trkpt lat="60.001932738628" lon="15.765211111754">
        <ele>109</ele>
        <time>2015-02-11T20:38:50Z</time>
      </trkpt>
      <trkpt lat="60.001902144693" lon="15.765218655464">
        <ele>109.4</ele>
        <time>2015-02-11T20:38:52Z</time>
      </trkpt>
      <trkpt lat="60.001871047844" lon="15.76523323997">
        <ele>109.8</ele>
        <time>2015-02-11T20:38:54Z</time>
      </trkpt>
      <trkpt lat="60.001852859121" lon="15.765235167807">
        <ele>110</ele>
        <time>2015-02-11T20:38:55Z</time>
      </trkpt>
      <trkpt lat="60.001828970706" lon="15.765243382069">
        <ele>110.6</ele>
        <time>2015-02-11T20:38:58Z</time>
      </trkpt>
      <trkpt lat="60.001805920481" lon="15.765254362358">
        <ele>110.8</ele>
        <time>2015-02-11T20:39:00Z</time>
      </trkpt>
      <trkpt lat="60.001768872483" lon="15.765258469489">
        <ele>111.6</ele>
        <time>2015-02-11T20:39:05Z</time>
      </trkpt>
      <trkpt lat="60.001755629081" lon="15.765245896639">
        <ele>111.8</ele>
        <time>2015-02-11T20:39:06Z</time>
      </trkpt>
      <trkpt lat="60.001734171417" lon="15.765227875554">
        <ele>112.8</ele>
        <time>2015-02-11T20:39:10Z</time>
      </trkpt>
      <trkpt lat="60.001722352938" lon="15.765209267736">
        <ele>113.4</ele>
        <time>2015-02-11T20:39:13Z</time>
      </trkpt>
      <trkpt lat="60.001708606622" lon="15.765198203628">
        <ele>113.6</ele>
        <time>2015-02-11T20:39:14Z</time>
      </trkpt>
      <trkpt lat="60.00169117227" lon="15.765160065983">
        <ele>113.8</ele>
        <time>2015-02-11T20:39:17Z</time>
      </trkpt>
      <trkpt lat="60.001685137302" lon="15.765152103178">
        <ele>114</ele>
        <time>2015-02-11T20:39:18Z</time>
      </trkpt>
      <trkpt lat="60.001648508399" lon="15.765107930565">
        <ele>114.4</ele>
        <time>2015-02-11T20:39:21Z</time>
      </trkpt>
      <trkpt lat="60.001640210318" lon="15.765111283325">
        <ele>114.6</ele>
        <time>2015-02-11T20:39:22Z</time>
      </trkpt>
      <trkpt lat="60.001617914464" lon="15.765083623055">
        <ele>115</ele>
        <time>2015-02-11T20:39:25Z</time>
      </trkpt>
      <trkpt lat="60.00159813318" lon="15.765080186476">
        <ele>115.2</ele>
        <time>2015-02-11T20:39:26Z</time>
      </trkpt>
      <trkpt lat="60.001553876748" lon="15.765057639165">
        <ele>115.6</ele>
        <time>2015-02-11T20:39:29Z</time>
      </trkpt>
      <trkpt lat="60.001477098544" lon="15.765073229499">
        <ele>116</ele>
        <time>2015-02-11T20:39:31Z</time>
      </trkpt>
      <trkpt lat="60.001462765495" lon="15.765078593915">
        <ele>116.2</ele>
        <time>2015-02-11T20:39:32Z</time>
      </trkpt>
      <trkpt lat="60.001407947869" lon="15.765105080719">
        <ele>116.4</ele>
        <time>2015-02-11T20:39:34Z</time>
      </trkpt>
      <trkpt lat="60.001347849646" lon="15.765207926632">
        <ele>116.4</ele>
        <time>2015-02-11T20:39:37Z</time>
      </trkpt>
      <trkpt lat="60.001320189376" lon="15.765311526916">
        <ele>117</ele>
        <time>2015-02-11T20:39:40Z</time>
      </trkpt>
      <trkpt lat="60.001307784164" lon="15.765373050062">
        <ele>117.2</ele>
        <time>2015-02-11T20:39:41Z</time>
      </trkpt>
      <trkpt lat="60.001300827187" lon="15.765553847645">
        <ele>118</ele>
        <time>2015-02-11T20:39:46Z</time>
      </trkpt>
      <trkpt lat="60.001298396436" lon="15.765654430445">
        <ele>118.2</ele>
        <time>2015-02-11T20:39:48Z</time>
      </trkpt>
      <trkpt lat="60.001269227424" lon="15.765774962167">
        <ele>118.4</ele>
        <time>2015-02-11T20:39:50Z</time>
      </trkpt>
      <trkpt lat="60.001258833868" lon="15.765916951553">
        <ele>118.8</ele>
        <time>2015-02-11T20:39:53Z</time>
      </trkpt>
      <trkpt lat="60.001266042302" lon="15.766031532126">
        <ele>119.4</ele>
        <time>2015-02-11T20:39:57Z</time>
      </trkpt>
      <trkpt lat="60.001265287931" lon="15.766105460484">
        <ele>120.2</ele>
        <time>2015-02-11T20:40:02Z</time>
      </trkpt>
      <trkpt lat="60.001262940999" lon="15.766131528193">
        <ele>120.6</ele>
        <time>2015-02-11T20:40:03Z</time>
      </trkpt>
      <trkpt lat="60.001276938772" lon="15.766223896731">
        <ele>121.6</ele>
        <time>2015-02-11T20:40:08Z</time>
      </trkpt>
      <trkpt lat="60.001265539388" lon="15.766281648022">
        <ele>122</ele>
        <time>2015-02-11T20:40:11Z</time>
      </trkpt>
      <trkpt lat="60.001265539388" lon="15.766297657451">
        <ele>122.2</ele>
        <time>2015-02-11T20:40:12Z</time>
      </trkpt>
      <trkpt lat="60.001254391461" lon="15.766398994622">
        <ele>122.4</ele>
        <time>2015-02-11T20:40:16Z</time>
      </trkpt>
      <trkpt lat="60.001256738393" lon="15.766458422293">
        <ele>122.6</ele>
        <time>2015-02-11T20:40:18Z</time>
      </trkpt>
      <trkpt lat="60.001266461397" lon="15.766585994811">
        <ele>123</ele>
        <time>2015-02-11T20:40:21Z</time>
      </trkpt>
      <trkpt lat="60.001297977341" lon="15.766659504074">
        <ele>123.6</ele>
        <time>2015-02-11T20:40:24Z</time>
      </trkpt>
      <trkpt lat="60.001317842444" lon="15.766732342785">
        <ele>123.6</ele>
        <time>2015-02-11T20:40:25Z</time>
      </trkpt>
      <trkpt lat="60.001343658696" lon="15.766816413242">
        <ele>124</ele>
        <time>2015-02-11T20:40:27Z</time>
      </trkpt>
      <trkpt lat="60.001323374498" lon="15.766954546954">
        <ele>124.4</ele>
        <time>2015-02-11T20:40:30Z</time>
      </trkpt>
      <trkpt lat="60.001328236" lon="15.767034258823">
        <ele>124.6</ele>
        <time>2015-02-11T20:40:31Z</time>
      </trkpt>
      <trkpt lat="60.001318764453" lon="15.767202399737">
        <ele>124.6</ele>
        <time>2015-02-11T20:40:34Z</time>
      </trkpt>
      <trkpt lat="60.001311891295" lon="15.767543543067">
        <ele>124.4</ele>
        <time>2015-02-11T20:40:39Z</time>
      </trkpt>
      <trkpt lat="60.001292445287" lon="15.767752252377">
        <ele>124.4</ele>
        <time>2015-02-11T20:40:42Z</time>
      </trkpt>
      <trkpt lat="60.001303509395" lon="15.767846045838">
        <ele>124.4</ele>
        <time>2015-02-11T20:40:43Z</time>
      </trkpt>
      <trkpt lat="60.001276687315" lon="15.768004128472">
        <ele>124.4</ele>
        <time>2015-02-11T20:40:46Z</time>
      </trkpt>
      <trkpt lat="60.001252044529" lon="15.768169587178">
        <ele>124.8</ele>
        <time>2015-02-11T20:40:49Z</time>
      </trkpt>
      <trkpt lat="60.001236705652" lon="15.76821216723">
        <ele>124.8</ele>
        <time>2015-02-11T20:40:50Z</time>
      </trkpt>
      <trkpt lat="60.00123771148" lon="15.768293555479">
        <ele>125</ele>
        <time>2015-02-11T20:40:51Z</time>
      </trkpt>
      <trkpt lat="60.001200579663" lon="15.768393383908">
        <ele>125.2</ele>
        <time>2015-02-11T20:40:53Z</time>
      </trkpt>
      <trkpt lat="60.001134362653" lon="15.768646601107">
        <ele>125.6</ele>
        <time>2015-02-11T20:40:57Z</time>
      </trkpt>
      <trkpt lat="60.00110024832" lon="15.768787500846">
        <ele>125.8</ele>
        <time>2015-02-11T20:41:00Z</time>
      </trkpt>
      <trkpt lat="60.001096560284" lon="15.768856232426">
        <ele>125.8</ele>
        <time>2015-02-11T20:41:01Z</time>
      </trkpt>
      <trkpt lat="60.001073342421" lon="15.76901431506">
        <ele>126</ele>
        <time>2015-02-11T20:41:04Z</time>
      </trkpt>
      <trkpt lat="60.001086585823" lon="15.769129230909">
        <ele>126</ele>
        <time>2015-02-11T20:41:05Z</time>
      </trkpt>
      <trkpt lat="60.001065714892" lon="15.769251355192">
        <ele>126</ele>
        <time>2015-02-11T20:41:07Z</time>
      </trkpt>
      <trkpt lat="60.00100804742" lon="15.769524018399">
        <ele>126.2</ele>
        <time>2015-02-11T20:41:11Z</time>
      </trkpt>
      <trkpt lat="60.000911404113" lon="15.7698910618">
        <ele>125</ele>
        <time>2015-02-11T20:41:17Z</time>
      </trkpt>
      <trkpt lat="60.000884582033" lon="15.769928612712">
        <ele>124.6</ele>
        <time>2015-02-11T20:41:18Z</time>
      </trkpt>
      <trkpt lat="60.000842504895" lon="15.770119552394">
        <ele>124.2</ele>
        <time>2015-02-11T20:41:21Z</time>
      </trkpt>
      <trkpt lat="60.000779389188" lon="15.770275874829">
        <ele>124.8</ele>
        <time>2015-02-11T20:41:24Z</time>
      </trkpt>
      <trkpt lat="60.000737060593" lon="15.770349300273">
        <ele>125</ele>
        <time>2015-02-11T20:41:25Z</time>
      </trkpt>
      <trkpt lat="60.000718704232" lon="15.770407135383">
        <ele>125</ele>
        <time>2015-02-11T20:41:26Z</time>
      </trkpt>
      <trkpt lat="60.000673441972" lon="15.77043504711">
        <ele>124.8</ele>
        <time>2015-02-11T20:41:28Z</time>
      </trkpt>
      <trkpt lat="60.000594652112" lon="15.770402860614">
        <ele>124.6</ele>
        <time>2015-02-11T20:41:31Z</time>
      </trkpt>
      <trkpt lat="60.000527177817" lon="15.770335051043">
        <ele>125.4</ele>
        <time>2015-02-11T20:41:36Z</time>
      </trkpt>
      <trkpt lat="60.000532626052" lon="15.770339996364">
        <ele>125.8</ele>
        <time>2015-02-11T20:41:37Z</time>
      </trkpt>
      <trkpt lat="60.00046154754" lon="15.770278557037">
        <ele>126.6</ele>
        <time>2015-02-11T20:41:41Z</time>
      </trkpt>
      <trkpt lat="60.000458446237" lon="15.770247208731">
        <ele>126.6</ele>
        <time>2015-02-11T20:41:42Z</time>
      </trkpt>
      <trkpt lat="60.000450148156" lon="15.770233546234">
        <ele>127</ele>
        <time>2015-02-11T20:41:44Z</time>
      </trkpt>
      <trkpt lat="60.000459619703" lon="15.770204209584">
        <ele>127</ele>
        <time>2015-02-11T20:41:45Z</time>
      </trkpt>
      <trkpt lat="60.000431540338" lon="15.770130532683">
        <ele>127.2</ele>
        <time>2015-02-11T20:41:47Z</time>
      </trkpt>
      <trkpt lat="60.000392732141" lon="15.769993404799">
        <ele>127.4</ele>
        <time>2015-02-11T20:41:50Z</time>
      </trkpt>
      <trkpt lat="60.000365323328" lon="15.769927774522">
        <ele>127.4</ele>
        <time>2015-02-11T20:41:52Z</time>
      </trkpt>
      <trkpt lat="60.000284857088" lon="15.769732057157">
        <ele>127.8</ele>
        <time>2015-02-11T20:41:56Z</time>
      </trkpt>
      <trkpt lat="60.000149824679" lon="15.769581266776">
        <ele>127.8</ele>
        <time>2015-02-11T20:42:01Z</time>
      </trkpt>
      <trkpt lat="60.000142951521" lon="15.769567101365">
        <ele>128.2</ele>
        <time>2015-02-11T20:42:02Z</time>
      </trkpt>
      <trkpt lat="60.000118392554" lon="15.769573974523">
        <ele>128.6</ele>
        <time>2015-02-11T20:42:03Z</time>
      </trkpt>
      <trkpt lat="60.000098527451" lon="15.769543296769">
        <ele>129.4</ele>
        <time>2015-02-11T20:42:05Z</time>
      </trkpt>
      <trkpt lat="60.000074471398" lon="15.769512786653">
        <ele>129.6</ele>
        <time>2015-02-11T20:42:07Z</time>
      </trkpt>
      <trkpt lat="60.000020072867" lon="15.769455454457">
        <ele>130</ele>
        <time>2015-02-11T20:42:10Z</time>
      </trkpt>
      <trkpt lat="59.999970284381" lon="15.769392254931">
        <ele>130.6</ele>
        <time>2015-02-11T20:42:12Z</time>
      </trkpt>
      <trkpt lat="59.999920579714" lon="15.769321008781">
        <ele>131.2</ele>
        <time>2015-02-11T20:42:15Z</time>
      </trkpt>
      <trkpt lat="59.999908509778" lon="15.76925319921">
        <ele>132</ele>
        <time>2015-02-11T20:42:18Z</time>
      </trkpt>
      <trkpt lat="59.999892667987" lon="15.769208523683">
        <ele>132.4</ele>
        <time>2015-02-11T20:42:19Z</time>
      </trkpt>
      <trkpt lat="59.999847824822" lon="15.769133840954">
        <ele>132.8</ele>
        <time>2015-02-11T20:42:22Z</time>
      </trkpt>
      <trkpt lat="59.999817901439" lon="15.769088159599">
        <ele>132.6</ele>
        <time>2015-02-11T20:42:23Z</time>
      </trkpt>
      <trkpt lat="59.999757132664" lon="15.768957988692">
        <ele>132.6</ele>
        <time>2015-02-11T20:42:27Z</time>
      </trkpt>
      <trkpt lat="59.999697369717" lon="15.76881734041">
        <ele>133.2</ele>
        <time>2015-02-11T20:42:32Z</time>
      </trkpt>
      <trkpt lat="59.999679767727" lon="15.768790350692">
        <ele>133.4</ele>
        <time>2015-02-11T20:42:33Z</time>
      </trkpt>
      <trkpt lat="59.999663171565" lon="15.768732934677">
        <ele>133.8</ele>
        <time>2015-02-11T20:42:35Z</time>
      </trkpt>
      <trkpt lat="59.999644647566" lon="15.768703765665">
        <ele>134</ele>
        <time>2015-02-11T20:42:36Z</time>
      </trkpt>
      <trkpt lat="59.999596870736" lon="15.768628831479">
        <ele>134.2</ele>
        <time>2015-02-11T20:42:38Z</time>
      </trkpt>
      <trkpt lat="59.999556134702" lon="15.768559429347">
        <ele>134.2</ele>
        <time>2015-02-11T20:42:39Z</time>
      </trkpt>
      <trkpt lat="59.999532078649" lon="15.768532691086">
        <ele>134.4</ele>
        <time>2015-02-11T20:42:40Z</time>
      </trkpt>
      <trkpt lat="59.999498802506" lon="15.768448033896">
        <ele>134.8</ele>
        <time>2015-02-11T20:42:43Z</time>
      </trkpt>
      <trkpt lat="59.999449684572" lon="15.768292549651">
        <ele>135.2</ele>
        <time>2015-02-11T20:42:46Z</time>
      </trkpt>
      <trkpt lat="59.999443901061" lon="15.76817193411">
        <ele>135.2</ele>
        <time>2015-02-11T20:42:48Z</time>
      </trkpt>
      <trkpt lat="59.999451193314" lon="15.768111249154">
        <ele>135.4</ele>
        <time>2015-02-11T20:42:49Z</time>
      </trkpt>
      <trkpt lat="59.999456390092" lon="15.76804369104">
        <ele>135.4</ele>
        <time>2015-02-11T20:42:50Z</time>
      </trkpt>
      <trkpt lat="59.999513973745" lon="15.767821403052">
        <ele>135.4</ele>
        <time>2015-02-11T20:42:54Z</time>
      </trkpt>
      <trkpt lat="59.999589746121" lon="15.767577573581">
        <ele>134.6</ele>
        <time>2015-02-11T20:42:58Z</time>
      </trkpt>
      <trkpt lat="59.999671888741" lon="15.767323769649">
        <ele>134.4</ele>
        <time>2015-02-11T20:43:02Z</time>
      </trkpt>
      <trkpt lat="59.99968789817" lon="15.767246991445">
        <ele>134.2</ele>
        <time>2015-02-11T20:43:03Z</time>
      </trkpt>
      <trkpt lat="59.999736345552" lon="15.767136937098">
        <ele>134.2</ele>
        <time>2015-02-11T20:43:05Z</time>
      </trkpt>
      <trkpt lat="59.99979267192" lon="15.766891347428">
        <ele>134.4</ele>
        <time>2015-02-11T20:43:09Z</time>
      </trkpt>
      <trkpt lat="59.999828965547" lon="15.76676042215">
        <ele>134.4</ele>
        <time>2015-02-11T20:43:12Z</time>
      </trkpt>
      <trkpt lat="59.99988068187" lon="15.766563112224">
        <ele>134.4</ele>
        <time>2015-02-11T20:43:16Z</time>
      </trkpt>
      <trkpt lat="59.999954358771" lon="15.766184417982">
        <ele>133.6</ele>
        <time>2015-02-11T20:43:22Z</time>
      </trkpt>
      <trkpt lat="59.999971541666" lon="15.766081739707">
        <ele>133.2</ele>
        <time>2015-02-11T20:43:23Z</time>
      </trkpt>
      <trkpt lat="60.000028035672" lon="15.765733471762">
        <ele>132</ele>
        <time>2015-02-11T20:43:27Z</time>
      </trkpt>
      <trkpt lat="60.000032813355" lon="15.765683431819">
        <ele>131.6</ele>
        <time>2015-02-11T20:43:28Z</time>
      </trkpt>
      <trkpt lat="60.000093330673" lon="15.765406493843">
        <ele>131.6</ele>
        <time>2015-02-11T20:43:32Z</time>
      </trkpt>
      <trkpt lat="60.00008603842" lon="15.765274814194">
        <ele>132</ele>
        <time>2015-02-11T20:43:33Z</time>
      </trkpt>
      <trkpt lat="60.000078243253" lon="15.765112037696">
        <ele>131.4</ele>
        <time>2015-02-11T20:43:35Z</time>
      </trkpt>
      <trkpt lat="60.000023090351" lon="15.764862089438">
        <ele>130.8</ele>
        <time>2015-02-11T20:43:38Z</time>
      </trkpt>
      <trkpt lat="59.999976319349" lon="15.764777432248">
        <ele>130.8</ele>
        <time>2015-02-11T20:43:39Z</time>
      </trkpt>
      <trkpt lat="59.999888896132" lon="15.764683052054">
        <ele>130.2</ele>
        <time>2015-02-11T20:43:41Z</time>
      </trkpt>
      <trkpt lat="59.999829468461" lon="15.764614739569">
        <ele>130</ele>
        <time>2015-02-11T20:43:43Z</time>
      </trkpt>
      <trkpt lat="59.999793007196" lon="15.764542990505">
        <ele>131.2</ele>
        <time>2015-02-11T20:43:45Z</time>
      </trkpt>
      <trkpt lat="59.999728382747" lon="15.764426230638">
        <ele>132</ele>
        <time>2015-02-11T20:43:47Z</time>
      </trkpt>
      <trkpt lat="59.99962335754" lon="15.764177791122">
        <ele>130.8</ele>
        <time>2015-02-11T20:43:51Z</time>
      </trkpt>
      <trkpt lat="59.99962168116" lon="15.764126996808">
        <ele>130.4</ele>
        <time>2015-02-11T20:43:52Z</time>
      </trkpt>
      <trkpt lat="59.999677253157" lon="15.763915018557">
        <ele>130</ele>
        <time>2015-02-11T20:43:55Z</time>
      </trkpt>
      <trkpt lat="59.999766939487" lon="15.763827679159">
        <ele>129.4</ele>
        <time>2015-02-11T20:43:57Z</time>
      </trkpt>
      <trkpt lat="59.999802814019" lon="15.763814687214">
        <ele>129.2</ele>
        <time>2015-02-11T20:43:58Z</time>
      </trkpt>
      <trkpt lat="59.999932314374" lon="15.763832205385">
        <ele>128.4</ele>
        <time>2015-02-11T20:44:00Z</time>
      </trkpt>
      <trkpt lat="60.000001632687" lon="15.763905295553">
        <ele>128</ele>
        <time>2015-02-11T20:44:01Z</time>
      </trkpt>
      <trkpt lat="60.000046559671" lon="15.763949551985">
        <ele>127.4</ele>
        <time>2015-02-11T20:44:02Z</time>
      </trkpt>
      <trkpt lat="60.000111435577" lon="15.764018283565">
        <ele>127</ele>
        <time>2015-02-11T20:44:03Z</time>
      </trkpt>
      <trkpt lat="60.000135659268" lon="15.764061869445">
        <ele>126.8</ele>
        <time>2015-02-11T20:44:04Z</time>
      </trkpt>
      <trkpt lat="60.000238840457" lon="15.764181982072">
        <ele>125.8</ele>
        <time>2015-02-11T20:44:06Z</time>
      </trkpt>
      <trkpt lat="60.000287371658" lon="15.764252976765">
        <ele>125.4</ele>
        <time>2015-02-11T20:44:07Z</time>
      </trkpt>
      <trkpt lat="60.000388205915" lon="15.764387003346">
        <ele>124.8</ele>
        <time>2015-02-11T20:44:09Z</time>
      </trkpt>
      <trkpt lat="60.000436988573" lon="15.764446011922">
        <ele>124.6</ele>
        <time>2015-02-11T20:44:10Z</time>
      </trkpt>
      <trkpt lat="60.000520807573" lon="15.764543577238">
        <ele>124.2</ele>
        <time>2015-02-11T20:44:11Z</time>
      </trkpt>
      <trkpt lat="60.000570931335" lon="15.764563274703">
        <ele>123.4</ele>
        <time>2015-02-11T20:44:12Z</time>
      </trkpt>
      <trkpt lat="60.000624575495" lon="15.764591773163">
        <ele>122.4</ele>
        <time>2015-02-11T20:44:13Z</time>
      </trkpt>
      <trkpt lat="60.000719877698" lon="15.764640891097">
        <ele>121.4</ele>
        <time>2015-02-11T20:44:14Z</time>
      </trkpt>
      <trkpt lat="60.000838481583" lon="15.764687326823">
        <ele>120.4</ele>
        <time>2015-02-11T20:44:15Z</time>
      </trkpt>
      <trkpt lat="60.000903189851" lon="15.764724374821">
        <ele>119.2</ele>
        <time>2015-02-11T20:44:16Z</time>
      </trkpt>
      <trkpt lat="60.001026822876" lon="15.76475966262">
        <ele>117</ele>
        <time>2015-02-11T20:44:17Z</time>
      </trkpt>
      <trkpt lat="60.001103768718" lon="15.764761255181">
        <ele>116</ele>
        <time>2015-02-11T20:44:18Z</time>
      </trkpt>
      <trkpt lat="60.001203429509" lon="15.764751615996">
        <ele>114.4</ele>
        <time>2015-02-11T20:44:19Z</time>
      </trkpt>
      <trkpt lat="60.001277776962" lon="15.764719680957">
        <ele>113</ele>
        <time>2015-02-11T20:44:20Z</time>
      </trkpt>
      <trkpt lat="60.001361512143" lon="15.764654721232">
        <ele>112</ele>
        <time>2015-02-11T20:44:21Z</time>
      </trkpt>
      <trkpt lat="60.001383137445" lon="15.764591689344">
        <ele>111.6</ele>
        <time>2015-02-11T20:44:22Z</time>
      </trkpt>
      <trkpt lat="60.001405517118" lon="15.764383399129">
        <ele>112.4</ele>
        <time>2015-02-11T20:44:24Z</time>
      </trkpt>
      <trkpt lat="60.00143887708" lon="15.764174689819">
        <ele>113</ele>
        <time>2015-02-11T20:44:26Z</time>
      </trkpt>
      <trkpt lat="60.001478188191" lon="15.763942595008">
        <ele>113.6</ele>
        <time>2015-02-11T20:44:28Z</time>
      </trkpt>
      <trkpt lat="60.001625290536" lon="15.763576557435">
        <ele>111.2</ele>
        <time>2015-02-11T20:44:31Z</time>
      </trkpt>
      <trkpt lat="60.001682874189" lon="15.76349651029">
        <ele>109.4</ele>
        <time>2015-02-11T20:44:32Z</time>
      </trkpt>
      <trkpt lat="60.001765603542" lon="15.763390646893">
        <ele>108.2</ele>
        <time>2015-02-11T20:44:33Z</time>
      </trkpt>
      <trkpt lat="60.001821343177" lon="15.763383187002">
        <ele>107</ele>
        <time>2015-02-11T20:44:34Z</time>
      </trkpt>
      <trkpt lat="60.001933828275" lon="15.763370362695">
        <ele>106</ele>
        <time>2015-02-11T20:44:35Z</time>
      </trkpt>
      <trkpt lat="60.002075147109" lon="15.763458205007">
        <ele>105.4</ele>
        <time>2015-02-11T20:44:37Z</time>
      </trkpt>
      <trkpt lat="60.002204479826" lon="15.763569181363">
        <ele>105.4</ele>
        <time>2015-02-11T20:44:39Z</time>
      </trkpt>
      <trkpt lat="60.00225443595" lon="15.7636465463">
        <ele>105.2</ele>
        <time>2015-02-11T20:44:40Z</time>
      </trkpt>
      <trkpt lat="60.002316126734" lon="15.763750900955">
        <ele>105</ele>
        <time>2015-02-11T20:44:41Z</time>
      </trkpt>
      <trkpt lat="60.002504551846" lon="15.764114507777">
        <ele>105.2</ele>
        <time>2015-02-11T20:44:46Z</time>
      </trkpt>
      <trkpt lat="60.002727761843" lon="15.764488340517">
        <ele>104.8</ele>
        <time>2015-02-11T20:44:51Z</time>
      </trkpt>
      <trkpt lat="60.002785345496" lon="15.764786819976">
        <ele>104</ele>
        <time>2015-02-11T20:44:55Z</time>
      </trkpt>
      <trkpt lat="60.002822309675" lon="15.764951524311">
        <ele>104</ele>
        <time>2015-02-11T20:44:57Z</time>
      </trkpt>
      <trkpt lat="60.002910068168" lon="15.765190324642">
        <ele>104.6</ele>
        <time>2015-02-11T20:45:00Z</time>
      </trkpt>
      <trkpt lat="60.002937309343" lon="15.765373972071">
        <ele>104.8</ele>
        <time>2015-02-11T20:45:02Z</time>
      </trkpt>
      <trkpt lat="60.002956755351" lon="15.765550159609">
        <ele>104.2</ele>
        <time>2015-02-11T20:45:04Z</time>
      </trkpt>
      <trkpt lat="60.003007633484" lon="15.76579566546">
        <ele>104</ele>
        <time>2015-02-11T20:45:08Z</time>
      </trkpt>
      <trkpt lat="60.003009812778" lon="15.765858613529">
        <ele>104.4</ele>
        <time>2015-02-11T20:45:09Z</time>
      </trkpt>
      <trkpt lat="60.003056332323" lon="15.765934972638">
        <ele>105.6</ele>
        <time>2015-02-11T20:45:11Z</time>
      </trkpt>
      <trkpt lat="60.003094805244" lon="15.766030526298">
        <ele>106</ele>
        <time>2015-02-11T20:45:13Z</time>
      </trkpt>
      <trkpt lat="60.003163788281" lon="15.76613764698">
        <ele>106.2</ele>
        <time>2015-02-11T20:45:15Z</time>
      </trkpt>
      <trkpt lat="60.003201087736" lon="15.766170001114">
        <ele>106.2</ele>
        <time>2015-02-11T20:45:16Z</time>
      </trkpt>
      <trkpt lat="60.003355733791" lon="15.766356917484">
        <ele>104.6</ele>
        <time>2015-02-11T20:45:20Z</time>
      </trkpt>
      <trkpt lat="60.003386914459" lon="15.766399832812">
        <ele>104</ele>
        <time>2015-02-11T20:45:21Z</time>
      </trkpt>
      <trkpt lat="60.003476433151" lon="15.766468899668">
        <ele>104.2</ele>
        <time>2015-02-11T20:45:24Z</time>
      </trkpt>
      <trkpt lat="60.003537369564" lon="15.766522543828">
        <ele>104.4</ele>
        <time>2015-02-11T20:45:25Z</time>
      </trkpt>
      <trkpt lat="60.003589924077" lon="15.766602255697">
        <ele>105.2</ele>
        <time>2015-02-11T20:45:27Z</time>
      </trkpt>
      <trkpt lat="60.003602077832" lon="15.766630670338">
        <ele>105.2</ele>
        <time>2015-02-11T20:45:28Z</time>
      </trkpt>
      <trkpt lat="60.003719675889" lon="15.766769306964">
        <ele>105.6</ele>
        <time>2015-02-11T20:45:32Z</time>
      </trkpt>
      <trkpt lat="60.003824198182" lon="15.766890509238">
        <ele>106</ele>
        <time>2015-02-11T20:45:36Z</time>
      </trkpt>
      <trkpt lat="60.003861916732" lon="15.766936693507">
        <ele>106.2</ele>
        <time>2015-02-11T20:45:37Z</time>
      </trkpt>
      <trkpt lat="60.003892594486" lon="15.766993019875">
        <ele>106.2</ele>
        <time>2015-02-11T20:45:38Z</time>
      </trkpt>
      <trkpt lat="60.003948082664" lon="15.767076252142">
        <ele>106.6</ele>
        <time>2015-02-11T20:45:40Z</time>
      </trkpt>
      <trkpt lat="60.003985633576" lon="15.767159484409">
        <ele>106.8</ele>
        <time>2015-02-11T20:45:41Z</time>
      </trkpt>
      <trkpt lat="60.004064674893" lon="15.767291499334">
        <ele>107.2</ele>
        <time>2015-02-11T20:45:44Z</time>
      </trkpt>
      <trkpt lat="60.004113709008" lon="15.767365260054">
        <ele>107.4</ele>
        <time>2015-02-11T20:45:45Z</time>
      </trkpt>
      <trkpt lat="60.004237928766" lon="15.767525438163">
        <ele>107.2</ele>
        <time>2015-02-11T20:45:48Z</time>
      </trkpt>
      <trkpt lat="60.004276485506" lon="15.767599869435">
        <ele>106.8</ele>
        <time>2015-02-11T20:45:49Z</time>
      </trkpt>
      <trkpt lat="60.004316550988" lon="15.767628116438">
        <ele>106.4</ele>
        <time>2015-02-11T20:45:50Z</time>
      </trkpt>
      <trkpt lat="60.004469017749" lon="15.767776476068">
        <ele>105</ele>
        <time>2015-02-11T20:45:53Z</time>
      </trkpt>
      <trkpt lat="60.004568343264" lon="15.767862222905">
        <ele>104</ele>
        <time>2015-02-11T20:45:55Z</time>
      </trkpt>
      <trkpt lat="60.004779567144" lon="15.768051653845">
        <ele>102.8</ele>
        <time>2015-02-11T20:45:59Z</time>
      </trkpt>
      <trkpt lat="60.004949049162" lon="15.768206132262">
        <ele>101.4</ele>
        <time>2015-02-11T20:46:02Z</time>
      </trkpt>
      <trkpt lat="60.005112244755" lon="15.768373183529">
        <ele>100.4</ele>
        <time>2015-02-11T20:46:05Z</time>
      </trkpt>
      <trkpt lat="60.005365210497" lon="15.768636459008">
        <ele>100.2</ele>
        <time>2015-02-11T20:46:11Z</time>
      </trkpt>
      <trkpt lat="60.005546594813" lon="15.768715248868">
        <ele>100.6</ele>
        <time>2015-02-11T20:46:16Z</time>
      </trkpt>
      <trkpt lat="60.005720435419" lon="15.768712650479">
        <ele>100.8</ele>
        <time>2015-02-11T20:46:20Z</time>
      </trkpt>
      <trkpt lat="60.005798722365" lon="15.76873603598">
        <ele>100.6</ele>
        <time>2015-02-11T20:46:22Z</time>
      </trkpt>
      <trkpt lat="60.005932246032" lon="15.768891184949">
        <ele>100.6</ele>
        <time>2015-02-11T20:46:25Z</time>
      </trkpt>
      <trkpt lat="60.006001564345" lon="15.769170805133">
        <ele>100.6</ele>
        <time>2015-02-11T20:46:29Z</time>
      </trkpt>
      <trkpt lat="60.00600198344" lon="15.769358559693">
        <ele>100.6</ele>
        <time>2015-02-11T20:46:32Z</time>
      </trkpt>
      <trkpt lat="60.006003492182" lon="15.76946190852">
        <ele>100.6</ele>
        <time>2015-02-11T20:46:33Z</time>
      </trkpt>
      <trkpt lat="60.005999049775" lon="15.769617057489">
        <ele>100.4</ele>
        <time>2015-02-11T20:46:35Z</time>
      </trkpt>
      <trkpt lat="60.005994775006" lon="15.769673383857">
        <ele>100.4</ele>
        <time>2015-02-11T20:46:36Z</time>
      </trkpt>
      <trkpt lat="60.005957140275" lon="15.76992626578">
        <ele>100.4</ele>
        <time>2015-02-11T20:46:40Z</time>
      </trkpt>
      <trkpt lat="60.005839206942" lon="15.770111002856">
        <ele>101.6</ele>
        <time>2015-02-11T20:46:45Z</time>
      </trkpt>
      <trkpt lat="60.005789250818" lon="15.770143105533">
        <ele>102.8</ele>
        <time>2015-02-11T20:46:47Z</time>
      </trkpt>
      <trkpt lat="60.005730577518" lon="15.770149894872">
        <ele>103.2</ele>
        <time>2015-02-11T20:46:50Z</time>
      </trkpt>
      <trkpt lat="60.005651117106" lon="15.770160707523">
        <ele>103.8</ele>
        <time>2015-02-11T20:46:53Z</time>
      </trkpt>
      <trkpt lat="60.005607112131" lon="15.77013581328">
        <ele>103.8</ele>
        <time>2015-02-11T20:46:54Z</time>
      </trkpt>
      <trkpt lat="60.00556193369" lon="15.770122988973">
        <ele>103.8</ele>
        <time>2015-02-11T20:46:55Z</time>
      </trkpt>
      <trkpt lat="60.005463530184" lon="15.770076553247">
        <ele>104.4</ele>
        <time>2015-02-11T20:46:58Z</time>
      </trkpt>
      <trkpt lat="60.005331515259" lon="15.770050904633">
        <ele>104.4</ele>
        <time>2015-02-11T20:47:01Z</time>
      </trkpt>
      <trkpt lat="60.005216683229" lon="15.770070769736">
        <ele>104.6</ele>
        <time>2015-02-11T20:47:04Z</time>
      </trkpt>
      <trkpt lat="60.005192627176" lon="15.770062387836">
        <ele>104.8</ele>
        <time>2015-02-11T20:47:05Z</time>
      </trkpt>
      <trkpt lat="60.005103611398" lon="15.770090131925">
        <ele>105.4</ele>
        <time>2015-02-11T20:47:08Z</time>
      </trkpt>
      <trkpt lat="60.005015685267" lon="15.770080660378">
        <ele>105.8</ele>
        <time>2015-02-11T20:47:11Z</time>
      </trkpt>
      <trkpt lat="60.004969500998" lon="15.770081666206">
        <ele>106</ele>
        <time>2015-02-11T20:47:12Z</time>
      </trkpt>
      <trkpt lat="60.004936560131" lon="15.770103878241">
        <ele>106</ele>
        <time>2015-02-11T20:47:14Z</time>
      </trkpt>
      <trkpt lat="60.004903703083" lon="15.770098765282">
        <ele>106</ele>
        <time>2015-02-11T20:47:15Z</time>
      </trkpt>
      <trkpt lat="60.004805299577" lon="15.770147464121">
        <ele>106.2</ele>
        <time>2015-02-11T20:47:18Z</time>
      </trkpt>
      <trkpt lat="60.004726677355" lon="15.770220805746">
        <ele>106.8</ele>
        <time>2015-02-11T20:47:21Z</time>
      </trkpt>
      <trkpt lat="60.004700777284" lon="15.770268331119">
        <ele>107.2</ele>
        <time>2015-02-11T20:47:22Z</time>
      </trkpt>
      <trkpt lat="60.004684684036" lon="15.770294398828">
        <ele>107.2</ele>
        <time>2015-02-11T20:47:23Z</time>
      </trkpt>
      <trkpt lat="60.004571696024" lon="15.770398669664">
        <ele>107.4</ele>
        <time>2015-02-11T20:47:27Z</time>
      </trkpt>
      <trkpt lat="60.00447899221" lon="15.770451307996">
        <ele>107.8</ele>
        <time>2015-02-11T20:47:31Z</time>
      </trkpt>
      <trkpt lat="60.004423923127" lon="15.770442423182">
        <ele>107.8</ele>
        <time>2015-02-11T20:47:33Z</time>
      </trkpt>
      <trkpt lat="60.004389222061" lon="15.770422725717">
        <ele>107.8</ele>
        <time>2015-02-11T20:47:34Z</time>
      </trkpt>
      <trkpt lat="60.00423926987" lon="15.770323651659">
        <ele>107.8</ele>
        <time>2015-02-11T20:47:38Z</time>
      </trkpt>
      <trkpt lat="60.004182105312" lon="15.770358855639">
        <ele>108.2</ele>
        <time>2015-02-11T20:47:41Z</time>
      </trkpt>
      <trkpt lat="60.004149080626" lon="15.770369584471">
        <ele>108.4</ele>
        <time>2015-02-11T20:47:42Z</time>
      </trkpt>
      <trkpt lat="60.004115469207" lon="15.770414679093">
        <ele>109.2</ele>
        <time>2015-02-11T20:47:44Z</time>
      </trkpt>
      <trkpt lat="60.004105327108" lon="15.770461114819">
        <ele>109.6</ele>
        <time>2015-02-11T20:47:45Z</time>
      </trkpt>
      <trkpt lat="60.004107171126" lon="15.770819189587">
        <ele>109.2</ele>
        <time>2015-02-11T20:47:50Z</time>
      </trkpt>
      <trkpt lat="60.004126617134" lon="15.771011973287">
        <ele>108.8</ele>
        <time>2015-02-11T20:47:52Z</time>
      </trkpt>
      <trkpt lat="60.004143883848" lon="15.771093780631">
        <ele>108.4</ele>
        <time>2015-02-11T20:47:53Z</time>
      </trkpt>
      <trkpt lat="60.004167353168" lon="15.771217581294">
        <ele>108.2</ele>
        <time>2015-02-11T20:47:54Z</time>
      </trkpt>
      <trkpt lat="60.004195348714" lon="15.771302909036">
        <ele>107.6</ele>
        <time>2015-02-11T20:47:55Z</time>
      </trkpt>
      <trkpt lat="60.004237928766" lon="15.771405419673">
        <ele>107.4</ele>
        <time>2015-02-11T20:47:56Z</time>
      </trkpt>
      <trkpt lat="60.004323507965" lon="15.771569285818">
        <ele>105.4</ele>
        <time>2015-02-11T20:47:59Z</time>
      </trkpt>
      <trkpt lat="60.004398358332" lon="15.771813366746">
        <ele>105.8</ele>
        <time>2015-02-11T20:48:03Z</time>
      </trkpt>
      <trkpt lat="60.004446470438" lon="15.772105308323">
        <ele>105.6</ele>
        <time>2015-02-11T20:48:06Z</time>
      </trkpt>
      <trkpt lat="60.0044546847" lon="15.772245369872">
        <ele>105.2</ele>
        <time>2015-02-11T20:48:07Z</time>
      </trkpt>
      <trkpt lat="60.00444965556" lon="15.77239892628">
        <ele>104.6</ele>
        <time>2015-02-11T20:48:08Z</time>
      </trkpt>
      <trkpt lat="60.004417552883" lon="15.772697992472">
        <ele>102.4</ele>
        <time>2015-02-11T20:48:10Z</time>
      </trkpt>
      <trkpt lat="60.004385450206" lon="15.772822966601">
        <ele>101.2</ele>
        <time>2015-02-11T20:48:11Z</time>
      </trkpt>
      <trkpt lat="60.004285454139" lon="15.773060174371">
        <ele>99.2</ele>
        <time>2015-02-11T20:48:13Z</time>
      </trkpt>
      <trkpt lat="60.00421831512" lon="15.77317760479">
        <ele>98</ele>
        <time>2015-02-11T20:48:14Z</time>
      </trkpt>
      <trkpt lat="60.004069033481" lon="15.773306350774">
        <ele>96.8</ele>
        <time>2015-02-11T20:48:17Z</time>
      </trkpt>
      <trkpt lat="60.003938862574" lon="15.773292688277">
        <ele>97</ele>
        <time>2015-02-11T20:48:20Z</time>
      </trkpt>
      <trkpt lat="60.003922936964" lon="15.773253544804">
        <ele>97.4</ele>
        <time>2015-02-11T20:48:21Z</time>
      </trkpt>
      <trkpt lat="60.003883374396" lon="15.773173330021">
        <ele>98.4</ele>
        <time>2015-02-11T20:48:23Z</time>
      </trkpt>
      <trkpt lat="60.003856384678" lon="15.773127229571">
        <ele>98.8</ele>
        <time>2015-02-11T20:48:24Z</time>
      </trkpt>
      <trkpt lat="60.003859737438" lon="15.773085822985">
        <ele>99.4</ele>
        <time>2015-02-11T20:48:25Z</time>
      </trkpt>
      <trkpt lat="60.003840878163" lon="15.773007284582">
        <ele>100</ele>
        <time>2015-02-11T20:48:27Z</time>
      </trkpt>
      <trkpt lat="60.003816570653" lon="15.772813159778">
        <ele>100.2</ele>
        <time>2015-02-11T20:48:31Z</time>
      </trkpt>
      <trkpt lat="60.003806847649" lon="15.772667817632">
        <ele>100.4</ele>
        <time>2015-02-11T20:48:34Z</time>
      </trkpt>
      <trkpt lat="60.003818749947" lon="15.772568659755">
        <ele>100.6</ele>
        <time>2015-02-11T20:48:36Z</time>
      </trkpt>
      <trkpt lat="60.003810619504" lon="15.772515350871">
        <ele>100.8</ele>
        <time>2015-02-11T20:48:37Z</time>
      </trkpt>
      <trkpt lat="60.003803913984" lon="15.772419461935">
        <ele>101.2</ele>
        <time>2015-02-11T20:48:39Z</time>
      </trkpt>
      <trkpt lat="60.003810451866" lon="15.772316113108">
        <ele>101.6</ele>
        <time>2015-02-11T20:48:41Z</time>
      </trkpt>
      <trkpt lat="60.003801483233" lon="15.772073876198">
        <ele>102.6</ele>
        <time>2015-02-11T20:48:46Z</time>
      </trkpt>
      <trkpt lat="60.00379754374" lon="15.772007743007">
        <ele>103</ele>
        <time>2015-02-11T20:48:47Z</time>
      </trkpt>
      <trkpt lat="60.003834927014" lon="15.771744216071">
        <ele>103.8</ele>
        <time>2015-02-11T20:48:52Z</time>
      </trkpt>
      <trkpt lat="60.003848757149" lon="15.771698031802">
        <ele>104</ele>
        <time>2015-02-11T20:48:53Z</time>
      </trkpt>
      <trkpt lat="60.003944478447" lon="15.771482868429">
        <ele>104.4</ele>
        <time>2015-02-11T20:48:59Z</time>
      </trkpt>
      <trkpt lat="60.004014048217" lon="15.771387566226">
        <ele>104.8</ele>
        <time>2015-02-11T20:49:04Z</time>
      </trkpt>
      <trkpt lat="60.004082109245" lon="15.771295700602">
        <ele>105.2</ele>
        <time>2015-02-11T20:49:07Z</time>
      </trkpt>
      <trkpt lat="60.004157043431" lon="15.771073496433">
        <ele>105.4</ele>
        <time>2015-02-11T20:49:13Z</time>
      </trkpt>
      <trkpt lat="60.004150673187" lon="15.770980960257">
        <ele>105.8</ele>
        <time>2015-02-11T20:49:16Z</time>
      </trkpt>
      <trkpt lat="60.004145141133" lon="15.770927651373">
        <ele>106.2</ele>
        <time>2015-02-11T20:49:17Z</time>
      </trkpt>
      <trkpt lat="60.004141872192" lon="15.770888424081">
        <ele>106.2</ele>
        <time>2015-02-11T20:49:18Z</time>
      </trkpt>
      <trkpt lat="60.004124521659" lon="15.770778118277">
        <ele>107.4</ele>
        <time>2015-02-11T20:49:22Z</time>
      </trkpt>
      <trkpt lat="60.00412108508" lon="15.770705363385">
        <ele>107.8</ele>
        <time>2015-02-11T20:49:24Z</time>
      </trkpt>
      <trkpt lat="60.004123515831" lon="15.770667980111">
        <ele>108</ele>
        <time>2015-02-11T20:49:25Z</time>
      </trkpt>
      <trkpt lat="60.004118319053" lon="15.770604948223">
        <ele>108.2</ele>
        <time>2015-02-11T20:49:27Z</time>
      </trkpt>
      <trkpt lat="60.004099711235" lon="15.770534624082">
        <ele>108.2</ele>
        <time>2015-02-11T20:49:29Z</time>
      </trkpt>
      <trkpt lat="60.004085462005" lon="15.770511825314">
        <ele>108.4</ele>
        <time>2015-02-11T20:49:30Z</time>
      </trkpt>
      <trkpt lat="60.004083115073" lon="15.770467149787">
        <ele>108.4</ele>
        <time>2015-02-11T20:49:31Z</time>
      </trkpt>
      <trkpt lat="60.004084037082" lon="15.770373775421">
        <ele>109</ele>
        <time>2015-02-11T20:49:34Z</time>
      </trkpt>
      <trkpt lat="60.004072050965" lon="15.770324908944">
        <ele>109.4</ele>
        <time>2015-02-11T20:49:37Z</time>
      </trkpt>
      <trkpt lat="60.004055957717" lon="15.770311078809">
        <ele>109.6</ele>
        <time>2015-02-11T20:49:39Z</time>
      </trkpt>
      <trkpt lat="60.004017903891" lon="15.770289704964">
        <ele>110.6</ele>
        <time>2015-02-11T20:49:42Z</time>
      </trkpt>
      <trkpt lat="60.003934084891" lon="15.770282161254">
        <ele>111.2</ele>
        <time>2015-02-11T20:49:46Z</time>
      </trkpt>
      <trkpt lat="60.00386962808" lon="15.770244861799">
        <ele>111.4</ele>
        <time>2015-02-11T20:49:49Z</time>
      </trkpt>
      <trkpt lat="60.003847667502" lon="15.770259362486">
        <ele>111.4</ele>
        <time>2015-02-11T20:49:50Z</time>
      </trkpt>
      <trkpt lat="60.003814223721" lon="15.770261290323">
        <ele>111.6</ele>
        <time>2015-02-11T20:49:51Z</time>
      </trkpt>
      <trkpt lat="60.003678772217" lon="15.770342930029">
        <ele>111.8</ele>
        <time>2015-02-11T20:49:55Z</time>
      </trkpt>
      <trkpt lat="60.00346142955" lon="15.770520710128">
        <ele>112.4</ele>
        <time>2015-02-11T20:50:03Z</time>
      </trkpt>
      <trkpt lat="60.00339185978" lon="15.770563876913">
        <ele>112.6</ele>
        <time>2015-02-11T20:50:05Z</time>
      </trkpt>
      <trkpt lat="60.003332935023" lon="15.770605618775">
        <ele>113</ele>
        <time>2015-02-11T20:50:07Z</time>
      </trkpt>
      <trkpt lat="60.003244254521" lon="15.770635206882">
        <ele>113.2</ele>
        <time>2015-02-11T20:50:10Z</time>
      </trkpt>
      <trkpt lat="60.003194801311" lon="15.770655910175">
        <ele>113.8</ele>
        <time>2015-02-11T20:50:12Z</time>
      </trkpt>
      <trkpt lat="60.003097990366" lon="15.77070326791">
        <ele>114.4</ele>
        <time>2015-02-11T20:50:16Z</time>
      </trkpt>
      <trkpt lat="60.003081394204" lon="15.770723803565">
        <ele>114.4</ele>
        <time>2015-02-11T20:50:17Z</time>
      </trkpt>
      <trkpt lat="60.003062032015" lon="15.770729084162">
        <ele>115</ele>
        <time>2015-02-11T20:50:20Z</time>
      </trkpt>
      <trkpt lat="60.003053733934" lon="15.770745512686">
        <ele>115.2</ele>
        <time>2015-02-11T20:50:21Z</time>
      </trkpt>
      <trkpt lat="60.003010148054" lon="15.770766551255">
        <ele>115.8</ele>
        <time>2015-02-11T20:50:25Z</time>
      </trkpt>
      <trkpt lat="60.002941165017" lon="15.770812400248">
        <ele>116</ele>
        <time>2015-02-11T20:50:29Z</time>
      </trkpt>
      <trkpt lat="60.002899087879" lon="15.770831762437">
        <ele>116</ele>
        <time>2015-02-11T20:50:31Z</time>
      </trkpt>
      <trkpt lat="60.002791631921" lon="15.770850370255">
        <ele>116.6</ele>
        <time>2015-02-11T20:50:36Z</time>
      </trkpt>
      <trkpt lat="60.002722397427" lon="15.770842742726">
        <ele>117.2</ele>
        <time>2015-02-11T20:50:39Z</time>
      </trkpt>
      <trkpt lat="60.002674033864" lon="15.770833354998">
        <ele>117.8</ele>
        <time>2015-02-11T20:50:41Z</time>
      </trkpt>
      <trkpt lat="60.002562554594" lon="15.770758253174">
        <ele>118.2</ele>
        <time>2015-02-11T20:50:46Z</time>
      </trkpt>
      <trkpt lat="60.00249751105" lon="15.770608468621">
        <ele>119</ele>
        <time>2015-02-11T20:50:52Z</time>
      </trkpt>
      <trkpt lat="60.002476137205" lon="15.770562619628">
        <ele>119.4</ele>
        <time>2015-02-11T20:50:53Z</time>
      </trkpt>
      <trkpt lat="60.002421654855" lon="15.770469748176">
        <ele>120.2</ele>
        <time>2015-02-11T20:50:57Z</time>
      </trkpt>
      <trkpt lat="60.002403466132" lon="15.770460108991">
        <ele>120.4</ele>
        <time>2015-02-11T20:50:58Z</time>
      </trkpt>
      <trkpt lat="60.002351749809" lon="15.770446865589">
        <ele>120.4</ele>
        <time>2015-02-11T20:51:01Z</time>
      </trkpt>
      <trkpt lat="60.002288298826" lon="15.770465976321">
        <ele>120.6</ele>
        <time>2015-02-11T20:51:04Z</time>
      </trkpt>
      <trkpt lat="60.002136334979" lon="15.770516100083">
        <ele>121</ele>
        <time>2015-02-11T20:51:10Z</time>
      </trkpt>
      <trkpt lat="60.002113452392" lon="15.77053311534">
        <ele>121</ele>
        <time>2015-02-11T20:51:11Z</time>
      </trkpt>
      <trkpt lat="60.002043714984" lon="15.77059011226">
        <ele>121.2</ele>
        <time>2015-02-11T20:51:14Z</time>
      </trkpt>
      <trkpt lat="60.001972049739" lon="15.770590866631">
        <ele>121</ele>
        <time>2015-02-11T20:51:17Z</time>
      </trkpt>
      <trkpt lat="60.001947742229" lon="15.770591872459">
        <ele>121.2</ele>
        <time>2015-02-11T20:51:18Z</time>
      </trkpt>
      <trkpt lat="60.001794940192" lon="15.770623304584">
        <ele>121.2</ele>
        <time>2015-02-11T20:51:23Z</time>
      </trkpt>
      <trkpt lat="60.001768369569" lon="15.770634201054">
        <ele>121.4</ele>
        <time>2015-02-11T20:51:24Z</time>
      </trkpt>
      <trkpt lat="60.001617160093" lon="15.770686252653">
        <ele>120.2</ele>
        <time>2015-02-11T20:51:28Z</time>
      </trkpt>
      <trkpt lat="60.00144809717" lon="15.770718020054">
        <ele>121.2</ele>
        <time>2015-02-11T20:51:34Z</time>
      </trkpt>
      <trkpt lat="60.00129135564" lon="15.770749033084">
        <ele>122</ele>
        <time>2015-02-11T20:51:39Z</time>
      </trkpt>
      <trkpt lat="60.001272161089" lon="15.770770574567">
        <ele>122</ele>
        <time>2015-02-11T20:51:40Z</time>
      </trkpt>
      <trkpt lat="60.001200328206" lon="15.770773592051">
        <ele>122.4</ele>
        <time>2015-02-11T20:51:43Z</time>
      </trkpt>
      <trkpt lat="60.001140649078" lon="15.770785578168">
        <ele>123</ele>
        <time>2015-02-11T20:51:45Z</time>
      </trkpt>
      <trkpt lat="60.001081724321" lon="15.770793960068">
        <ele>123.6</ele>
        <time>2015-02-11T20:51:47Z</time>
      </trkpt>
      <trkpt lat="60.000963874807" lon="15.770808209298">
        <ele>123.8</ele>
        <time>2015-02-11T20:51:51Z</time>
      </trkpt>
      <trkpt lat="60.000940908401" lon="15.770803431615">
        <ele>123.8</ele>
        <time>2015-02-11T20:51:52Z</time>
      </trkpt>
      <trkpt lat="60.000911068837" lon="15.770742746659">
        <ele>123.8</ele>
        <time>2015-02-11T20:51:53Z</time>
      </trkpt>
      <trkpt lat="60.000868488785" lon="15.770638056728">
        <ele>124</ele>
        <time>2015-02-11T20:51:56Z</time>
      </trkpt>
      <trkpt lat="60.000864800749" lon="15.770580473075">
        <ele>124</ele>
        <time>2015-02-11T20:51:57Z</time>
      </trkpt>
      <trkpt lat="60.000859603971" lon="15.770442004087">
        <ele>124.4</ele>
        <time>2015-02-11T20:52:00Z</time>
      </trkpt>
      <trkpt lat="60.000880223445" lon="15.77040990141">
        <ele>124.4</ele>
        <time>2015-02-11T20:52:01Z</time>
      </trkpt>
      <trkpt lat="60.000915511244" lon="15.770289118231">
        <ele>124.8</ele>
        <time>2015-02-11T20:52:04Z</time>
      </trkpt>
      <trkpt lat="60.000990864525" lon="15.770096669807">
        <ele>125</ele>
        <time>2015-02-11T20:52:09Z</time>
      </trkpt>
      <trkpt lat="60.001047358531" lon="15.769953255498">
        <ele>125.6</ele>
        <time>2015-02-11T20:52:13Z</time>
      </trkpt>
      <trkpt lat="60.001053980232" lon="15.769919392622">
        <ele>125.6</ele>
        <time>2015-02-11T20:52:14Z</time>
      </trkpt>
      <trkpt lat="60.001060769571" lon="15.769885278289">
        <ele>125.8</ele>
        <time>2015-02-11T20:52:15Z</time>
      </trkpt>
      <trkpt lat="60.001098739578" lon="15.769668773812">
        <ele>126.2</ele>
        <time>2015-02-11T20:52:20Z</time>
      </trkpt>
      <trkpt lat="60.001125980753" lon="15.769523766942">
        <ele>126.4</ele>
        <time>2015-02-11T20:52:23Z</time>
      </trkpt>
      <trkpt lat="60.001149282435" lon="15.769424944341">
        <ele>126.4</ele>
        <time>2015-02-11T20:52:25Z</time>
      </trkpt>
      <trkpt lat="60.001226479734" lon="15.769059158225">
        <ele>126.4</ele>
        <time>2015-02-11T20:52:32Z</time>
      </trkpt>
      <trkpt lat="60.001269730338" lon="15.768828823613">
        <ele>126.4</ele>
        <time>2015-02-11T20:52:36Z</time>
      </trkpt>
      <trkpt lat="60.001339467746" lon="15.768546437402">
        <ele>126.2</ele>
        <time>2015-02-11T20:52:41Z</time>
      </trkpt>
      <trkpt lat="60.00144390622" lon="15.768103118711">
        <ele>126</ele>
        <time>2015-02-11T20:52:48Z</time>
      </trkpt>
      <trkpt lat="60.001512302524" lon="15.767951406321">
        <ele>126.8</ele>
        <time>2015-02-11T20:52:53Z</time>
      </trkpt>
      <trkpt lat="60.001525881202" lon="15.767941264222">
        <ele>126.8</ele>
        <time>2015-02-11T20:52:54Z</time>
      </trkpt>
      <trkpt lat="60.001554295843" lon="15.767932714684">
        <ele>128.2</ele>
        <time>2015-02-11T20:52:59Z</time>
      </trkpt>
      <trkpt lat="60.001582794303" lon="15.767943443516">
        <ele>128.4</ele>
        <time>2015-02-11T20:53:01Z</time>
      </trkpt>
      <trkpt lat="60.00161992612" lon="15.767978647496">
        <ele>128.8</ele>
        <time>2015-02-11T20:53:03Z</time>
      </trkpt>
      <trkpt lat="60.001681868361" lon="15.768079649391">
        <ele>129.2</ele>
        <time>2015-02-11T20:53:07Z</time>
      </trkpt>
      <trkpt lat="60.001695447039" lon="15.76809565882">
        <ele>129.4</ele>
        <time>2015-02-11T20:53:08Z</time>
      </trkpt>
      <trkpt lat="60.001732914132" lon="15.768187440625">
        <ele>130.4</ele>
        <time>2015-02-11T20:53:12Z</time>
      </trkpt>
      <trkpt lat="60.001744984068" lon="15.768250221056">
        <ele>130.4</ele>
        <time>2015-02-11T20:53:13Z</time>
      </trkpt>
      <trkpt lat="60.001759149479" lon="15.768293052565">
        <ele>130.4</ele>
        <time>2015-02-11T20:53:14Z</time>
      </trkpt>
      <trkpt lat="60.001861576297" lon="15.768599075734">
        <ele>129.8</ele>
        <time>2015-02-11T20:53:19Z</time>
      </trkpt>
      <trkpt lat="60.001896696458" lon="15.768721116198">
        <ele>129.2</ele>
        <time>2015-02-11T20:53:21Z</time>
      </trkpt>
      <trkpt lat="60.00197867144" lon="15.768911804423">
        <ele>128.6</ele>
        <time>2015-02-11T20:53:24Z</time>
      </trkpt>
      <trkpt lat="60.001980599277" lon="15.768978859623">
        <ele>128.6</ele>
        <time>2015-02-11T20:53:25Z</time>
      </trkpt>
      <trkpt lat="60.002049582314" lon="15.769235513401">
        <ele>129</ele>
        <time>2015-02-11T20:53:28Z</time>
      </trkpt>
      <trkpt lat="60.002114206763" lon="15.769472637352">
        <ele>127.8</ele>
        <time>2015-02-11T20:53:30Z</time>
      </trkpt>
      <trkpt lat="60.002171203683" lon="15.769682687766">
        <ele>126.4</ele>
        <time>2015-02-11T20:53:32Z</time>
      </trkpt>
      <trkpt lat="60.002202887265" lon="15.769801291651">
        <ele>126</ele>
        <time>2015-02-11T20:53:33Z</time>
      </trkpt>
      <trkpt lat="60.002266254429" lon="15.769943532494">
        <ele>125.4</ele>
        <time>2015-02-11T20:53:34Z</time>
      </trkpt>
      <trkpt lat="60.002332136163" lon="15.770121312593">
        <ele>124.4</ele>
        <time>2015-02-11T20:53:35Z</time>
      </trkpt>
      <trkpt lat="60.002391312377" lon="15.770250812948">
        <ele>123.6</ele>
        <time>2015-02-11T20:53:36Z</time>
      </trkpt>
      <trkpt lat="60.002465492192" lon="15.770346953341">
        <ele>122</ele>
        <time>2015-02-11T20:53:37Z</time>
      </trkpt>
      <trkpt lat="60.002613851822" lon="15.770474777316">
        <ele>120</ele>
        <time>2015-02-11T20:53:39Z</time>
      </trkpt>
      <trkpt lat="60.002751650258" lon="15.770520207214">
        <ele>118.6</ele>
        <time>2015-02-11T20:53:41Z</time>
      </trkpt>
      <trkpt lat="60.002886263572" lon="15.770539988498">
        <ele>118.4</ele>
        <time>2015-02-11T20:53:43Z</time>
      </trkpt>
      <trkpt lat="60.003017775583" lon="15.770505706527">
        <ele>118.2</ele>
        <time>2015-02-11T20:53:45Z</time>
      </trkpt>
      <trkpt lat="60.003145348101" lon="15.770351898662">
        <ele>117.4</ele>
        <time>2015-02-11T20:53:47Z</time>
      </trkpt>
      <trkpt lat="60.003231346395" lon="15.770130029769">
        <ele>116.4</ele>
        <time>2015-02-11T20:53:49Z</time>
      </trkpt>
      <trkpt lat="60.003256073" lon="15.76987345981">
        <ele>115</ele>
        <time>2015-02-11T20:53:51Z</time>
      </trkpt>
      <trkpt lat="60.003217767717" lon="15.76967145602">
        <ele>114.4</ele>
        <time>2015-02-11T20:53:53Z</time>
      </trkpt>
      <trkpt lat="60.003181306452" lon="15.769525108046">
        <ele>115</ele>
        <time>2015-02-11T20:53:55Z</time>
      </trkpt>
      <trkpt lat="60.003149958146" lon="15.76943592463">
        <ele>116.6</ele>
        <time>2015-02-11T20:53:57Z</time>
      </trkpt>
      <trkpt lat="60.003113664519" lon="15.769361912453">
        <ele>117.8</ele>
        <time>2015-02-11T20:53:59Z</time>
      </trkpt>
      <trkpt lat="60.00309262595" lon="15.769325786464">
        <ele>118</ele>
        <time>2015-02-11T20:54:00Z</time>
      </trkpt>
      <trkpt lat="60.003086842439" lon="15.769282116765">
        <ele>118.2</ele>
        <time>2015-02-11T20:54:01Z</time>
      </trkpt>
      <trkpt lat="60.003063373119" lon="15.769185138182">
        <ele>118.6</ele>
        <time>2015-02-11T20:54:03Z</time>
      </trkpt>
      <trkpt lat="60.003034874659" lon="15.769031414136">
        <ele>118.8</ele>
        <time>2015-02-11T20:54:05Z</time>
      </trkpt>
      <trkpt lat="60.003015009556" lon="15.768871236027">
        <ele>119</ele>
        <time>2015-02-11T20:54:07Z</time>
      </trkpt>
      <trkpt lat="60.003001179421" lon="15.768692114824">
        <ele>119</ele>
        <time>2015-02-11T20:54:09Z</time>
      </trkpt>
      <trkpt lat="60.003021044524" lon="15.768491368319">
        <ele>118.2</ele>
        <time>2015-02-11T20:54:13Z</time>
      </trkpt>
      <trkpt lat="60.003070749191" lon="15.768196157801">
        <ele>119.6</ele>
        <time>2015-02-11T20:54:19Z</time>
      </trkpt>
      <trkpt lat="60.003086004249" lon="15.76811577538">
        <ele>120</ele>
        <time>2015-02-11T20:54:21Z</time>
      </trkpt>
      <trkpt lat="60.003101426945" lon="15.768037404615">
        <ele>120.6</ele>
        <time>2015-02-11T20:54:23Z</time>
      </trkpt>
      <trkpt lat="60.003120118582" lon="15.767997925866">
        <ele>120.8</ele>
        <time>2015-02-11T20:54:24Z</time>
      </trkpt>
      <trkpt lat="60.00313118269" lon="15.767926847354">
        <ele>121</ele>
        <time>2015-02-11T20:54:25Z</time>
      </trkpt>
      <trkpt lat="60.003206955066" lon="15.767639767279">
        <ele>120.8</ele>
        <time>2015-02-11T20:54:30Z</time>
      </trkpt>
      <trkpt lat="60.003299910337" lon="15.767427034657">
        <ele>120.2</ele>
        <time>2015-02-11T20:54:34Z</time>
      </trkpt>
      <trkpt lat="60.003360260017" lon="15.767394680523">
        <ele>120.2</ele>
        <time>2015-02-11T20:54:35Z</time>
      </trkpt>
      <trkpt lat="60.003414826186" lon="15.767359476543">
        <ele>120</ele>
        <time>2015-02-11T20:54:36Z</time>
      </trkpt>
      <trkpt lat="60.003490850019" lon="15.767378419637">
        <ele>119.6</ele>
        <time>2015-02-11T20:54:37Z</time>
      </trkpt>
      <trkpt lat="60.003561844712" lon="15.767372803764">
        <ele>118.6</ele>
        <time>2015-02-11T20:54:38Z</time>
      </trkpt>
      <trkpt lat="60.003628480817" lon="15.76739660836">
        <ele>117.2</ele>
        <time>2015-02-11T20:54:39Z</time>
      </trkpt>
      <trkpt lat="60.003769464375" lon="15.767469866166">
        <ele>114.8</ele>
        <time>2015-02-11T20:54:41Z</time>
      </trkpt>
      <trkpt lat="60.003894270866" lon="15.767641611297">
        <ele>113.2</ele>
        <time>2015-02-11T20:54:43Z</time>
      </trkpt>
      <trkpt lat="60.003957218935" lon="15.767889883175">
        <ele>112.2</ele>
        <time>2015-02-11T20:54:45Z</time>
      </trkpt>
      <trkpt lat="60.003978928056" lon="15.768018042426">
        <ele>111.8</ele>
        <time>2015-02-11T20:54:46Z</time>
      </trkpt>
      <trkpt lat="60.003985885033" lon="15.768169168083">
        <ele>111.2</ele>
        <time>2015-02-11T20:54:47Z</time>
      </trkpt>
      <trkpt lat="60.004008851439" lon="15.768407046405">
        <ele>110</ele>
        <time>2015-02-11T20:54:49Z</time>
      </trkpt>
      <trkpt lat="60.004021843384" lon="15.768629921126">
        <ele>109.8</ele>
        <time>2015-02-11T20:54:51Z</time>
      </trkpt>
      <trkpt lat="60.004044139238" lon="15.76884416249">
        <ele>111.4</ele>
        <time>2015-02-11T20:54:54Z</time>
      </trkpt>
      <trkpt lat="60.004045228885" lon="15.768856316245">
        <ele>112.2</ele>
        <time>2015-02-11T20:54:55Z</time>
      </trkpt>
      <trkpt lat="60.004050174206" lon="15.768875259339">
        <ele>112.8</ele>
        <time>2015-02-11T20:54:56Z</time>
      </trkpt>
      <trkpt lat="60.004068782024" lon="15.768939883788">
        <ele>113.8</ele>
        <time>2015-02-11T20:54:58Z</time>
      </trkpt>
      <trkpt lat="60.004100633244" lon="15.769030156851">
        <ele>115</ele>
        <time>2015-02-11T20:55:01Z</time>
      </trkpt>
      <trkpt lat="60.004118067596" lon="15.769048177936">
        <ele>115</ele>
        <time>2015-02-11T20:55:02Z</time>
      </trkpt>
      <trkpt lat="60.004219656224" lon="15.769102911743">
        <ele>115.6</ele>
        <time>2015-02-11T20:55:06Z</time>
      </trkpt>
      <trkpt lat="60.004360304506" lon="15.769196118471">
        <ele>115.8</ele>
        <time>2015-02-11T20:55:11Z</time>
      </trkpt>
      <trkpt lat="60.004607654375" lon="15.769222269999">
        <ele>114</ele>
        <time>2015-02-11T20:55:17Z</time>
      </trkpt>
      <trkpt lat="60.004718211636" lon="15.769153286962">
        <ele>113.4</ele>
        <time>2015-02-11T20:55:19Z</time>
      </trkpt>
      <trkpt lat="60.004834971503" lon="15.769044573719">
        <ele>112.6</ele>
        <time>2015-02-11T20:55:21Z</time>
      </trkpt>
      <trkpt lat="60.004967154066" lon="15.76893803977">
        <ele>110.6</ele>
        <time>2015-02-11T20:55:23Z</time>
      </trkpt>
      <trkpt lat="60.005109227271" lon="15.768910044224">
        <ele>108.8</ele>
        <time>2015-02-11T20:55:25Z</time>
      </trkpt>
      <trkpt lat="60.005179970507" lon="15.768912391156">
        <ele>108.4</ele>
        <time>2015-02-11T20:55:26Z</time>
      </trkpt>
      <trkpt lat="60.005243002395" lon="15.768962850194">
        <ele>107.8</ele>
        <time>2015-02-11T20:55:27Z</time>
      </trkpt>
      <trkpt lat="60.005307543025" lon="15.769007022807">
        <ele>107.2</ele>
        <time>2015-02-11T20:55:28Z</time>
      </trkpt>
      <trkpt lat="60.005369904361" lon="15.769063935908">
        <ele>106.6</ele>
        <time>2015-02-11T20:55:29Z</time>
      </trkpt>
      <trkpt lat="60.005423799978" lon="15.769113137661">
        <ele>106</ele>
        <time>2015-02-11T20:55:30Z</time>
      </trkpt>
      <trkpt lat="60.005545505166" lon="15.769235932496">
        <ele>104.4</ele>
        <time>2015-02-11T20:55:32Z</time>
      </trkpt>
      <trkpt lat="60.005671066028" lon="15.76929762328">
        <ele>103</ele>
        <time>2015-02-11T20:55:34Z</time>
      </trkpt>
      <trkpt lat="60.005744491472" lon="15.76925068464">
        <ele>102.6</ele>
        <time>2015-02-11T20:55:35Z</time>
      </trkpt>
      <trkpt lat="60.005826214997" lon="15.769078436595">
        <ele>101.6</ele>
        <time>2015-02-11T20:55:37Z</time>
      </trkpt>
      <trkpt lat="60.005847085928" lon="15.768975003949">
        <ele>100.6</ele>
        <time>2015-02-11T20:55:38Z</time>
      </trkpt>
      <trkpt lat="60.005822024047" lon="15.768883222144">
        <ele>100</ele>
        <time>2015-02-11T20:55:39Z</time>
      </trkpt>
      <trkpt lat="60.005802997134" lon="15.768791691796">
        <ele>99.2</ele>
        <time>2015-02-11T20:55:40Z</time>
      </trkpt>
      <trkpt lat="60.005761339091" lon="15.768750201391">
        <ele>98.6</ele>
        <time>2015-02-11T20:55:41Z</time>
      </trkpt>
      <trkpt lat="60.005726302749" lon="15.768711141737">
        <ele>98.4</ele>
        <time>2015-02-11T20:55:42Z</time>
      </trkpt>
      <trkpt lat="60.005691098769" lon="15.768710806461">
        <ele>98.4</ele>
        <time>2015-02-11T20:55:43Z</time>
      </trkpt>
      <trkpt lat="60.005582804621" lon="15.768700748181">
        <ele>99.4</ele>
        <time>2015-02-11T20:55:46Z</time>
      </trkpt>
      <trkpt lat="60.005543409691" lon="15.768706196416">
        <ele>99.8</ele>
        <time>2015-02-11T20:55:47Z</time>
      </trkpt>
      <trkpt lat="60.005468307867" lon="15.768708627167">
        <ele>100.8</ele>
        <time>2015-02-11T20:55:49Z</time>
      </trkpt>
      <trkpt lat="60.005404186332" lon="15.768704352398">
        <ele>101</ele>
        <time>2015-02-11T20:55:51Z</time>
      </trkpt>
      <trkpt lat="60.005190866977" lon="15.768607289996">
        <ele>100.8</ele>
        <time>2015-02-11T20:55:58Z</time>
      </trkpt>
      <trkpt lat="60.004977128527" lon="15.768374608452">
        <ele>101.6</ele>
        <time>2015-02-11T20:56:05Z</time>
      </trkpt>
      <trkpt lat="60.004897416658" lon="15.768252735626">
        <ele>101.8</ele>
        <time>2015-02-11T20:56:08Z</time>
      </trkpt>
      <trkpt lat="60.00478576975" lon="15.768093228069">
        <ele>102.2</ele>
        <time>2015-02-11T20:56:12Z</time>
      </trkpt>
      <trkpt lat="60.004627519478" lon="15.767953669434">
        <ele>102.2</ele>
        <time>2015-02-11T20:56:17Z</time>
      </trkpt>
      <trkpt lat="60.004508747955" lon="15.767859121602">
        <ele>103</ele>
        <time>2015-02-11T20:56:22Z</time>
      </trkpt>
      <trkpt lat="60.00449575601" lon="15.767844453277">
        <ele>103.2</ele>
        <time>2015-02-11T20:56:23Z</time>
      </trkpt>
      <trkpt lat="60.004435909244" lon="15.76780564508">
        <ele>104.2</ele>
        <time>2015-02-11T20:56:26Z</time>
      </trkpt>
      <trkpt lat="60.00431303059" lon="15.767690729231">
        <ele>104.8</ele>
        <time>2015-02-11T20:56:31Z</time>
      </trkpt>
      <trkpt lat="60.004258464421" lon="15.767635241053">
        <ele>105.2</ele>
        <time>2015-02-11T20:56:34Z</time>
      </trkpt>
      <trkpt lat="60.004154528861" lon="15.767516888625">
        <ele>105.8</ele>
        <time>2015-02-11T20:56:39Z</time>
      </trkpt>
      <trkpt lat="60.00408001377" lon="15.767428794856">
        <ele>106.4</ele>
        <time>2015-02-11T20:56:43Z</time>
      </trkpt>
      <trkpt lat="60.004004073756" lon="15.767322344726">
        <ele>107</ele>
        <time>2015-02-11T20:56:47Z</time>
      </trkpt>
      <trkpt lat="60.003938778755" lon="15.767153784717">
        <ele>106.8</ele>
        <time>2015-02-11T20:56:51Z</time>
      </trkpt>
      <trkpt lat="60.003930480674" lon="15.767115144158">
        <ele>106.8</ele>
        <time>2015-02-11T20:56:52Z</time>
      </trkpt>
      <trkpt lat="60.00389896473" lon="15.767064349844">
        <ele>107</ele>
        <time>2015-02-11T20:56:53Z</time>
      </trkpt>
      <trkpt lat="60.00386292256" lon="15.766949098719">
        <ele>107.2</ele>
        <time>2015-02-11T20:56:55Z</time>
      </trkpt>
      <trkpt lat="60.003851104081" lon="15.766896292749">
        <ele>107.2</ele>
        <time>2015-02-11T20:56:56Z</time>
      </trkpt>
      <trkpt lat="60.003749431634" lon="15.766697222624">
        <ele>107.2</ele>
        <time>2015-02-11T20:57:00Z</time>
      </trkpt>
      <trkpt lat="60.00369612275" lon="15.766638381686">
        <ele>107</ele>
        <time>2015-02-11T20:57:01Z</time>
      </trkpt>
      <trkpt lat="60.00354524855" lon="15.766443502511">
        <ele>105</ele>
        <time>2015-02-11T20:57:05Z</time>
      </trkpt>
      <trkpt lat="60.003281805433" lon="15.766163211775">
        <ele>104</ele>
        <time>2015-02-11T20:57:11Z</time>
      </trkpt>
      <trkpt lat="60.003246769091" lon="15.766129013623">
        <ele>104</ele>
        <time>2015-02-11T20:57:12Z</time>
      </trkpt>
      <trkpt lat="60.003143671721" lon="15.766018959276">
        <ele>104</ele>
        <time>2015-02-11T20:57:16Z</time>
      </trkpt>
      <trkpt lat="60.003068402259" lon="15.765943857452">
        <ele>105.2</ele>
        <time>2015-02-11T20:57:19Z</time>
      </trkpt>
      <trkpt lat="60.003038311238" lon="15.765888872188">
        <ele>105.6</ele>
        <time>2015-02-11T20:57:21Z</time>
      </trkpt>
      <trkpt lat="60.003001179421" lon="15.765821481712">
        <ele>105.8</ele>
        <time>2015-02-11T20:57:23Z</time>
      </trkpt>
      <trkpt lat="60.002967651821" lon="15.765733304124">
        <ele>106</ele>
        <time>2015-02-11T20:57:25Z</time>
      </trkpt>
      <trkpt lat="60.002907050684" lon="15.765543537908">
        <ele>106</ele>
        <time>2015-02-11T20:57:28Z</time>
      </trkpt>
      <trkpt lat="60.002896740947" lon="15.765441781642">
        <ele>105.4</ele>
        <time>2015-02-11T20:57:29Z</time>
      </trkpt>
      <trkpt lat="60.002850891954" lon="15.765233910522">
        <ele>103.6</ele>
        <time>2015-02-11T20:57:31Z</time>
      </trkpt>
      <trkpt lat="60.002833541421" lon="15.765134417369">
        <ele>102.6</ele>
        <time>2015-02-11T20:57:32Z</time>
      </trkpt>
      <trkpt lat="60.002815855612" lon="15.765066943074">
        <ele>101.8</ele>
        <time>2015-02-11T20:57:33Z</time>
      </trkpt>
      <trkpt lat="60.002796074328" lon="15.764895030305">
        <ele>101.8</ele>
        <time>2015-02-11T20:57:36Z</time>
      </trkpt>
      <trkpt lat="60.002803115124" lon="15.764845744733">
        <ele>103.2</ele>
        <time>2015-02-11T20:57:38Z</time>
      </trkpt>
      <trkpt lat="60.002781154546" lon="15.764789250727">
        <ele>103.8</ele>
        <time>2015-02-11T20:57:39Z</time>
      </trkpt>
      <trkpt lat="60.002770258076" lon="15.764745832485">
        <ele>104.2</ele>
        <time>2015-02-11T20:57:40Z</time>
      </trkpt>
      <trkpt lat="60.002653833485" lon="15.76438247712">
        <ele>104.6</ele>
        <time>2015-02-11T20:57:46Z</time>
      </trkpt>
      <trkpt lat="60.002571942322" lon="15.764277619551">
        <ele>104.2</ele>
        <time>2015-02-11T20:57:49Z</time>
      </trkpt>
      <trkpt lat="60.002541180749" lon="15.764254150231">
        <ele>104</ele>
        <time>2015-02-11T20:57:50Z</time>
      </trkpt>
      <trkpt lat="60.00251259847" lon="15.764274015334">
        <ele>104.2</ele>
        <time>2015-02-11T20:57:51Z</time>
      </trkpt>
      <trkpt lat="60.002458535215" lon="15.764287594012">
        <ele>104.6</ele>
        <time>2015-02-11T20:57:53Z</time>
      </trkpt>
      <trkpt lat="60.002416541896" lon="15.764347440778">
        <ele>104.6</ele>
        <time>2015-02-11T20:57:55Z</time>
      </trkpt>
      <trkpt lat="60.002387456703" lon="15.764528825094">
        <ele>104.8</ele>
        <time>2015-02-11T20:57:58Z</time>
      </trkpt>
      <trkpt lat="60.002366082858" lon="15.764567968567">
        <ele>105</ele>
        <time>2015-02-11T20:57:59Z</time>
      </trkpt>
      <trkpt lat="60.002322161702" lon="15.764661091476">
        <ele>105.2</ele>
        <time>2015-02-11T20:58:01Z</time>
      </trkpt>
      <trkpt lat="60.002305230264" lon="15.7647026657">
        <ele>105.4</ele>
        <time>2015-02-11T20:58:02Z</time>
      </trkpt>
      <trkpt lat="60.002253681579" lon="15.764843397801">
        <ele>105.4</ele>
        <time>2015-02-11T20:58:05Z</time>
      </trkpt>
      <trkpt lat="60.002221075988" lon="15.764919253996">
        <ele>105.2</ele>
        <time>2015-02-11T20:58:07Z</time>
      </trkpt>
      <trkpt lat="60.002161313041" lon="15.764974658355">
        <ele>105.4</ele>
        <time>2015-02-11T20:58:09Z</time>
      </trkpt>
      <trkpt lat="60.002096520954" lon="15.765034086026">
        <ele>105.6</ele>
        <time>2015-02-11T20:58:11Z</time>
      </trkpt>
      <trkpt lat="60.002057964214" lon="15.765064679961">
        <ele>106.4</ele>
        <time>2015-02-11T20:58:13Z</time>
      </trkpt>
      <trkpt lat="60.002012450497" lon="15.76508990948">
        <ele>106.8</ele>
        <time>2015-02-11T20:58:16Z</time>
      </trkpt>
      <trkpt lat="60.001970457178" lon="15.765122515071">
        <ele>107.4</ele>
        <time>2015-02-11T20:58:19Z</time>
      </trkpt>
      <trkpt lat="60.001945227659" lon="15.765147996047">
        <ele>107.6</ele>
        <time>2015-02-11T20:58:22Z</time>
      </trkpt>
      <trkpt lat="60.001922764167" lon="15.765145062382">
        <ele>107.8</ele>
        <time>2015-02-11T20:58:23Z</time>
      </trkpt>
      <trkpt lat="60.001883033961" lon="15.765153779558">
        <ele>108.6</ele>
        <time>2015-02-11T20:58:27Z</time>
      </trkpt>
      <trkpt lat="60.001877418088" lon="15.765163167286">
        <ele>108.8</ele>
        <time>2015-02-11T20:58:28Z</time>
      </trkpt>
      <trkpt lat="60.001832155828" lon="15.765170291901">
        <ele>109.6</ele>
        <time>2015-02-11T20:58:33Z</time>
      </trkpt>
      <trkpt lat="60.001783037894" lon="15.765171046272">
        <ele>110.6</ele>
        <time>2015-02-11T20:58:37Z</time>
      </trkpt>
      <trkpt lat="60.001766693189" lon="15.765174818127">
        <ele>110.6</ele>
        <time>2015-02-11T20:58:38Z</time>
      </trkpt>
      <trkpt lat="60.001751186674" lon="15.765172722652">
        <ele>111.4</ele>
        <time>2015-02-11T20:58:43Z</time>
      </trkpt>
      <trkpt lat="60.001736853625" lon="15.765168531702">
        <ele>111.8</ele>
        <time>2015-02-11T20:58:46Z</time>
      </trkpt>
      <trkpt lat="60.00170123055" lon="15.765141206708">
        <ele>112.6</ele>
        <time>2015-02-11T20:58:53Z</time>
      </trkpt>
      <trkpt lat="60.001693519202" lon="15.765132238075">
        <ele>112.8</ele>
        <time>2015-02-11T20:58:54Z</time>
      </trkpt>
      <trkpt lat="60.001694860306" lon="15.765134585007">
        <ele>113</ele>
        <time>2015-02-11T20:58:55Z</time>
      </trkpt>
      <trkpt lat="60.001660494516" lon="15.765089490385">
        <ele>114.2</ele>
        <time>2015-02-11T20:59:01Z</time>
      </trkpt>
      <trkpt lat="60.001608023822" lon="15.765044144306">
        <ele>114.8</ele>
        <time>2015-02-11T20:59:05Z</time>
      </trkpt>
      <trkpt lat="60.001576843154" lon="15.765036852053">
        <ele>115</ele>
        <time>2015-02-11T20:59:07Z</time>
      </trkpt>
      <trkpt lat="60.00152856341" lon="15.76503542713">
        <ele>115.2</ele>
        <time>2015-02-11T20:59:10Z</time>
      </trkpt>
      <trkpt lat="60.00141708414" lon="15.765072810404">
        <ele>116.2</ele>
        <time>2015-02-11T20:59:15Z</time>
      </trkpt>
      <trkpt lat="60.001401409987" lon="15.765088316919">
        <ele>116.4</ele>
        <time>2015-02-11T20:59:16Z</time>
      </trkpt>
      <trkpt lat="60.001336198805" lon="15.765188564443">
        <ele>116.6</ele>
        <time>2015-02-11T20:59:19Z</time>
      </trkpt>
      <trkpt lat="60.001313064761" lon="15.765266180837">
        <ele>116.8</ele>
        <time>2015-02-11T20:59:21Z</time>
      </trkpt>
      <trkpt lat="60.001296887694" lon="15.765368523836">
        <ele>117.4</ele>
        <time>2015-02-11T20:59:23Z</time>
      </trkpt>
      <trkpt lat="60.001302838843" lon="15.76546709498">
        <ele>117.6</ele>
        <time>2015-02-11T20:59:25Z</time>
      </trkpt>
      <trkpt lat="60.001348520198" lon="15.765833719286">
        <ele>117.8</ele>
        <time>2015-02-11T20:59:32Z</time>
      </trkpt>
      <trkpt lat="60.001341395583" lon="15.76603874056">
        <ele>118.4</ele>
        <time>2015-02-11T20:59:37Z</time>
      </trkpt>
      <trkpt lat="60.001336282624" lon="15.766055169084">
        <ele>118.6</ele>
        <time>2015-02-11T20:59:39Z</time>
      </trkpt>
      <trkpt lat="60.00132572143" lon="15.766087774675">
        <ele>119</ele>
        <time>2015-02-11T20:59:41Z</time>
      </trkpt>
      <trkpt lat="60.001330080018" lon="15.766116859868">
        <ele>119.8</ele>
        <time>2015-02-11T20:59:43Z</time>
      </trkpt>
      <trkpt lat="60.001332594588" lon="15.766132198745">
        <ele>120</ele>
        <time>2015-02-11T20:59:44Z</time>
      </trkpt>
      <trkpt lat="60.001328822733" lon="15.766152902038">
        <ele>120.2</ele>
        <time>2015-02-11T20:59:45Z</time>
      </trkpt>
      <trkpt lat="60.001327816905" lon="15.766187519285">
        <ele>120.4</ele>
        <time>2015-02-11T20:59:47Z</time>
      </trkpt>
      <trkpt lat="60.001326475801" lon="15.766222723265">
        <ele>120.8</ele>
        <time>2015-02-11T20:59:49Z</time>
      </trkpt>
      <trkpt lat="60.001325805249" lon="15.766249545345">
        <ele>121</ele>
        <time>2015-02-11T20:59:50Z</time>
      </trkpt>
      <trkpt lat="60.001335947348" lon="15.766273936674">
        <ele>121</ele>
        <time>2015-02-11T20:59:51Z</time>
      </trkpt>
      <trkpt lat="60.001334187149" lon="15.76631701964">
        <ele>121.6</ele>
        <time>2015-02-11T20:59:54Z</time>
      </trkpt>
      <trkpt lat="60.001340054479" lon="15.766372759275">
        <ele>122</ele>
        <time>2015-02-11T20:59:57Z</time>
      </trkpt>
      <trkpt lat="60.001344748343" lon="15.766472336247">
        <ele>122.4</ele>
        <time>2015-02-11T21:00:01Z</time>
      </trkpt>
      <trkpt lat="60.001346759999" lon="15.766516760317">
        <ele>122.2</ele>
        <time>2015-02-11T21:00:03Z</time>
      </trkpt>
      <trkpt lat="60.00137936559" lon="15.766676686969">
        <ele>122.6</ele>
        <time>2015-02-11T21:00:07Z</time>
      </trkpt>
      <trkpt lat="60.001418928158" lon="15.766829489006">
        <ele>123</ele>
        <time>2015-02-11T21:00:11Z</time>
      </trkpt>
      <trkpt lat="60.001441224012" lon="15.767052782822">
        <ele>124.2</ele>
        <time>2015-02-11T21:00:16Z</time>
      </trkpt>
      <trkpt lat="60.001411887362" lon="15.767446815941">
        <ele>124.4</ele>
        <time>2015-02-11T21:00:23Z</time>
      </trkpt>
      <trkpt lat="60.001368385301" lon="15.767836825748">
        <ele>124.4</ele>
        <time>2015-02-11T21:00:29Z</time>
      </trkpt>
      <trkpt lat="60.001327816905" lon="15.768111081516">
        <ele>124.2</ele>
        <time>2015-02-11T21:00:34Z</time>
      </trkpt>
      <trkpt lat="60.001254559099" lon="15.768409225699">
        <ele>125.2</ele>
        <time>2015-02-11T21:00:40Z</time>
      </trkpt>
      <trkpt lat="60.001226563553" lon="15.768447447163">
        <ele>125.4</ele>
        <time>2015-02-11T21:00:41Z</time>
      </trkpt>
      <trkpt lat="60.001129501151" lon="15.768761433137">
        <ele>125.6</ele>
        <time>2015-02-11T21:00:47Z</time>
      </trkpt>
      <trkpt lat="60.00105750063" lon="15.768948684783">
        <ele>125.8</ele>
        <time>2015-02-11T21:00:51Z</time>
      </trkpt>
      <trkpt lat="60.001033109301" lon="15.769012722499">
        <ele>126</ele>
        <time>2015-02-11T21:00:52Z</time>
      </trkpt>
      <trkpt lat="60.000987679403" lon="15.769394601863">
        <ele>125.8</ele>
        <time>2015-02-11T21:00:57Z</time>
      </trkpt>
      <trkpt lat="60.000941076039" lon="15.769795424321">
        <ele>124.8</ele>
        <time>2015-02-11T21:01:03Z</time>
      </trkpt>
      <trkpt lat="60.000896316693" lon="15.769922493925">
        <ele>124</ele>
        <time>2015-02-11T21:01:05Z</time>
      </trkpt>
      <trkpt lat="60.000846863483" lon="15.770020394517">
        <ele>123.8</ele>
        <time>2015-02-11T21:01:07Z</time>
      </trkpt>
      <trkpt lat="60.000746029226" lon="15.770322142917">
        <ele>124</ele>
        <time>2015-02-11T21:01:12Z</time>
      </trkpt>
      <trkpt lat="60.000701772794" lon="15.770362459856">
        <ele>124.2</ele>
        <time>2015-02-11T21:01:13Z</time>
      </trkpt>
      <trkpt lat="60.000648799186" lon="15.770411829247">
        <ele>124</ele>
        <time>2015-02-11T21:01:15Z</time>
      </trkpt>
      <trkpt lat="60.000554083716" lon="15.770378469285">
        <ele>124.2</ele>
        <time>2015-02-11T21:01:22Z</time>
      </trkpt>
      <trkpt lat="60.000543271065" lon="15.770328177885">
        <ele>125.2</ele>
        <time>2015-02-11T21:01:25Z</time>
      </trkpt>
      <trkpt lat="60.000539583029" lon="15.770289621145">
        <ele>125.8</ele>
        <time>2015-02-11T21:01:27Z</time>
      </trkpt>
      <trkpt lat="60.000520639935" lon="15.770236815175">
        <ele>126.4</ele>
        <time>2015-02-11T21:01:29Z</time>
      </trkpt>
      <trkpt lat="60.000492895846" lon="15.770175962581">
        <ele>126.8</ele>
        <time>2015-02-11T21:01:31Z</time>
      </trkpt>
      <trkpt lat="60.00046909125" lon="15.770132963434">
        <ele>126.8</ele>
        <time>2015-02-11T21:01:33Z</time>
      </trkpt>
      <trkpt lat="60.000441095704" lon="15.770052329556">
        <ele>127</ele>
        <time>2015-02-11T21:01:34Z</time>
      </trkpt>
      <trkpt lat="60.000395498168" lon="15.769923583572">
        <ele>127</ele>
        <time>2015-02-11T21:01:37Z</time>
      </trkpt>
      <trkpt lat="60.000260298121" lon="15.769636419678">
        <ele>127.2</ele>
        <time>2015-02-11T21:01:44Z</time>
      </trkpt>
      <trkpt lat="60.00021511968" lon="15.769566263175">
        <ele>127.6</ele>
        <time>2015-02-11T21:01:47Z</time>
      </trkpt>
      <trkpt lat="60.000191482722" lon="15.769553857963">
        <ele>127.6</ele>
        <time>2015-02-11T21:01:48Z</time>
      </trkpt>
      <trkpt lat="60.000123673151" lon="15.769510272083">
        <ele>128</ele>
        <time>2015-02-11T21:01:52Z</time>
      </trkpt>
      <trkpt lat="60.000084445859" lon="15.769486635125">
        <ele>128.8</ele>
        <time>2015-02-11T21:01:55Z</time>
      </trkpt>
      <trkpt lat="60.000068352611" lon="15.769447910747">
        <ele>129.2</ele>
        <time>2015-02-11T21:01:56Z</time>
      </trkpt>
      <trkpt lat="60.000041111436" lon="15.769409270188">
        <ele>129.8</ele>
        <time>2015-02-11T21:01:58Z</time>
      </trkpt>
      <trkpt lat="60.000032058984" lon="15.769395356234">
        <ele>130</ele>
        <time>2015-02-11T21:01:59Z</time>
      </trkpt>
      <trkpt lat="59.9999955139" lon="15.7693210926">
        <ele>130.6</ele>
        <time>2015-02-11T21:02:02Z</time>
      </trkpt>
      <trkpt lat="59.999958717359" lon="15.769264430956">
        <ele>131</ele>
        <time>2015-02-11T21:02:04Z</time>
      </trkpt>
      <trkpt lat="59.999951676563" lon="15.769252025744">
        <ele>131.2</ele>
        <time>2015-02-11T21:02:05Z</time>
      </trkpt>
      <trkpt lat="59.999888141761" lon="15.769110371634">
        <ele>131.8</ele>
        <time>2015-02-11T21:02:10Z</time>
      </trkpt>
      <trkpt lat="59.999869533943" lon="15.76907634112">
        <ele>132</ele>
        <time>2015-02-11T21:02:11Z</time>
      </trkpt>
      <trkpt lat="59.999806669693" lon="15.768939799969">
        <ele>132.8</ele>
        <time>2015-02-11T21:02:16Z</time>
      </trkpt>
      <trkpt lat="59.999773728826" lon="15.768867128896">
        <ele>133</ele>
        <time>2015-02-11T21:02:18Z</time>
      </trkpt>
      <trkpt lat="59.999735842638" lon="15.768780711507">
        <ele>133.2</ele>
        <time>2015-02-11T21:02:20Z</time>
      </trkpt>
      <trkpt lat="59.999671637284" lon="15.768637883931">
        <ele>133.6</ele>
        <time>2015-02-11T21:02:24Z</time>
      </trkpt>
      <trkpt lat="59.999630817431" lon="15.768567056876">
        <ele>133.8</ele>
        <time>2015-02-11T21:02:26Z</time>
      </trkpt>
      <trkpt lat="59.999597206012" lon="15.76850972468">
        <ele>134</ele>
        <time>2015-02-11T21:02:28Z</time>
      </trkpt>
      <trkpt lat="59.999587399189" lon="15.768493547613">
        <ele>134.2</ele>
        <time>2015-02-11T21:02:29Z</time>
      </trkpt>
      <trkpt lat="59.999542975119" lon="15.768408890423">
        <ele>134.6</ele>
        <time>2015-02-11T21:02:31Z</time>
      </trkpt>
      <trkpt lat="59.99953618578" lon="15.768367567656">
        <ele>134.6</ele>
        <time>2015-02-11T21:02:32Z</time>
      </trkpt>
      <trkpt lat="59.999517075048" lon="15.768278887154">
        <ele>134.6</ele>
        <time>2015-02-11T21:02:34Z</time>
      </trkpt>
      <trkpt lat="59.999495533565" lon="15.768003709377">
        <ele>134.8</ele>
        <time>2015-02-11T21:02:38Z</time>
      </trkpt>
      <trkpt lat="59.999541717834" lon="15.767578998504">
        <ele>134.4</ele>
        <time>2015-02-11T21:02:44Z</time>
      </trkpt>
      <trkpt lat="59.99958647718" lon="15.767372468488">
        <ele>132.8</ele>
        <time>2015-02-11T21:02:48Z</time>
      </trkpt>
      <trkpt lat="59.999644060833" lon="15.767177170218">
        <ele>133.2</ele>
        <time>2015-02-11T21:02:53Z</time>
      </trkpt>
      <trkpt lat="59.999724862349" lon="15.766943566665">
        <ele>133.8</ele>
        <time>2015-02-11T21:02:56Z</time>
      </trkpt>
      <trkpt lat="59.999762245623" lon="15.766893191446">
        <ele>133.8</ele>
        <time>2015-02-11T21:02:57Z</time>
      </trkpt>
      <trkpt lat="59.99979853925" lon="15.766775006656">
        <ele>133.6</ele>
        <time>2015-02-11T21:02:59Z</time>
      </trkpt>
      <trkpt lat="59.99984631608" lon="15.76659278415">
        <ele>133.6</ele>
        <time>2015-02-11T21:03:02Z</time>
      </trkpt>
      <trkpt lat="59.999923345741" lon="15.766245522033">
        <ele>133.4</ele>
        <time>2015-02-11T21:03:07Z</time>
      </trkpt>
      <trkpt lat="59.999950670735" lon="15.766077800214">
        <ele>132.6</ele>
        <time>2015-02-11T21:03:09Z</time>
      </trkpt>
      <trkpt lat="59.999990568579" lon="15.765886609075">
        <ele>132</ele>
        <time>2015-02-11T21:03:11Z</time>
      </trkpt>
      <trkpt lat="60.000017558297" lon="15.7657252575">
        <ele>131.4</ele>
        <time>2015-02-11T21:03:13Z</time>
      </trkpt>
      <trkpt lat="60.000031891346" lon="15.765649568943">
        <ele>131</ele>
        <time>2015-02-11T21:03:14Z</time>
      </trkpt>
      <trkpt lat="60.000082098927" lon="15.765401380884">
        <ele>131.2</ele>
        <time>2015-02-11T21:03:17Z</time>
      </trkpt>
      <trkpt lat="60.000074806674" lon="15.76523826911">
        <ele>132</ele>
        <time>2015-02-11T21:03:19Z</time>
      </trkpt>
      <trkpt lat="60.000056869408" lon="15.765068787092">
        <ele>131</ele>
        <time>2015-02-11T21:03:21Z</time>
      </trkpt>
      <trkpt lat="60.000009511673" lon="15.764870722795">
        <ele>131</ele>
        <time>2015-02-11T21:03:23Z</time>
      </trkpt>
      <trkpt lat="59.999985539439" lon="15.76478564651">
        <ele>130.8</ele>
        <time>2015-02-11T21:03:24Z</time>
      </trkpt>
      <trkpt lat="59.99992762051" lon="15.764723117536">
        <ele>130.6</ele>
        <time>2015-02-11T21:03:25Z</time>
      </trkpt>
      <trkpt lat="59.999847824822" lon="15.764650362644">
        <ele>130</ele>
        <time>2015-02-11T21:03:27Z</time>
      </trkpt>
      <trkpt lat="59.999760904519" lon="15.764518347719">
        <ele>130.4</ele>
        <time>2015-02-11T21:03:31Z</time>
      </trkpt>
      <trkpt lat="59.999751097696" lon="15.764479790979">
        <ele>131</ele>
        <time>2015-02-11T21:03:32Z</time>
      </trkpt>
      <trkpt lat="59.999702817952" lon="15.764405443526">
        <ele>131</ele>
        <time>2015-02-11T21:03:33Z</time>
      </trkpt>
      <trkpt lat="59.999641546263" lon="15.764263202683">
        <ele>130.8</ele>
        <time>2015-02-11T21:03:35Z</time>
      </trkpt>
      <trkpt lat="59.999607934844" lon="15.764123141134">
        <ele>130.2</ele>
        <time>2015-02-11T21:03:37Z</time>
      </trkpt>
      <trkpt lat="59.999621262065" lon="15.76391644348">
        <ele>129.6</ele>
        <time>2015-02-11T21:03:40Z</time>
      </trkpt>
      <trkpt lat="59.999737938113" lon="15.763781997804">
        <ele>129.4</ele>
        <time>2015-02-11T21:03:43Z</time>
      </trkpt>
      <trkpt lat="59.999778506509" lon="15.763765150185">
        <ele>129</ele>
        <time>2015-02-11T21:03:44Z</time>
      </trkpt>
      <trkpt lat="59.9998530216" lon="15.763789206238">
        <ele>128.4</ele>
        <time>2015-02-11T21:03:45Z</time>
      </trkpt>
      <trkpt lat="59.999908593597" lon="15.763791301713">
        <ele>127.4</ele>
        <time>2015-02-11T21:03:46Z</time>
      </trkpt>
      <trkpt lat="59.999974391512" lon="15.763900014956">
        <ele>126.4</ele>
        <time>2015-02-11T21:03:47Z</time>
      </trkpt>
      <trkpt lat="60.000027197482" lon="15.763961454283">
        <ele>125.2</ele>
        <time>2015-02-11T21:03:48Z</time>
      </trkpt>
      <trkpt lat="60.000117554364" lon="15.764074442295">
        <ele>123.8</ele>
        <time>2015-02-11T21:03:50Z</time>
      </trkpt>
      <trkpt lat="60.000229117453" lon="15.764228920712">
        <ele>123</ele>
        <time>2015-02-11T21:03:52Z</time>
      </trkpt>
      <trkpt lat="60.000291981703" lon="15.764319193775">
        <ele>122.8</ele>
        <time>2015-02-11T21:03:53Z</time>
      </trkpt>
      <trkpt lat="60.000406981371" lon="15.764454980555">
        <ele>122.2</ele>
        <time>2015-02-11T21:03:55Z</time>
      </trkpt>
      <trkpt lat="60.00054369016" lon="15.764580038503">
        <ele>121.4</ele>
        <time>2015-02-11T21:03:57Z</time>
      </trkpt>
      <trkpt lat="60.000674783076" lon="15.764694954352">
        <ele>120.2</ele>
        <time>2015-02-11T21:03:59Z</time>
      </trkpt>
      <trkpt lat="60.000858179048" lon="15.764831076408">
        <ele>118.4</ele>
        <time>2015-02-11T21:04:01Z</time>
      </trkpt>
      <trkpt lat="60.000944009704" lon="15.764873824098">
        <ele>117.4</ele>
        <time>2015-02-11T21:04:02Z</time>
      </trkpt>
      <trkpt lat="60.001054231689" lon="15.764827472191">
        <ele>115.6</ele>
        <time>2015-02-11T21:04:03Z</time>
      </trkpt>
      <trkpt lat="60.001144085657" lon="15.764822694508">
        <ele>114.4</ele>
        <time>2015-02-11T21:04:04Z</time>
      </trkpt>
      <trkpt lat="60.001215331807" lon="15.764704006804">
        <ele>112.8</ele>
        <time>2015-02-11T21:04:05Z</time>
      </trkpt>
      <trkpt lat="60.001300491911" lon="15.764490855087">
        <ele>111</ele>
        <time>2015-02-11T21:04:07Z</time>
      </trkpt>
      <trkpt lat="60.001325889068" lon="15.764392200124">
        <ele>110.8</ele>
        <time>2015-02-11T21:04:08Z</time>
      </trkpt>
      <trkpt lat="60.001328319819" lon="15.76430704002">
        <ele>111.2</ele>
        <time>2015-02-11T21:04:09Z</time>
      </trkpt>
      <trkpt lat="60.001364361989" lon="15.764058265228">
        <ele>112</ele>
        <time>2015-02-11T21:04:11Z</time>
      </trkpt>
      <trkpt lat="60.001420353081" lon="15.763815357766">
        <ele>112</ele>
        <time>2015-02-11T21:04:13Z</time>
      </trkpt>
      <trkpt lat="60.001534011645" lon="15.763559542178">
        <ele>111</ele>
        <time>2015-02-11T21:04:15Z</time>
      </trkpt>
      <trkpt lat="60.001593020221" lon="15.763449236374">
        <ele>109.8</ele>
        <time>2015-02-11T21:04:16Z</time>
      </trkpt>
      <trkpt lat="60.00169452503" lon="15.763383103183">
        <ele>108.2</ele>
        <time>2015-02-11T21:04:17Z</time>
      </trkpt>
      <trkpt lat="60.001768621026" lon="15.763325184254">
        <ele>107.2</ele>
        <time>2015-02-11T21:04:18Z</time>
      </trkpt>
      <trkpt lat="60.001858139718" lon="15.763335493991">
        <ele>106.4</ele>
        <time>2015-02-11T21:04:19Z</time>
      </trkpt>
      <trkpt lat="60.001932654809" lon="15.763342870063">
        <ele>106.2</ele>
        <time>2015-02-11T21:04:20Z</time>
      </trkpt>
      <trkpt lat="60.002019658931" lon="15.763430880013">
        <ele>106.2</ele>
        <time>2015-02-11T21:04:21Z</time>
      </trkpt>
      <trkpt lat="60.002155864806" lon="15.763584268783">
        <ele>106.2</ele>
        <time>2015-02-11T21:04:23Z</time>
      </trkpt>
      <trkpt lat="60.002256363787" lon="15.763732963689">
        <ele>105.2</ele>
        <time>2015-02-11T21:04:25Z</time>
      </trkpt>
      <trkpt lat="60.002338003493" lon="15.763920802068">
        <ele>104.2</ele>
        <time>2015-02-11T21:04:27Z</time>
      </trkpt>
      <trkpt lat="60.002643607567" lon="15.76450066191">
        <ele>104</ele>
        <time>2015-02-11T21:04:34Z</time>
      </trkpt>
      <trkpt lat="60.002667998896" lon="15.764607363497">
        <ele>103.8</ele>
        <time>2015-02-11T21:04:35Z</time>
      </trkpt>
      <trkpt lat="60.002707645283" lon="15.764783215759">
        <ele>103.6</ele>
        <time>2015-02-11T21:04:37Z</time>
      </trkpt>
      <trkpt lat="60.002726756015" lon="15.764868459682">
        <ele>103.4</ele>
        <time>2015-02-11T21:04:38Z</time>
      </trkpt>
      <trkpt lat="60.002839324932" lon="15.765587123788">
        <ele>103.2</ele>
        <time>2015-02-11T21:04:46Z</time>
      </trkpt>
      <trkpt lat="60.002852568334" lon="15.765668931132">
        <ele>102.8</ele>
        <time>2015-02-11T21:04:47Z</time>
      </trkpt>
      <trkpt lat="60.002931777289" lon="15.76589792464">
        <ele>102.8</ele>
        <time>2015-02-11T21:04:51Z</time>
      </trkpt>
      <trkpt lat="60.002984750897" lon="15.766009906824">
        <ele>104.8</ele>
        <time>2015-02-11T21:04:54Z</time>
      </trkpt>
      <trkpt lat="60.003055410314" lon="15.766163127956">
        <ele>105.8</ele>
        <time>2015-02-11T21:04:57Z</time>
      </trkpt>
      <trkpt lat="60.003090195199" lon="15.766222974722">
        <ele>106</ele>
        <time>2015-02-11T21:04:58Z</time>
      </trkpt>
      <trkpt lat="60.003130512138" lon="15.766274691045">
        <ele>105.8</ele>
        <time>2015-02-11T21:04:59Z</time>
      </trkpt>
      <trkpt lat="60.003212403301" lon="15.766375944397">
        <ele>105</ele>
        <time>2015-02-11T21:05:01Z</time>
      </trkpt>
      <trkpt lat="60.003256575914" lon="15.766420619924">
        <ele>104.8</ele>
        <time>2015-02-11T21:05:02Z</time>
      </trkpt>
      <trkpt lat="60.003289516781" lon="15.76643436624">
        <ele>104.2</ele>
        <time>2015-02-11T21:05:03Z</time>
      </trkpt>
      <trkpt lat="60.00350250086" lon="15.766561519663">
        <ele>104.8</ele>
        <time>2015-02-11T21:05:09Z</time>
      </trkpt>
      <trkpt lat="60.003586403679" lon="15.76664978107">
        <ele>105.8</ele>
        <time>2015-02-11T21:05:12Z</time>
      </trkpt>
      <trkpt lat="60.003739960087" lon="15.766837954725">
        <ele>106.2</ele>
        <time>2015-02-11T21:05:17Z</time>
      </trkpt>
      <trkpt lat="60.003853870108" lon="15.767065690948">
        <ele>106.2</ele>
        <time>2015-02-11T21:05:21Z</time>
      </trkpt>
      <trkpt lat="60.003874405763" lon="15.767149174672">
        <ele>106.2</ele>
        <time>2015-02-11T21:05:22Z</time>
      </trkpt>
      <trkpt lat="60.003994769847" lon="15.767308849867">
        <ele>106.4</ele>
        <time>2015-02-11T21:05:26Z</time>
      </trkpt>
      <trkpt lat="60.004135501948" lon="15.767531640769">
        <ele>106.4</ele>
        <time>2015-02-11T21:05:30Z</time>
      </trkpt>
      <trkpt lat="60.004172885222" lon="15.767604730937">
        <ele>106.2</ele>
        <time>2015-02-11T21:05:31Z</time>
      </trkpt>
      <trkpt lat="60.004235330377" lon="15.767678575476">
        <ele>106</ele>
        <time>2015-02-11T21:05:33Z</time>
      </trkpt>
      <trkpt lat="60.004447224809" lon="15.767854343919">
        <ele>105</ele>
        <time>2015-02-11T21:05:37Z</time>
      </trkpt>
      <trkpt lat="60.004498102942" lon="15.767901953111">
        <ele>104.6</ele>
        <time>2015-02-11T21:05:38Z</time>
      </trkpt>
      <trkpt lat="60.004600865036" lon="15.768005721033">
        <ele>103.4</ele>
        <time>2015-02-11T21:05:40Z</time>
      </trkpt>
      <trkpt lat="60.004848885457" lon="15.768213340696">
        <ele>102</ele>
        <time>2015-02-11T21:05:44Z</time>
      </trkpt>
      <trkpt lat="60.005026162642" lon="15.768369244036">
        <ele>100.4</ele>
        <time>2015-02-11T21:05:47Z</time>
      </trkpt>
      <trkpt lat="60.005166978562" lon="15.768516094924">
        <ele>99.6</ele>
        <time>2015-02-11T21:05:50Z</time>
      </trkpt>
      <trkpt lat="60.005425811634" lon="15.76872094856">
        <ele>99.6</ele>
        <time>2015-02-11T21:05:56Z</time>
      </trkpt>
      <trkpt lat="60.005543828786" lon="15.768736455075">
        <ele>100.2</ele>
        <time>2015-02-11T21:05:59Z</time>
      </trkpt>
      <trkpt lat="60.005653464038" lon="15.768723798406">
        <ele>100.8</ele>
        <time>2015-02-11T21:06:01Z</time>
      </trkpt>
      <trkpt lat="60.005784305497" lon="15.768731174478">
        <ele>100.8</ele>
        <time>2015-02-11T21:06:04Z</time>
      </trkpt>
      <trkpt lat="60.005886480858" lon="15.768851873838">
        <ele>100.2</ele>
        <time>2015-02-11T21:06:07Z</time>
      </trkpt>
      <trkpt lat="60.005932916584" lon="15.768948265688">
        <ele>100.2</ele>
        <time>2015-02-11T21:06:09Z</time>
      </trkpt>
      <trkpt lat="60.005998295404" lon="15.769180360499">
        <ele>100</ele>
        <time>2015-02-11T21:06:12Z</time>
      </trkpt>
      <trkpt lat="60.006035846316" lon="15.769464003995">
        <ele>99.8</ele>
        <time>2015-02-11T21:06:16Z</time>
      </trkpt>
      <trkpt lat="60.00601539448" lon="15.769822833134">
        <ele>100</ele>
        <time>2015-02-11T21:06:21Z</time>
      </trkpt>
      <trkpt lat="60.005895030396" lon="15.770111841046">
        <ele>101.2</ele>
        <time>2015-02-11T21:06:27Z</time>
      </trkpt>
      <trkpt lat="60.00587541675" lon="15.770141177696">
        <ele>101.6</ele>
        <time>2015-02-11T21:06:28Z</time>
      </trkpt>
      <trkpt lat="60.005798470908" lon="15.770176633133">
        <ele>103</ele>
        <time>2015-02-11T21:06:31Z</time>
      </trkpt>
      <trkpt lat="60.005735187563" lon="15.770185853223">
        <ele>103.6</ele>
        <time>2015-02-11T21:06:34Z</time>
      </trkpt>
      <trkpt lat="60.005696211728" lon="15.770172358364">
        <ele>104</ele>
        <time>2015-02-11T21:06:36Z</time>
      </trkpt>
      <trkpt lat="60.005533602868" lon="15.770106728087">
        <ele>103.8</ele>
        <time>2015-02-11T21:06:41Z</time>
      </trkpt>
      <trkpt lat="60.005326989033" lon="15.770061130551">
        <ele>103.6</ele>
        <time>2015-02-11T21:06:47Z</time>
      </trkpt>
      <trkpt lat="60.005128924736" lon="15.770017125576">
        <ele>105</ele>
        <time>2015-02-11T21:06:53Z</time>
      </trkpt>
      <trkpt lat="60.005099588086" lon="15.769994075351">
        <ele>105</ele>
        <time>2015-02-11T21:06:54Z</time>
      </trkpt>
      <trkpt lat="60.005045189555" lon="15.770009833323">
        <ele>105</ele>
        <time>2015-02-11T21:06:55Z</time>
      </trkpt>
      <trkpt lat="60.005011578136" lon="15.770015030101">
        <ele>105.2</ele>
        <time>2015-02-11T21:06:56Z</time>
      </trkpt>
      <trkpt lat="60.00494502585" lon="15.770065070044">
        <ele>105.4</ele>
        <time>2015-02-11T21:06:58Z</time>
      </trkpt>
      <trkpt lat="60.004807478871" lon="15.770183757748">
        <ele>106.4</ele>
        <time>2015-02-11T21:07:03Z</time>
      </trkpt>
      <trkpt lat="60.004721648215" lon="15.770276964476">
        <ele>107.4</ele>
        <time>2015-02-11T21:07:06Z</time>
      </trkpt>
      <trkpt lat="60.004677559421" lon="15.77034200802">
        <ele>107.8</ele>
        <time>2015-02-11T21:07:08Z</time>
      </trkpt>
      <trkpt lat="60.004525511755" lon="15.770460947181">
        <ele>108</ele>
        <time>2015-02-11T21:07:13Z</time>
      </trkpt>
      <trkpt lat="60.004352509339" lon="15.770379810389">
        <ele>108.4</ele>
        <time>2015-02-11T21:07:18Z</time>
      </trkpt>
      <trkpt lat="60.004287465795" lon="15.770364136236">
        <ele>108.4</ele>
        <time>2015-02-11T21:07:21Z</time>
      </trkpt>
      <trkpt lat="60.004274054755" lon="15.77037134467">
        <ele>108.4</ele>
        <time>2015-02-11T21:07:22Z</time>
      </trkpt>
      <trkpt lat="60.004169197186" lon="15.770367740453">
        <ele>108.6</ele>
        <time>2015-02-11T21:07:25Z</time>
      </trkpt>
      <trkpt lat="60.004154445042" lon="15.77038475571">
        <ele>108.8</ele>
        <time>2015-02-11T21:07:26Z</time>
      </trkpt>
      <trkpt lat="60.004107925497" lon="15.770442171725">
        <ele>109.6</ele>
        <time>2015-02-11T21:07:28Z</time>
      </trkpt>
      <trkpt lat="60.004098873045" lon="15.770479806456">
        <ele>109.8</ele>
        <time>2015-02-11T21:07:29Z</time>
      </trkpt>
      <trkpt lat="60.00408839567" lon="15.770620370919">
        <ele>109.8</ele>
        <time>2015-02-11T21:07:31Z</time>
      </trkpt>
      <trkpt lat="60.004136423957" lon="15.771172570491">
        <ele>108.4</ele>
        <time>2015-02-11T21:07:37Z</time>
      </trkpt>
      <trkpt lat="60.004185206615" lon="15.771343058337">
        <ele>107.8</ele>
        <time>2015-02-11T21:07:39Z</time>
      </trkpt>
      <trkpt lat="60.004225188278" lon="15.771441294205">
        <ele>107.2</ele>
        <time>2015-02-11T21:07:40Z</time>
      </trkpt>
      <trkpt lat="60.004293165487" lon="15.771551683828">
        <ele>106</ele>
        <time>2015-02-11T21:07:42Z</time>
      </trkpt>
      <trkpt lat="60.004312611495" lon="15.771562077384">
        <ele>105.8</ele>
        <time>2015-02-11T21:07:43Z</time>
      </trkpt>
    </trkseg>
  </trk>
</gpx>